
Distance (Route):
Temperature : -23.1°C
Humidity : 25.6%
Pressure : 0hPa| Receiver | Frames | First received | Last received |
|---|---|---|---|
| IW2NTF | 532 | 2026-09-01 23:12:52 | 2026-09-02 00:47:46 |
| DO3MHA-11 | 183 | 2026-09-01 23:53:26 | 2026-09-02 00:42:26 |
| DO3MHA-12 | 58 | 2026-09-02 00:17:01 | 2026-09-02 00:38:12 |
| DB0UT-7 | 15 | 2026-09-02 00:29:10 | 2026-09-02 00:38:40 |
| NBG1-10 | 14 | 2026-09-02 00:25:17 | 2026-09-02 00:39:01 |
| OE5DRO-10 | 7 | 2026-09-02 00:37:15 | 2026-09-02 00:39:34 |
| DB0NH | 3 | 2026-09-02 00:36:18 | 2026-09-02 00:37:19 |
| Receiver | Date | Latitude | Longitude | Direction | Speed | Altitude | Climb | Temperature | Humidity | Pressure | Voltage | Killtimer | Uptime | BKT | XDATA |
|---|---|---|---|---|---|---|---|---|---|---|---|---|---|---|---|
| IW2NTF | 2026-09-02 00:47:46 | 44.72760 | 12.51535 | 81° | 73km/h | 7467m | -21.2m/s | -23.1°C | 25.6% | 0hPa | 2.6V | 08:20:41 | 02:13:53 | 00:00:00 | |
| IW2NTF | 2026-09-02 00:46:45 | 44.72641 | 12.49827 | 88° | 93km/h | 8791m | -22.7m/s | -33.1°C | 43% | 0hPa | 2.6V | 08:21:42 | 02:12:52 | 00:00:00 | |
| IW2NTF | 2026-09-02 00:46:33 | 44.72639 | 12.49403 | 89° | 100km/h | 9067m | -22.2m/s | -35°C | 24.9% | 0hPa | 2.6V | 08:21:54 | 02:12:40 | 00:00:00 | |
| IW2NTF | 2026-09-02 00:46:24 | 44.72635 | 12.49042 | 88° | 102km/h | 9296m | -23.6m/s | -36.6°C | 22.5% | 0hPa | 2.6V | 08:22:04 | 02:12:30 | 00:00:00 | |
| IW2NTF | 2026-09-02 00:46:13 | 44.72632 | 12.48681 | 89° | 99km/h | 9524m | -23.5m/s | -38.4°C | 20.5% | 0hPa | 2.4V | 08:22:14 | 02:12:20 | 00:00:00 | |
| IW2NTF | 2026-09-02 00:46:03 | 44.72624 | 12.48337 | 86° | 97km/h | 9761m | -23.8m/s | -40.2°C | 19.7% | 0hPa | 2.4V | 08:22:24 | 02:12:10 | 00:00:00 | |
| IW2NTF | 2026-09-02 00:45:53 | 44.72608 | 12.47997 | 86° | 95km/h | 10005m | -23.6m/s | -42.1°C | 22% | 0hPa | 2.4V | 08:22:34 | 02:12:00 | 00:00:00 | |
| IW2NTF | 2026-09-02 00:45:43 | 44.72591 | 12.47675 | 82° | 88km/h | 10244m | -23.8m/s | -44°C | 21.5% | 0hPa | 2.6V | 08:22:44 | 02:11:50 | 00:00:00 | |
| IW2NTF | 2026-09-02 00:45:12 | 44.72535 | 12.46864 | 86° | 78km/h | 10968m | -28m/s | -49.3°C | 23.3% | 0hPa | 2.6V | 08:23:12 | 02:11:22 | 00:00:00 | |
| IW2NTF | 2026-09-02 00:45:06 | 44.72520 | 12.46586 | 83° | 78km/h | 11258m | -29.1m/s | -51.6°C | 25% | 0hPa | 2.4V | 08:23:22 | 02:11:12 | 00:00:00 | |
| IW2NTF | 2026-09-02 00:44:55 | 44.72500 | 12.46298 | 85° | 80km/h | 11553m | -29.7m/s | -53.8°C | 25.1% | 0hPa | 2.4V | 08:23:32 | 02:11:02 | 00:00:00 | |
| IW2NTF | 2026-09-02 00:44:41 | 44.72488 | 12.46027 | 85° | 78km/h | 11845m | -28.7m/s | -56°C | 23.4% | 0hPa | 2.4V | 08:23:42 | 02:10:52 | 00:00:00 | |
| IW2NTF | 2026-09-02 00:44:36 | 44.72464 | 12.45722 | 81° | 93km/h | 12140m | -29.7m/s | -57.4°C | 17.4% | 0hPa | 2.4V | 08:23:52 | 02:10:42 | 00:00:00 | |
| IW2NTF | 2026-09-02 00:44:26 | 44.72421 | 12.45386 | 79° | 97km/h | 12443m | -29.4m/s | -56.6°C | 10.5% | 0hPa | 2.6V | 08:24:02 | 02:10:32 | 00:00:00 | |
| IW2NTF | 2026-09-02 00:44:16 | 44.72375 | 12.45040 | 79° | 104km/h | 12728m | -31.2m/s | -56.1°C | 8.3% | 0hPa | 2.6V | 08:24:12 | 02:10:22 | 00:00:00 | |
| IW2NTF | 2026-09-02 00:44:03 | 44.72345 | 12.44702 | 86° | 91km/h | 13032m | -29.2m/s | -57.4°C | 7.5% | 0hPa | 2.4V | 08:24:22 | 02:10:12 | 00:00:00 | |
| IW2NTF | 2026-09-02 00:43:53 | 44.72322 | 12.44346 | 83° | 100km/h | 13319m | -30.8m/s | -56.7°C | 6.2% | 0hPa | 2.6V | 08:24:32 | 02:10:02 | 00:00:00 | |
| IW2NTF | 2026-09-02 00:43:44 | 44.72289 | 12.44035 | 80° | 82km/h | 13636m | -33.1m/s | -55.6°C | 5.4% | 0hPa | 2.4V | 08:24:42 | 02:09:52 | 00:00:00 | |
| IW2NTF | 2026-09-02 00:43:33 | 44.72253 | 12.43724 | 82° | 89km/h | 13950m | -33.7m/s | -55.9°C | 5.4% | 0hPa | 2.4V | 08:24:52 | 02:09:42 | 00:00:00 | |
| IW2NTF | 2026-09-02 00:43:25 | 44.72231 | 12.43417 | 85° | 82km/h | 14277m | -29.9m/s | -56.7°C | 5.3% | 0hPa | 2.6V | 08:25:02 | 02:09:32 | 00:00:00 | |
| IW2NTF | 2026-09-02 00:43:14 | 44.72208 | 12.43144 | 78° | 75km/h | 14573m | -29.7m/s | -56.1°C | 5.1% | 0hPa | 2.6V | 08:25:12 | 02:09:22 | 00:00:00 | |
| IW2NTF | 2026-09-02 00:43:05 | 44.72160 | 12.42878 | 78° | 77km/h | 14898m | -29.9m/s | -56.7°C | 5.2% | 0hPa | 2.4V | 08:25:22 | 02:09:12 | 00:00:00 | |
| IW2NTF | 2026-09-02 00:42:52 | 44.72128 | 12.42627 | 80° | 68km/h | 15247m | -35.8m/s | -55.9°C | 4.6% | 0hPa | 2.4V | 08:25:32 | 02:09:02 | 00:00:00 | |
| IW2NTF | 2026-09-02 00:42:45 | 44.72095 | 12.42415 | 74° | 60km/h | 15614m | -36.6m/s | -55.6°C | 4.3% | 0hPa | 2.4V | 08:25:42 | 02:08:52 | 00:00:00 | |
| IW2NTF | 2026-09-02 00:42:32 | 44.72061 | 12.42219 | 77° | 57km/h | 15980m | -38.1m/s | -57.2°C | 5% | 0hPa | 2.6V | 08:25:52 | 02:08:42 | 00:00:00 | |
| DO3MHA-11 | 2026-09-02 00:42:26 | 44.72049 | 12.42140 | 78° | 57km/h | 16128m | -35.4m/s | -58.1°C | 5.3% | 0hPa | 2.4V | 00:00:00 | 02:08:38 | 00:00:00 | |
| IW2NTF | 2026-09-02 00:42:25 | 44.72040 | 12.42015 | 91° | 57km/h | 16337m | -35.1m/s | -57.9°C | 5.3% | 0hPa | 2.4V | 08:26:02 | 02:08:32 | 00:00:00 | |
| DO3MHA-11 | 2026-09-02 00:42:16 | 44.72046 | 12.41940 | 99° | 47km/h | 16482m | -35.5m/s | -57.4°C | 5.0% | 0hPa | 2.4V | 00:00:00 | 02:08:28 | 00:00:00 | |
| IW2NTF | 2026-09-02 00:42:14 | 44.72057 | 12.41836 | 97° | 49km/h | 16700m | -35.4m/s | -57.7°C | 5% | 0hPa | 2.4V | 08:26:12 | 02:08:22 | 00:00:00 | |
| DO3MHA-11 | 2026-09-02 00:42:05 | 44.72062 | 12.41753 | 93° | 42km/h | 16877m | -35.1m/s | -56.7°C | 4.7% | 0hPa | 2.4V | 00:00:00 | 02:08:17 | 00:00:00 | |
| IW2NTF | 2026-09-02 00:42:04 | 44.72062 | 12.41680 | 85° | 40km/h | 17055m | -36.8m/s | -55.9°C | 4.3% | 0hPa | 2.6V | 08:26:22 | 02:08:12 | 00:00:00 | |
| DO3MHA-11 | 2026-09-02 00:41:55 | 44.72055 | 12.41602 | 86° | 53km/h | 17241m | -38.1m/s | -56.6°C | 4.5% | 0hPa | 2.4V | 00:00:00 | 02:08:07 | 00:00:00 | |
| IW2NTF | 2026-09-02 00:41:54 | 44.72054 | 12.41512 | 92° | 57km/h | 17433m | -40.8m/s | -57.5°C | 5% | 0hPa | 2.4V | 08:26:32 | 02:08:02 | 00:00:00 | |
| DO3MHA-11 | 2026-09-02 00:41:45 | 44.72061 | 12.41416 | 100° | 35km/h | 17635m | -40.5m/s | -57.0°C | 4.8% | 0hPa | 2.4V | 00:00:00 | 02:07:57 | 00:00:00 | |
| IW2NTF | 2026-09-02 00:41:43 | 44.72078 | 12.41332 | 111° | 47km/h | 17839m | -42.2m/s | -58.2°C | 5.2% | 0hPa | 2.4V | 08:26:42 | 02:07:52 | 00:00:00 | |
| IW2NTF | 2026-09-02 00:41:33 | 44.72108 | 12.41221 | 78° | 24km/h | 18241m | -40.3m/s | -56.4°C | 4.7% | 0hPa | 2.6V | 08:26:52 | 02:07:42 | 00:00:00 | |
| IW2NTF | 2026-09-02 00:41:25 | 44.72074 | 12.41138 | 69° | 29km/h | 18661m | -42.5m/s | -57.5°C | 5% | 0hPa | 2.6V | 08:27:02 | 02:07:32 | 00:00:00 | |
| IW2NTF | 2026-09-02 00:41:15 | 44.72074 | 12.41040 | 102° | 22km/h | 19095m | -42.4m/s | -56.4°C | 4.8% | 0hPa | 2.4V | 08:27:12 | 02:07:22 | 00:00:00 | |
| DO3MHA-11 | 2026-09-02 00:41:06 | 44.72080 | 12.41010 | 112° | 22km/h | 19262m | -41.9m/s | -55.6°C | 4.5% | 0hPa | 2.4V | 08:27:00 | 02:07:18 | 00:00:00 | |
| IW2NTF | 2026-09-02 00:41:05 | 44.72094 | 12.40949 | 124° | 20km/h | 19593m | -42m/s | -55.9°C | 4.6% | 0hPa | 2.6V | 08:27:24 | 02:07:10 | 00:00:00 | |
| DO3MHA-11 | 2026-09-02 00:40:56 | 44.72100 | 12.40938 | 133° | 15km/h | 19678m | -43.2m/s | -55.2°C | 4.4% | 0hPa | 2.6V | 00:00:00 | 02:07:08 | 00:00:00 | |
| IW2NTF | 2026-09-02 00:40:50 | 44.72107 | 12.40906 | 79° | 11km/h | 20030m | -45.6m/s | -55.1°C | 4.3% | 0hPa | 2.6V | 08:27:34 | 02:07:00 | 00:00:00 | |
| IW2NTF | 2026-09-02 00:40:38 | 44.72105 | 12.40880 | 88° | 5km/h | 20469m | -44.4m/s | -55.5°C | 4.6% | 0hPa | 2.6V | 08:27:44 | 02:06:50 | 00:00:00 | |
| IW2NTF | 2026-09-02 00:40:33 | 44.72095 | 12.40871 | 321° | 5km/h | 20922m | -44.5m/s | -54.8°C | 4.5% | 0hPa | 2.6V | 08:27:54 | 02:06:40 | 00:00:00 | |
| IW2NTF | 2026-09-02 00:40:18 | 44.72079 | 12.40906 | 343° | 18km/h | 21371m | -47.2m/s | -54.4°C | 4.4% | 0hPa | 2.6V | 08:28:04 | 02:06:30 | 00:00:00 | |
| IW2NTF | 2026-09-02 00:40:13 | 44.72045 | 12.40882 | 90° | 13km/h | 21839m | -47.7m/s | -53.1°C | 4% | 0hPa | 2.6V | 08:28:14 | 02:06:20 | 00:00:00 | |
| DO3MHA-11 | 2026-09-02 00:40:05 | 44.72045 | 12.40870 | 99° | 7km/h | 21985m | -49.1m/s | -52.6°C | 3.9% | 0hPa | 2.6V | 00:00:00 | 02:06:17 | 00:00:00 | |
| IW2NTF | 2026-09-02 00:39:59 | 44.72056 | 12.40856 | 167° | 7km/h | 22376m | -48.6m/s | -52.4°C | 3.8% | 0hPa | 2.6V | 08:28:25 | 02:06:09 | 00:00:00 | |
| DO3MHA-11 | 2026-09-02 00:39:55 | 44.72060 | 12.40857 | 211° | 7km/h | 22475m | -48.9m/s | -52.3°C | 3.8% | 0hPa | 2.4V | 00:00:00 | 02:06:07 | 00:00:00 | |
| IW2NTF | 2026-09-02 00:39:52 | 44.72073 | 12.40862 | 162° | 5km/h | 22875m | -51.2m/s | -52.2°C | 3.9% | 0hPa | 2.6V | 08:28:35 | 02:05:59 | 00:00:00 | |
| DO3MHA-11 | 2026-09-02 00:39:45 | 44.72076 | 12.40861 | 164° | 5km/h | 22976m | -51.4m/s | -52.3°C | 4.0% | 0hPa | 2.6V | 00:00:00 | 02:05:57 | 00:00:00 | |
| IW2NTF | 2026-09-02 00:39:39 | 44.72087 | 12.40857 | 130° | 4km/h | 23419m | -57.8m/s | -52.8°C | 4.4% | 0hPa | 2.6V | 08:28:45 | 02:05:49 | 00:00:00 | |
| DO3MHA-11 | 2026-09-02 00:39:35 | 44.72088 | 12.40856 | 176° | 2km/h | 23536m | -58.3m/s | -52.7°C | 4.4% | 0hPa | 2.6V | 00:00:00 | 02:05:47 | 00:00:00 | |
| OE5DRO-10 | 2026-09-02 00:39:34 | 44.72088 | 12.40856 | 158° | 5km/h | 23593m | -56.5m/s | 0°C | 0% | 0hPa | 2.6V | 00:00:00 | 00:00:00 | 00:00:00 | |
| IW2NTF | 2026-09-02 00:39:32 | 44.72091 | 12.40852 | 26° | 2km/h | 23995m | -59.2m/s | -52.1°C | 4.3% | 0hPa | 2.6V | 08:28:55 | 02:05:39 | 00:00:00 | |
| DO3MHA-11 | 2026-09-02 00:39:25 | 44.72090 | 12.40851 | 14° | 5km/h | 24114m | -59.4m/s | -50.7°C | 3.8% | 0hPa | 2.4V | 00:00:00 | 02:05:37 | 00:00:00 | |
| IW2NTF | 2026-09-02 00:39:18 | 44.72087 | 12.40864 | 288° | 13km/h | 24585m | -58m/s | -48.9°C | 3.3% | 0hPa | 2.6V | 08:29:05 | 02:05:29 | 00:00:00 | |
| OE5DRO-10 | 2026-09-02 00:39:14 | 44.72083 | 12.40879 | 307° | 11km/h | 24761m | -59.0m/s | 0°C | 0% | 0hPa | 2.6V | 00:00:00 | 00:00:00 | 00:00:00 | |
| IW2NTF | 2026-09-02 00:39:12 | 44.72061 | 12.40900 | 348° | 7km/h | 25191m | -63.9m/s | -49.1°C | 3.5% | 0hPa | 2.6V | 08:29:15 | 02:05:19 | 00:00:00 | |
| NBG1-10 | 2026-09-02 00:39:01 | 44.72053 | 12.40906 | 305° | 9km/h | 25578m | -64.2m/s | -48.6°C | 3.5% | 0hPa | 2.6V | 00:00:00 | 02:05:13 | 00:00:00 | |
| IW2NTF | 2026-09-02 00:38:59 | 44.72045 | 12.40914 | 339° | 9km/h | 25836m | -66m/s | -49.1°C | 3.7% | 0hPa | 2.6V | 08:29:25 | 02:05:09 | 00:00:00 | |
| OE5DRO-10 | 2026-09-02 00:38:55 | 44.72040 | 12.40917 | 349° | 7km/h | 25969m | -66.5m/s | 0°C | 0% | 0hPa | 2.6V | 00:00:00 | 00:00:00 | 00:00:00 | |
| IW2NTF | 2026-09-02 00:38:52 | 44.72025 | 12.40922 | 8° | 7km/h | 26486m | -65.5m/s | -47.8°C | 3.5% | 0hPa | 2.6V | 08:29:35 | 02:04:59 | 00:00:00 | |
| DB0UT-7 | 2026-09-02 00:38:40 | 44.72017 | 12.40914 | 44° | 9km/h | 26961m | -70.7m/s | -46.0°C | 3.2% | 0hPa | 2.4V | 00:00:00 | 00:00:00 | 00:00:00 | |
| IW2NTF | 2026-09-02 00:38:38 | 44.72015 | 12.40914 | 11° | 5km/h | 27172m | -70.9m/s | -45.6°C | 3% | 0hPa | 2.6V | 08:30:00 | 02:04:49 | 00:00:00 | |
| OE5DRO-10 | 2026-09-02 00:38:36 | 44.72014 | 12.40914 | 341° | 7km/h | 27243m | -70.1m/s | 0°C | 0% | 0hPa | 2.6V | 00:00:00 | 00:00:00 | 00:00:00 | |
| IW2NTF | 2026-09-02 00:38:32 | 44.71996 | 12.40902 | 53° | 9km/h | 27896m | -73.8m/s | -44.6°C | 2.9% | 0hPa | 2.6V | 08:30:00 | 02:04:39 | 00:00:00 | |
| NBG1-10 | 2026-09-02 00:38:28 | 44.71998 | 12.40904 | 47° | 16km/h | 27822m | -74.2m/s | -45.0°C | 3.0% | 0hPa | 2.6V | 00:00:00 | 02:04:40 | 00:00:00 | |
| DO3MHA-11 | 2026-09-02 00:38:25 | 44.71994 | 12.40898 | 30° | 9km/h | 28043m | -74.5m/s | -43.8°C | 2.7% | 0hPa | 2.4V | 00:00:00 | 02:04:37 | 00:00:00 | |
| IW2NTF | 2026-09-02 00:38:18 | 44.71977 | 12.40906 | 324° | 13km/h | 28605m | -66.7m/s | -42.9°C | 2.6% | 0hPa | 2.4V | 08:30:00 | 02:04:29 | 00:00:00 | |
| OE5DRO-10 | 2026-09-02 00:38:17 | 44.71977 | 12.40906 | 325° | 16km/h | 28606m | -66.6m/s | 0°C | 0% | 0hPa | 2.4V | 00:00:00 | 00:00:00 | 00:00:00 | |
| DO3MHA-11 | 2026-09-02 00:38:15 | 44.71971 | 12.40910 | 330° | 9km/h | 28738m | -65.6m/s | -42.9°C | 2.5% | 0hPa | 2.4V | 00:00:00 | 02:04:27 | 00:00:00 | |
| IW2NTF | 2026-09-02 00:38:12 | 44.71959 | 12.40927 | 244° | 4km/h | 29229m | -56.6m/s | -43°C | 2.5% | 0hPa | 2.4V | 08:30:00 | 02:04:19 | 00:00:00 | |
| DO3MHA-12 | 2026-09-02 00:38:12 | 44.71964 | 12.40916 | 336° | 9km/h | 28928m | -61.2m/s | -42.9°C | 2.5% | 0hPa | 2.6V | 00:00:00 | 02:04:24 | 00:00:00 | |
| DB0UT-7 | 2026-09-02 00:38:08 | 44.71959 | 12.40925 | 283° | 9km/h | 29172m | -57.2m/s | -42.9°C | 2.6% | 0hPa | 2.6V | 00:00:00 | 02:04:20 | 00:00:00 | |
| DO3MHA-11 | 2026-09-02 00:38:05 | 44.71960 | 12.40927 | 126° | 27km/h | 29342m | -55.7m/s | -42.5°C | 2.4% | 0hPa | 2.6V | 00:00:00 | 02:04:17 | 08:30:00 | |
| DO3MHA-12 | 2026-09-02 00:38:02 | 44.71965 | 12.40914 | 116° | 29km/h | 29499m | -48.3m/s | -42.7°C | 2.4% | 0hPa | 2.5V | 00:00:00 | 02:04:14 | 00:00:00 | |
| IW2NTF | 2026-09-02 00:37:58 | 44.71984 | 12.40855 | 115° | 42km/h | 29692m | -27.1m/s | -43°C | 2.4% | 0hPa | 2.5V | 08:30:00 | 02:04:09 | 00:00:00 | |
| DO3MHA-11 | 2026-09-02 00:37:55 | 44.71995 | 12.40847 | 174° | 20km/h | 29758m | -30.2m/s | -43.1°C | 2.5% | 0hPa | 2.6V | 00:00:00 | 02:04:07 | 00:00:00 | |
| IW2NTF | 2026-09-02 00:37:52 | 44.72040 | 12.40844 | 182° | 22km/h | 29780m | 5.9m/s | -43.3°C | 2.6% | 0hPa | 2.6V | 08:30:00 | 02:03:58 | 00:00:00 | |
| DO3MHA-12 | 2026-09-02 00:37:52 | 44.72010 | 12.40843 | 171° | 20km/h | 29811m | -4.1m/s | -43.3°C | 2.6% | 0hPa | 2.6V | 00:00:00 | 02:04:04 | 00:00:00 | |
| NBG1-10 | 2026-09-02 00:37:49 | 44.72025 | 12.40842 | 185° | 16km/h | 29798m | 5.6m/s | -43.3°C | 2.6% | 0hPa | 2.6V | 00:00:00 | 02:04:01 | 00:00:00 | |
| DO3MHA-11 | 2026-09-02 00:37:45 | 44.72046 | 12.40844 | 183° | 20km/h | 29775m | 4.9m/s | -43.3°C | 2.6% | 0hPa | 2.6V | 00:00:00 | 02:03:57 | 00:00:00 | |
| DO3MHA-12 | 2026-09-02 00:37:42 | 44.72059 | 12.40846 | 186° | 18km/h | 29758m | 4.9m/s | -43.2°C | 2.6% | 0hPa | 2.6V | 00:00:00 | 02:03:54 | 00:00:00 | |
| IW2NTF | 2026-09-02 00:37:41 | 44.72089 | 12.40840 | 176° | 22km/h | 29726m | 6.7m/s | -43.5°C | 2.6% | 0hPa | 2.6V | 08:30:00 | 02:03:48 | 00:00:00 | |
| DO3MHA-11 | 2026-09-02 00:37:35 | 44.72094 | 12.40840 | 185° | 16km/h | 29720m | 5.9m/s | -43.5°C | 2.6% | 0hPa | 2.5V | 00:00:00 | 02:03:47 | 00:00:00 | |
| OE5DRO-10 | 2026-09-02 00:37:34 | 44.72098 | 12.40841 | 192° | 13km/h | 29714m | 5.1m/s | 0°C | 0% | 0hPa | 2.6V | 00:00:00 | 00:00:00 | 00:00:00 | |
| DO3MHA-12 | 2026-09-02 00:37:32 | 44.72106 | 12.40843 | 184° | 15km/h | 29704m | 6.3m/s | -43.5°C | 2.6% | 0hPa | 2.6V | 00:00:00 | 02:03:44 | 00:00:00 | |
| IW2NTF | 2026-09-02 00:37:31 | 44.72131 | 12.40834 | 151° | 11km/h | 29668m | 5.5m/s | -43.6°C | 2.7% | 0hPa | 2.6V | 08:30:00 | 02:03:38 | 00:00:00 | |
| DO3MHA-11 | 2026-09-02 00:37:25 | 44.72133 | 12.40832 | 155° | 9km/h | 29663m | 6.4m/s | -43.6°C | 2.7% | 0hPa | 2.5V | 00:00:00 | 02:03:37 | 00:00:00 | |
| DO3MHA-12 | 2026-09-02 00:37:22 | 44.72141 | 12.40830 | 184° | 11km/h | 29647m | 5.7m/s | -43.5°C | 2.6% | 0hPa | 2.5V | 00:00:00 | 02:03:34 | 00:00:00 | |
| IW2NTF | 2026-09-02 00:37:21 | 44.72152 | 12.40836 | 176° | 16km/h | 29612m | 5.7m/s | -43.7°C | 2.7% | 0hPa | 2.5V | 08:30:00 | 02:03:28 | 00:00:00 | |
| DB0NH | 2026-09-02 00:37:19 | 44.72145 | 12.40833 | 232° | 11km/h | 29630m | 4.6m/s | 0°C | 0% | 0hPa | 2.5V | 00:00:00 | 02:03:31 | 00:00:00 | |
| OE5DRO-10 | 2026-09-02 00:37:15 | 44.72156 | 12.40836 | 171° | 13km/h | 29607m | 4.7m/s | 0°C | 0% | 0hPa | 2.5V | 00:00:00 | 00:00:00 | 00:00:00 | |
| DO3MHA-12 | 2026-09-02 00:37:12 | 44.72164 | 12.40832 | 109° | 9km/h | 29591m | 5.7m/s | -43.7°C | 2.7% | 0hPa | 2.5V | 00:00:00 | 02:03:24 | 00:00:00 | |
| IW2NTF | 2026-09-02 00:37:10 | 44.72153 | 12.40839 | 295° | 15km/h | 29544m | 5.2m/s | -43.5°C | 2.6% | 0hPa | 2.5V | 08:30:00 | 02:03:16 | 00:00:00 | |
| DO3MHA-11 | 2026-09-02 00:37:05 | 44.72155 | 12.40835 | 305° | 9km/h | 29550m | 6.6m/s | -43.5°C | 2.7% | 0hPa | 2.5V | 00:00:00 | 02:03:17 | 00:00:00 | |
| DO3MHA-12 | 2026-09-02 00:37:02 | 44.72151 | 12.40847 | 274° | 9km/h | 29533m | 6.6m/s | -43.5°C | 2.6% | 0hPa | 2.6V | 00:00:00 | 02:03:14 | 08:30:00 | |
| IW2NTF | 2026-09-02 00:36:59 | 44.72137 | 12.40852 | 352° | 11km/h | 29486m | 5.4m/s | -43.6°C | 2.6% | 0hPa | 2.5V | 08:30:00 | 02:03:06 | 00:00:00 | |
| DO3MHA-11 | 2026-09-02 00:36:55 | 44.72140 | 12.40851 | 359° | 16km/h | 29492m | 6.4m/s | -43.6°C | 2.6% | 0hPa | 2.5V | 00:00:00 | 02:03:07 | 00:00:00 | |
| DO3MHA-12 | 2026-09-02 00:36:52 | 44.72131 | 12.40855 | 329° | 16km/h | 29476m | 5.8m/s | -43.5°C | 2.6% | 0hPa | 2.5V | 00:00:00 | 02:03:04 | 00:00:00 | |
| IW2NTF | 2026-09-02 00:36:49 | 44.72103 | 12.40878 | 9° | 15km/h | 29431m | 6.3m/s | -43.5°C | 2.6% | 0hPa | 2.5V | 08:30:00 | 02:02:56 | 00:00:00 | |
| DB0NH | 2026-09-02 00:36:48 | 44.72115 | 12.40874 | 322° | 15km/h | 29454m | 6.0m/s | 0°C | 0% | 0hPa | 2.5V | 00:00:00 | 02:03:00 | 00:00:00 | |
| DO3MHA-11 | 2026-09-02 00:36:45 | 44.72106 | 12.40878 | 9° | 16km/h | 29437m | 5.0m/s | -43.4°C | 2.6% | 0hPa | 2.5V | 00:00:00 | 02:02:57 | 00:00:00 | |
| DO3MHA-12 | 2026-09-02 00:36:42 | 44.72095 | 12.40877 | 360° | 18km/h | 29420m | 5.1m/s | -43.5°C | 2.6% | 0hPa | 2.5V | 00:00:00 | 02:02:54 | 00:00:00 | |
| IW2NTF | 2026-09-02 00:36:36 | 44.72079 | 12.40911 | 285° | 26km/h | 29374m | 4.2m/s | -43.8°C | 2.6% | 0hPa | 2.5V | 08:30:00 | 02:02:46 | 00:00:00 | |
| DO3MHA-11 | 2026-09-02 00:36:34 | 44.72080 | 12.40911 | 286° | 13km/h | 29375m | 4.2m/s | -43.7°C | 2.6% | 0hPa | 2.5V | 00:00:00 | 02:02:46 | 08:30:00 | |
| DO3MHA-12 | 2026-09-02 00:36:32 | 44.72076 | 12.40924 | 300° | 9km/h | 29365m | 6.4m/s | -43.9°C | 2.6% | 0hPa | 2.6V | 00:00:00 | 02:02:44 | 00:00:00 | |
| IW2NTF | 2026-09-02 00:36:26 | 44.72063 | 12.40922 | 260° | 9km/h | 29319m | 6.6m/s | -44.3°C | 2.7% | 0hPa | 2.5V | 08:30:00 | 02:02:36 | 00:00:00 | |
| DO3MHA-11 | 2026-09-02 00:36:24 | 44.72063 | 12.40922 | 261° | 9km/h | 29320m | 6.6m/s | 0°C | 0% | 0hPa | 2.5V | 00:00:00 | 02:02:36 | 00:00:00 | |
| DO3MHA-12 | 2026-09-02 00:36:22 | 44.72066 | 12.40930 | 239° | 9km/h | 29307m | 5.4m/s | -44.3°C | 2.8% | 0hPa | 2.5V | 00:00:00 | 02:02:34 | 00:00:00 | |
| DB0NH | 2026-09-02 00:36:18 | 44.72070 | 12.40946 | 274° | 5km/h | 29284m | 5.6m/s | 0°C | 0% | 0hPa | 2.5V | 00:00:00 | 02:02:30 | 00:00:00 | |
| IW2NTF | 2026-09-02 00:36:15 | 44.72071 | 12.40941 | 91° | 7km/h | 29260m | 6.4m/s | -44.3°C | 2.7% | 0hPa | 2.5V | 08:30:00 | 02:02:26 | 00:00:00 | |
| DO3MHA-11 | 2026-09-02 00:36:14 | 44.72071 | 12.40941 | 92° | 9km/h | 29261m | 6.3m/s | -44.3°C | 2.7% | 0hPa | 2.6V | 00:00:00 | 02:02:26 | 00:00:00 | |
| DO3MHA-12 | 2026-09-02 00:36:12 | 44.72070 | 12.40938 | 27° | 7km/h | 29249m | 5.2m/s | -44.3°C | 2.7% | 0hPa | 2.6V | 00:00:00 | 02:02:24 | 00:00:00 | |
| IW2NTF | 2026-09-02 00:36:09 | 44.72072 | 12.40961 | 293° | 7km/h | 29204m | 5m/s | -44.3°C | 2.7% | 0hPa | 2.6V | 08:30:00 | 02:02:16 | 00:00:00 | |
| NBG1-10 | 2026-09-02 00:36:09 | 44.72071 | 12.40941 | 241° | 11km/h | 29232m | 5.4m/s | -44.3°C | 2.7% | 0hPa | 2.6V | 00:00:00 | 02:02:21 | 00:00:00 | |
| DB0UT-7 | 2026-09-02 00:36:05 | 44.72073 | 12.40958 | 288° | 9km/h | 29209m | 4.5m/s | -44.3°C | 2.7% | 0hPa | 2.6V | 00:00:00 | 00:00:00 | 00:00:00 | |
| DO3MHA-11 | 2026-09-02 00:36:04 | 44.72072 | 12.40961 | 294° | 7km/h | 29205m | 4.9m/s | -44.2°C | 2.7% | 0hPa | 2.6V | 00:00:00 | 02:02:16 | 00:00:00 | |
| IW2NTF | 2026-09-02 00:35:55 | 44.72067 | 12.40942 | 32° | 4km/h | 29146m | 4.6m/s | -44.3°C | 2.7% | 0hPa | 2.5V | 08:30:00 | 02:02:06 | 00:00:00 | |
| DO3MHA-11 | 2026-09-02 00:35:54 | 44.72067 | 12.40942 | 33° | 5km/h | 29147m | 4.6m/s | -44.2°C | 2.7% | 0hPa | 2.5V | 00:00:00 | 02:02:06 | 00:00:00 | |
| IW2NTF | 2026-09-02 00:35:50 | 44.72055 | 12.40952 | 9° | 4km/h | 29091m | 5.5m/s | -44.7°C | 2.8% | 0hPa | 2.5V | 08:30:00 | 02:01:56 | 00:00:00 | |
| DO3MHA-12 | 2026-09-02 00:35:49 | 44.72057 | 12.40949 | 330° | 7km/h | 29119m | 5.5m/s | -44.4°C | 2.7% | 0hPa | 2.5V | 00:00:00 | 02:02:01 | 00:00:00 | |
| DO3MHA-11 | 2026-09-02 00:35:44 | 44.72055 | 12.40952 | 10° | 13km/h | 29091m | 5.5m/s | -44.6°C | 2.8% | 0hPa | 2.5V | 00:00:00 | 02:01:56 | 00:00:00 | |
| DO3MHA-12 | 2026-09-02 00:35:39 | 44.72043 | 12.40942 | 25° | 13km/h | 29065m | 5.2m/s | -44.6°C | 2.8% | 0hPa | 2.5V | 00:00:00 | 02:01:51 | 00:00:00 | |
| IW2NTF | 2026-09-02 00:35:38 | 44.72026 | 12.40964 | 318° | 11km/h | 29023m | 6.4m/s | -44.7°C | 2.8% | 0hPa | 2.5V | 08:30:00 | 02:01:44 | 00:00:00 | |
| DB0UT-7 | 2026-09-02 00:35:35 | 44.72034 | 12.40952 | 309° | 15km/h | 29041m | 5.6m/s | -44.7°C | 2.8% | 0hPa | 2.5V | 00:00:00 | 02:01:47 | 00:00:00 | |
| DO3MHA-11 | 2026-09-02 00:35:34 | 44.72031 | 12.40957 | 312° | 13km/h | 29035m | 5.2m/s | -44.6°C | 2.8% | 0hPa | 2.6V | 00:00:00 | 02:01:46 | 00:00:00 | |
| DO3MHA-12 | 2026-09-02 00:35:29 | 44.72020 | 12.40967 | 357° | 16km/h | 29007m | 5.9m/s | -44.6°C | 2.8% | 0hPa | 2.6V | 00:00:00 | 02:01:41 | 08:30:00 | |
| IW2NTF | 2026-09-02 00:35:25 | 44.71996 | 12.40984 | 310° | 16km/h | 28965m | 6.4m/s | -44.4°C | 2.7% | 0hPa | 2.6V | 08:30:00 | 02:01:34 | 00:00:00 | |
| DO3MHA-11 | 2026-09-02 00:35:24 | 44.72001 | 12.40976 | 321° | 15km/h | 28977m | 6.2m/s | -44.4°C | 2.7% | 0hPa | 2.5V | 00:00:00 | 02:01:36 | 00:00:00 | |
| DO3MHA-12 | 2026-09-02 00:35:19 | 44.71987 | 12.40995 | 330° | 15km/h | 28948m | 5.3m/s | -44.4°C | 2.7% | 0hPa | 2.5V | 00:00:00 | 02:01:31 | 00:00:00 | |
| IW2NTF | 2026-09-02 00:35:14 | 44.71964 | 12.41002 | 331° | 18km/h | 28906m | 5.6m/s | -44.6°C | 2.7% | 0hPa | 2.5V | 08:30:00 | 02:01:24 | 00:00:00 | |
| DO3MHA-11 | 2026-09-02 00:35:14 | 44.71972 | 12.40999 | 355° | 18km/h | 28917m | 6.3m/s | -44.5°C | 2.8% | 0hPa | 2.6V | 00:00:00 | 02:01:26 | 00:00:00 | |
| DO3MHA-12 | 2026-09-02 00:35:09 | 44.71955 | 12.41016 | 296° | 18km/h | 28888m | 5.7m/s | -44.6°C | 2.8% | 0hPa | 2.6V | 00:00:00 | 02:01:21 | 00:00:00 | |
| IW2NTF | 2026-09-02 00:35:05 | 44.71935 | 12.41043 | 5° | 16km/h | 28846m | 5.8m/s | -44.6°C | 2.8% | 0hPa | 2.6V | 08:30:00 | 02:01:14 | 00:00:00 | |
| DB0UT-7 | 2026-09-02 00:35:05 | 44.71944 | 12.41039 | 318° | 20km/h | 28865m | 6.1m/s | -44.6°C | 2.8% | 0hPa | 2.5V | 00:00:00 | 00:00:00 | 00:00:00 | |
| DO3MHA-11 | 2026-09-02 00:35:04 | 44.71941 | 12.41042 | 330° | 20km/h | 28858m | 6.4m/s | -44.6°C | 2.7% | 0hPa | 2.5V | 00:00:00 | 02:01:16 | 08:30:00 | |
| DO3MHA-12 | 2026-09-02 00:34:59 | 44.71918 | 12.41042 | 355° | 22km/h | 28829m | 5.1m/s | -44.6°C | 2.8% | 0hPa | 2.5V | 00:00:00 | 02:01:11 | 00:00:00 | |
| IW2NTF | 2026-09-02 00:34:53 | 44.71885 | 12.41077 | 313° | 22km/h | 28787m | 5m/s | -44.5°C | 2.7% | 0hPa | 2.6V | 08:30:00 | 02:01:04 | 00:00:00 | |
| DO3MHA-12 | 2026-09-02 00:34:49 | 44.71877 | 12.41089 | 327° | 18km/h | 28769m | 5.3m/s | -44.5°C | 2.8% | 0hPa | 2.5V | 00:00:00 | 02:01:01 | 00:00:00 | |
| IW2NTF | 2026-09-02 00:34:42 | 44.71846 | 12.41108 | 321° | 22km/h | 28728m | 5.9m/s | -44.5°C | 2.7% | 0hPa | 2.5V | 08:30:00 | 02:00:54 | 00:00:00 | |
| DO3MHA-12 | 2026-09-02 00:34:39 | 44.71835 | 12.41121 | 323° | 15km/h | 28711m | 6.9m/s | -44.4°C | 2.7% | 0hPa | 2.5V | 00:00:00 | 02:00:51 | 00:00:00 | |
| IW2NTF | 2026-09-02 00:34:36 | 44.71812 | 12.41152 | 318° | 20km/h | 28657m | 5.5m/s | -44.4°C | 2.6% | 0hPa | 2.5V | 08:30:00 | 02:00:42 | 00:00:00 | |
| DB0UT-7 | 2026-09-02 00:34:35 | 44.71822 | 12.41134 | 311° | 13km/h | 28687m | 6.7m/s | -44.3°C | 2.6% | 0hPa | 2.6V | 00:00:00 | 02:00:47 | 00:00:00 | |
| DO3MHA-11 | 2026-09-02 00:34:34 | 44.71821 | 12.41137 | 294° | 16km/h | 28681m | 5.8m/s | -44.3°C | 2.6% | 0hPa | 2.6V | 00:00:00 | 02:00:46 | 00:00:00 | |
| DO3MHA-12 | 2026-09-02 00:34:28 | 44.71804 | 12.41163 | 308° | 15km/h | 28645m | 6.8m/s | -44.5°C | 2.6% | 0hPa | 2.5V | 00:00:00 | 02:00:40 | 00:00:00 | |
| IW2NTF | 2026-09-02 00:34:24 | 44.71783 | 12.41199 | 310° | 7km/h | 28598m | 7m/s | -45°C | 2.7% | 0hPa | 2.5V | 08:30:00 | 02:00:32 | 00:00:00 | |
| DO3MHA-11 | 2026-09-02 00:34:24 | 44.71794 | 12.41186 | 313° | 9km/h | 28622m | 6.2m/s | -44.8°C | 2.7% | 0hPa | 2.5V | 00:00:00 | 02:00:36 | 00:00:00 | |
| DO3MHA-12 | 2026-09-02 00:34:18 | 44.71782 | 12.41201 | 256° | 11km/h | 28587m | 4.7m/s | -45.1°C | 2.8% | 0hPa | 2.5V | 00:00:00 | 02:00:30 | 00:00:00 | |
| IW2NTF | 2026-09-02 00:34:15 | 44.71770 | 12.41219 | 297° | 16km/h | 28539m | 6.4m/s | -45.5°C | 2.8% | 0hPa | 2.5V | 08:30:00 | 02:00:22 | 00:00:00 | |
| DO3MHA-11 | 2026-09-02 00:34:14 | 44.71777 | 12.41205 | 334° | 13km/h | 28564m | 5.2m/s | -45.3°C | 2.7% | 0hPa | 2.5V | 00:00:00 | 02:00:26 | 00:00:00 | |
| DO3MHA-12 | 2026-09-02 00:34:08 | 44.71765 | 12.41229 | 308° | 7km/h | 28528m | 4.2m/s | -45.5°C | 2.8% | 0hPa | 2.5V | 00:00:00 | 02:00:20 | 00:00:00 | |
| DB0UT-7 | 2026-09-02 00:34:05 | 44.71760 | 12.41238 | 263° | 7km/h | 28511m | 6.5m/s | -45.6°C | 2.8% | 0hPa | 2.5V | 00:00:00 | 00:00:00 | 08:30:00 | |
| DO3MHA-11 | 2026-09-02 00:34:04 | 44.71761 | 12.41237 | 131° | 5km/h | 28505m | 5.6m/s | -45.6°C | 2.8% | 0hPa | 2.5V | 00:00:00 | 02:00:16 | 00:00:00 | |
| IW2NTF | 2026-09-02 00:34:03 | 44.71759 | 12.41233 | 4° | 7km/h | 28481m | 4.6m/s | -45.8°C | 2.8% | 0hPa | 2.6V | 08:30:00 | 02:00:12 | 00:00:00 | |
| DO3MHA-12 | 2026-09-02 00:33:58 | 44.71755 | 12.41234 | 330° | 5km/h | 28470m | 6.8m/s | -45.9°C | 2.9% | 0hPa | 2.6V | 00:00:00 | 02:00:10 | 08:30:00 | |
| DO3MHA-11 | 2026-09-02 00:33:54 | 44.71755 | 12.41241 | 270° | 9km/h | 28447m | 6.1m/s | 0°C | 0% | 0hPa | 2.5V | 00:00:00 | 02:00:06 | 00:00:00 | |
| IW2NTF | 2026-09-02 00:33:53 | 44.71752 | 12.41248 | 25° | 2km/h | 28423m | 6.7m/s | -46.3°C | 2.9% | 0hPa | 2.5V | 08:30:00 | 02:00:02 | 00:00:00 | |
| DO3MHA-12 | 2026-09-02 00:33:48 | 44.71752 | 12.41244 | 101° | 13km/h | 28410m | 5.6m/s | -46.3°C | 2.9% | 0hPa | 2.6V | 00:00:00 | 02:00:00 | 00:00:00 | |
| IW2NTF | 2026-09-02 00:33:45 | 44.71748 | 12.41210 | 355° | 2km/h | 28362m | 5.9m/s | -46.5°C | 3% | 0hPa | 2.6V | 08:30:00 | 01:59:52 | 00:00:00 | |
| DO3MHA-11 | 2026-09-02 00:33:44 | 44.71750 | 12.41222 | 73° | 7km/h | 28386m | 5.8m/s | -46.5°C | 3.0% | 0hPa | 2.5V | 00:00:00 | 01:59:56 | 00:00:00 | |
| IW2NTF | 2026-09-02 00:33:35 | 44.71751 | 12.41194 | 90° | 20km/h | 28302m | 5.6m/s | -46.4°C | 3% | 0hPa | 2.5V | 08:30:00 | 01:59:42 | 00:00:00 | |
| DO3MHA-11 | 2026-09-02 00:33:34 | 44.71746 | 12.41217 | 133° | 15km/h | 28327m | 5.6m/s | -46.4°C | 3.0% | 0hPa | 2.6V | 00:00:00 | 01:59:46 | 08:30:00 | |
| IW2NTF | 2026-09-02 00:33:24 | 44.71752 | 12.41149 | 118° | 22km/h | 28242m | 6.8m/s | -46.2°C | 3% | 0hPa | 2.6V | 08:30:00 | 01:59:32 | 00:00:00 | |
| DO3MHA-11 | 2026-09-02 00:33:23 | 44.71750 | 12.41164 | 65° | 20km/h | 28260m | 4.5m/s | -46.2°C | 3.0% | 0hPa | 2.5V | 00:00:00 | 01:59:35 | 00:00:00 | |
| IW2NTF | 2026-09-02 00:33:14 | 44.71775 | 12.41068 | 72° | 15km/h | 28179m | 6.5m/s | -46°C | 3% | 0hPa | 2.5V | 08:30:00 | 01:59:22 | 00:00:00 | |
| DO3MHA-11 | 2026-09-02 00:33:12 | 44.71775 | 12.41078 | 106° | 20km/h | 28192m | 5.5m/s | -46.0°C | 3.0% | 0hPa | 2.6V | 00:00:00 | 01:59:24 | 00:00:00 | |
| DB0UT-7 | 2026-09-02 00:33:05 | 44.71776 | 12.41036 | 110° | 15km/h | 28149m | 5.5m/s | -45.8°C | 2.9% | 0hPa | 2.6V | 00:00:00 | 00:00:00 | 00:00:00 | |
| IW2NTF | 2026-09-02 00:33:03 | 44.71781 | 12.40992 | 91° | 15km/h | 28120m | 6.5m/s | -45.7°C | 2.9% | 0hPa | 2.6V | 08:30:00 | 01:59:12 | 00:00:00 | |
| DO3MHA-11 | 2026-09-02 00:33:02 | 44.71781 | 12.41006 | 94° | 13km/h | 28132m | 4.9m/s | -45.7°C | 2.9% | 0hPa | 2.5V | 00:00:00 | 01:59:14 | 00:00:00 | |
| IW2NTF | 2026-09-02 00:32:53 | 44.71778 | 12.40948 | 102° | 20km/h | 28059m | 5.9m/s | -45.7°C | 2.8% | 0hPa | 2.5V | 08:30:00 | 01:59:02 | 00:00:00 | |
| DO3MHA-11 | 2026-09-02 00:32:52 | 44.71777 | 12.40961 | 81° | 15km/h | 28072m | 6.8m/s | -45.5°C | 2.8% | 0hPa | 2.6V | 00:00:00 | 01:59:04 | 00:00:00 | |
| IW2NTF | 2026-09-02 00:32:43 | 44.71785 | 12.40909 | 55° | 9km/h | 27997m | 6m/s | -45.8°C | 2.8% | 0hPa | 2.6V | 08:30:00 | 01:58:52 | 00:00:00 | |
| DO3MHA-11 | 2026-09-02 00:32:42 | 44.71787 | 12.40914 | 86° | 11km/h | 28010m | 7.0m/s | -45.7°C | 2.8% | 0hPa | 2.5V | 00:00:00 | 01:58:54 | 00:00:00 | |
| DB0UT-7 | 2026-09-02 00:32:35 | 44.71783 | 12.40892 | 87° | 13km/h | 27965m | 5.6m/s | -46.0°C | 2.8% | 0hPa | 2.5V | 00:00:00 | 01:58:47 | 00:00:00 | |
| IW2NTF | 2026-09-02 00:32:33 | 44.71788 | 12.40869 | 100° | 13km/h | 27935m | 6.3m/s | -46.1°C | 2.8% | 0hPa | 2.5V | 08:30:00 | 01:58:42 | 00:00:00 | |
| DO3MHA-11 | 2026-09-02 00:32:32 | 44.71786 | 12.40877 | 119° | 16km/h | 27947m | 6.1m/s | -46.0°C | 2.8% | 0hPa | 2.6V | 00:00:00 | 01:58:44 | 00:00:00 | |
| NBG1-10 | 2026-09-02 00:32:24 | 44.71781 | 12.40849 | 72° | 11km/h | 27899m | 5.5m/s | -46.4°C | 2.9% | 0hPa | 2.5V | 00:00:00 | 01:58:36 | 00:00:00 | |
| IW2NTF | 2026-09-02 00:32:23 | 44.71777 | 12.40836 | 64° | 11km/h | 27875m | 5.8m/s | -46.6°C | 3% | 0hPa | 2.5V | 08:30:00 | 01:58:32 | 00:00:00 | |
| IW2NTF | 2026-09-02 00:32:14 | 44.71765 | 12.40801 | 75° | 11km/h | 27813m | 5.3m/s | -47°C | 3% | 0hPa | 2.5V | 08:30:00 | 01:58:22 | 00:00:00 | |
| IW2NTF | 2026-09-02 00:32:04 | 44.71746 | 12.40771 | 29° | 16km/h | 27752m | 5.6m/s | -47.1°C | 3% | 0hPa | 2.5V | 08:30:00 | 01:58:12 | 00:00:00 | |
| IW2NTF | 2026-09-02 00:31:55 | 44.71711 | 12.40741 | 350° | 9km/h | 27691m | 6m/s | -47.2°C | 3.1% | 0hPa | 2.5V | 08:30:00 | 01:58:02 | 00:00:00 | |
| NBG1-10 | 2026-09-02 00:31:51 | 44.71713 | 12.40741 | 11° | 11km/h | 27698m | 7.1m/s | -47.1°C | 3.0% | 0hPa | 2.5V | 00:00:00 | 01:58:03 | 08:30:00 | |
| DB0UT-7 | 2026-09-02 00:31:44 | 44.71693 | 12.40744 | 15° | 15km/h | 27655m | 6.1m/s | -47.2°C | 3.0% | 0hPa | 2.5V | 00:00:00 | 00:00:00 | 00:00:00 | |
| IW2NTF | 2026-09-02 00:31:42 | 44.71680 | 12.40734 | 29° | 16km/h | 27630m | 5.8m/s | -47.3°C | 3% | 0hPa | 2.5V | 08:30:00 | 01:57:52 | 00:00:00 | |
| IW2NTF | 2026-09-02 00:31:35 | 44.71650 | 12.40737 | 359° | 13km/h | 27569m | 5.3m/s | -47.8°C | 3.2% | 0hPa | 2.5V | 08:30:00 | 01:57:42 | 00:00:00 | |
| IW2NTF | 2026-09-02 00:31:22 | 44.71616 | 12.40742 | 323° | 18km/h | 27509m | 5.2m/s | -47.8°C | 3.2% | 0hPa | 2.6V | 08:30:00 | 01:57:32 | 00:00:00 | |
| IW2NTF | 2026-09-02 00:31:15 | 44.71584 | 12.40778 | 300° | 15km/h | 27449m | 5.6m/s | -47.5°C | 3.1% | 0hPa | 2.6V | 08:30:00 | 01:57:22 | 00:00:00 | |
| DB0UT-7 | 2026-09-02 00:31:14 | 44.71596 | 12.40765 | 336° | 13km/h | 27473m | 5.3m/s | -47.6°C | 3.2% | 0hPa | 2.6V | 00:00:00 | 01:57:26 | 00:00:00 | |
| IW2NTF | 2026-09-02 00:31:03 | 44.71565 | 12.40824 | 307° | 11km/h | 27388m | 6.5m/s | -47.4°C | 3.1% | 0hPa | 2.6V | 08:30:00 | 01:57:12 | 00:00:00 | |
| IW2NTF | 2026-09-02 00:30:56 | 44.71550 | 12.40853 | 307° | 9km/h | 27330m | 6.6m/s | -47.5°C | 3.2% | 0hPa | 2.5V | 08:30:00 | 01:57:02 | 00:00:00 | |
| DB0UT-7 | 2026-09-02 00:30:44 | 44.71547 | 12.40875 | 239° | 11km/h | 27295m | 5.8m/s | 0°C | 0% | 0hPa | 2.5V | 00:00:00 | 00:00:00 | 00:00:00 | |
| IW2NTF | 2026-09-02 00:30:42 | 44.71551 | 12.40896 | 269° | 15km/h | 27272m | 5.3m/s | -47.4°C | 3.2% | 0hPa | 2.5V | 08:30:00 | 01:56:52 | 00:00:00 | |
| IW2NTF | 2026-09-02 00:30:36 | 44.71550 | 12.40929 | 238° | 15km/h | 27215m | 4.8m/s | -47.2°C | 3.1% | 0hPa | 2.5V | 08:30:00 | 01:56:42 | 00:00:00 | |
| IW2NTF | 2026-09-02 00:30:23 | 44.71555 | 12.40972 | 321° | 7km/h | 27159m | 5.2m/s | -47.1°C | 3% | 0hPa | 2.5V | 08:30:00 | 01:56:32 | 00:00:00 | |
| IW2NTF | 2026-09-02 00:30:17 | 44.71556 | 12.40981 | 248° | 2km/h | 27103m | 5.7m/s | -46.9°C | 3% | 0hPa | 2.5V | 08:30:00 | 01:56:22 | 00:00:00 | |
| DB0UT-7 | 2026-09-02 00:30:14 | 44.71555 | 12.40975 | 228° | 7km/h | 27126m | 6.3m/s | 0°C | 0% | 0hPa | 2.6V | 00:00:00 | 01:56:26 | 00:00:00 | |
| IW2NTF | 2026-09-02 00:30:02 | 44.71562 | 12.40984 | 87° | 4km/h | 27045m | 5.5m/s | -46.9°C | 2.9% | 0hPa | 2.6V | 08:30:00 | 01:56:12 | 00:00:00 | |
| IW2NTF | 2026-09-02 00:29:55 | 44.71554 | 12.40977 | 140° | 9km/h | 26988m | 4.7m/s | -47.7°C | 3.1% | 0hPa | 2.6V | 08:30:00 | 01:56:02 | 00:00:00 | |
| NBG1-10 | 2026-09-02 00:29:44 | 44.71556 | 12.40961 | 70° | 15km/h | 26955m | 4.7m/s | -48.2°C | 3.2% | 0hPa | 2.5V | 00:00:00 | 01:55:56 | 00:00:00 | |
| IW2NTF | 2026-09-02 00:29:42 | 44.71550 | 12.40950 | 23° | 4km/h | 26933m | 4.8m/s | -48.2°C | 3.2% | 0hPa | 2.5V | 08:30:00 | 01:55:52 | 00:00:00 | |
| DB0UT-7 | 2026-09-02 00:29:40 | 44.71550 | 12.40950 | 24° | 15km/h | 26934m | 4.8m/s | 0°C | 0% | 0hPa | 2.5V | 00:00:00 | 00:00:00 | 00:00:00 | |
| IW2NTF | 2026-09-02 00:29:35 | 44.71536 | 12.40926 | 49° | 15km/h | 26880m | 4.6m/s | -48.5°C | 3.2% | 0hPa | 2.5V | 08:30:00 | 01:55:42 | 00:00:00 | |
| IW2NTF | 2026-09-02 00:29:22 | 44.71499 | 12.40895 | 18° | 16km/h | 26826m | 5.6m/s | -48.5°C | 3.2% | 0hPa | 2.6V | 08:30:00 | 01:55:32 | 00:00:00 | |
| IW2NTF | 2026-09-02 00:29:15 | 44.71451 | 12.40875 | 21° | 18km/h | 26770m | 4.8m/s | -48.5°C | 3.2% | 0hPa | 2.6V | 08:30:00 | 01:55:22 | 00:00:00 | |
| DB0UT-7 | 2026-09-02 00:29:10 | 44.71451 | 12.40875 | 22° | 13km/h | 26771m | 4.8m/s | 0°C | 0% | 0hPa | 2.5V | 00:00:00 | 01:55:22 | 00:00:00 | |
| NBG1-10 | 2026-09-02 00:29:09 | 44.71447 | 12.40873 | 18° | 15km/h | 26765m | 5.7m/s | -48.5°C | 3.2% | 0hPa | 2.5V | 00:00:00 | 01:55:21 | 00:00:00 | |
| IW2NTF | 2026-09-02 00:29:03 | 44.71420 | 12.40877 | 336° | 20km/h | 26716m | 4.4m/s | -48.9°C | 3.3% | 0hPa | 2.5V | 08:30:00 | 01:55:12 | 00:00:00 | |
| IW2NTF | 2026-09-02 00:28:55 | 44.71380 | 12.40902 | 320° | 15km/h | 26661m | 5.2m/s | -49.2°C | 3.3% | 0hPa | 2.5V | 08:30:00 | 01:55:02 | 00:00:00 | |
| IW2NTF | 2026-09-02 00:28:42 | 44.71336 | 12.40931 | 302° | 18km/h | 26608m | 4.7m/s | -49.5°C | 3.3% | 0hPa | 2.6V | 08:30:00 | 01:54:52 | 00:00:00 | |
| IW2NTF | 2026-09-02 00:28:36 | 44.71312 | 12.40965 | 332° | 16km/h | 26552m | 4.6m/s | -49.7°C | 3.4% | 0hPa | 2.6V | 08:30:00 | 01:54:42 | 00:00:00 | |
| NBG1-10 | 2026-09-02 00:28:35 | 44.71329 | 12.40951 | 315° | 13km/h | 26581m | 5.3m/s | -49.5°C | 3.3% | 0hPa | 2.5V | 00:00:00 | 01:54:47 | 00:00:00 | |
| IW2NTF | 2026-09-02 00:28:23 | 44.71304 | 12.41009 | 306° | 9km/h | 26498m | 5.2m/s | -49.9°C | 3.4% | 0hPa | 2.5V | 08:30:00 | 01:54:32 | 00:00:00 | |
| IW2NTF | 2026-09-02 00:28:15 | 44.71288 | 12.41033 | 228° | 7km/h | 26444m | 4.4m/s | -50.1°C | 3.4% | 0hPa | 2.5V | 08:30:00 | 01:54:22 | 00:00:00 | |
| IW2NTF | 2026-09-02 00:28:02 | 44.71271 | 12.41052 | 343° | 20km/h | 26391m | 5.2m/s | -50°C | 3.4% | 0hPa | 2.6V | 08:30:00 | 01:54:12 | 00:00:00 | |
| NBG1-10 | 2026-09-02 00:28:02 | 44.71280 | 12.41049 | 356° | 16km/h | 26403m | 5.0m/s | -50.0°C | 3.4% | 0hPa | 2.6V | 00:00:00 | 01:54:14 | 00:00:00 | |
| IW2NTF | 2026-09-02 00:27:55 | 44.71244 | 12.41069 | 333° | 11km/h | 26337m | 5.5m/s | -50.5°C | 3.4% | 0hPa | 2.6V | 08:30:00 | 01:54:02 | 00:00:00 | |
| IW2NTF | 2026-09-02 00:27:43 | 44.71198 | 12.41083 | 332° | 15km/h | 26282m | 6.5m/s | -50.8°C | 3.6% | 0hPa | 2.5V | 08:30:00 | 01:53:52 | 00:00:00 | |
| DO3MHA-11 | 2026-09-02 00:27:42 | 44.71205 | 12.41081 | 1° | 16km/h | 26293m | 4.9m/s | -50.7°C | 3.5% | 0hPa | 2.5V | 00:00:00 | 01:53:54 | 00:00:00 | |
| IW2NTF | 2026-09-02 00:27:34 | 44.71170 | 12.41125 | 347° | 11km/h | 26226m | 7.2m/s | -51°C | 3.5% | 0hPa | 2.5V | 08:30:00 | 01:53:42 | 00:00:00 | |
| DO3MHA-11 | 2026-09-02 00:27:33 | 44.71176 | 12.41121 | 321° | 15km/h | 26237m | 5.1m/s | -51.0°C | 3.6% | 0hPa | 2.6V | 00:00:00 | 01:53:44 | 00:00:00 | |
| NBG1-10 | 2026-09-02 00:27:29 | 44.71167 | 12.41126 | 8° | 16km/h | 26220m | 6.0m/s | -51.0°C | 3.5% | 0hPa | 2.6V | 00:00:00 | 01:53:41 | 00:00:00 | |
| IW2NTF | 2026-09-02 00:27:23 | 44.71140 | 12.41149 | 304° | 20km/h | 26168m | 6.2m/s | -51°C | 3.6% | 0hPa | 2.6V | 08:30:00 | 01:53:32 | 00:00:00 | |
| DO3MHA-11 | 2026-09-02 00:27:22 | 44.71145 | 12.41138 | 298° | 15km/h | 26180m | 5.4m/s | -51.0°C | 3.6% | 0hPa | 2.5V | 00:00:00 | 01:53:34 | 08:30:00 | |
| IW2NTF | 2026-09-02 00:27:15 | 44.71109 | 12.41163 | 344° | 15km/h | 26110m | 5.2m/s | -51.2°C | 3.7% | 0hPa | 2.6V | 08:30:00 | 01:53:22 | 00:00:00 | |
| DO3MHA-11 | 2026-09-02 00:27:12 | 44.71116 | 12.41162 | 4° | 16km/h | 26122m | 5.7m/s | -51.1°C | 3.6% | 0hPa | 2.5V | 00:00:00 | 01:53:24 | 00:00:00 | |
| IW2NTF | 2026-09-02 00:27:02 | 44.71072 | 12.41195 | 359° | 15km/h | 26050m | 6.9m/s | -51.3°C | 3.7% | 0hPa | 2.5V | 08:30:00 | 01:53:12 | 00:00:00 | |
| DO3MHA-11 | 2026-09-02 00:27:02 | 44.71080 | 12.41193 | 341° | 20km/h | 26062m | 6.1m/s | -51.2°C | 3.6% | 0hPa | 2.6V | 00:00:00 | 01:53:14 | 00:00:00 | |
| NBG1-10 | 2026-09-02 00:26:56 | 44.71055 | 12.41197 | 343° | 20km/h | 26027m | 5.8m/s | -51.3°C | 3.7% | 0hPa | 2.6V | 00:00:00 | 01:53:08 | 00:00:00 | |
| IW2NTF | 2026-09-02 00:26:51 | 44.71024 | 12.41229 | 317° | 26km/h | 25991m | 6.8m/s | -51.3°C | 3.7% | 0hPa | 2.5V | 08:30:00 | 01:53:02 | 00:00:00 | |
| IW2NTF | 2026-09-02 00:26:46 | 44.70985 | 12.41260 | 304° | 15km/h | 25931m | 6.2m/s | -51.2°C | 3.7% | 0hPa | 2.6V | 08:30:00 | 01:52:52 | 00:00:00 | |
| DO3MHA-12 | 2026-09-02 00:26:35 | 44.70971 | 12.41297 | 303° | 22km/h | 25901m | 5.7m/s | -51.0°C | 3.6% | 0hPa | 2.5V | 00:00:00 | 01:52:47 | 00:00:00 | |
| IW2NTF | 2026-09-02 00:26:34 | 44.70958 | 12.41319 | 326° | 11km/h | 25870m | 5.6m/s | -51°C | 3.6% | 0hPa | 2.5V | 08:30:00 | 01:52:42 | 00:00:00 | |
| DO3MHA-11 | 2026-09-02 00:26:32 | 44.70962 | 12.41313 | 315° | 15km/h | 25883m | 6.9m/s | -51.0°C | 3.6% | 0hPa | 2.6V | 00:00:00 | 01:52:44 | 00:00:00 | |
| IW2NTF | 2026-09-02 00:26:23 | 44.70941 | 12.41370 | 289° | 20km/h | 25813m | 5.8m/s | -50.9°C | 3.6% | 0hPa | 2.5V | 08:30:00 | 01:52:32 | 00:00:00 | |
| NBG1-10 | 2026-09-02 00:26:23 | 44.70949 | 12.41351 | 305° | 15km/h | 25830m | 4.9m/s | 0°C | 0% | 0hPa | 2.6V | 00:00:00 | 01:52:35 | 00:00:00 | |
| DO3MHA-12 | 2026-09-02 00:26:22 | 44.70946 | 12.41357 | 303° | 13km/h | 25825m | 5.6m/s | -50.9°C | 3.6% | 0hPa | 2.6V | 00:00:00 | 01:52:34 | 00:00:00 | |
| IW2NTF | 2026-09-02 00:26:15 | 44.70926 | 12.41421 | 303° | 15km/h | 25754m | 4.5m/s | -50.8°C | 3.6% | 0hPa | 2.6V | 08:30:00 | 01:52:22 | 00:00:00 | |
| DO3MHA-11 | 2026-09-02 00:26:12 | 44.70930 | 12.41414 | 300° | 15km/h | 25765m | 6.6m/s | -50.8°C | 3.6% | 0hPa | 2.6V | 00:00:00 | 01:52:24 | 00:00:00 | |
| DO3MHA-12 | 2026-09-02 00:26:07 | 44.70923 | 12.41436 | 270° | 13km/h | 25737m | 5.9m/s | -50.8°C | 3.6% | 0hPa | 2.6V | 00:00:00 | 01:52:19 | 00:00:00 | |
| IW2NTF | 2026-09-02 00:26:03 | 44.70916 | 12.41469 | 279° | 5km/h | 25696m | 5.1m/s | -50.9°C | 3.7% | 0hPa | 2.6V | 08:30:00 | 01:52:12 | 00:00:00 | |
| DO3MHA-11 | 2026-09-02 00:26:00 | 44.70916 | 12.41469 | 280° | 13km/h | 25696m | 5.0m/s | -50.8°C | 3.7% | 0hPa | 2.6V | 00:00:00 | 01:52:12 | 00:00:00 | |
| DO3MHA-12 | 2026-09-02 00:25:57 | 44.70914 | 12.41476 | 300° | 18km/h | 25680m | 5.7m/s | -50.8°C | 3.5% | 0hPa | 2.5V | 00:00:00 | 01:52:09 | 00:00:00 | |
| IW2NTF | 2026-09-02 00:25:53 | 44.70914 | 12.41514 | 269° | 11km/h | 25639m | 5m/s | -50.7°C | 3.6% | 0hPa | 2.5V | 08:30:00 | 01:52:02 | 00:00:00 | |
| DO3MHA-11 | 2026-09-02 00:25:50 | 44.70914 | 12.41514 | 270° | 9km/h | 25639m | 4.9m/s | -50.7°C | 3.6% | 0hPa | 2.5V | 00:00:00 | 01:52:02 | 00:00:00 | |
| IW2NTF | 2026-09-02 00:25:46 | 44.70913 | 12.41520 | 277° | 7km/h | 25582m | 5.5m/s | -50.8°C | 3.5% | 0hPa | 2.5V | 08:30:00 | 01:51:52 | 00:00:00 | |
| DO3MHA-11 | 2026-09-02 00:25:39 | 44.70912 | 12.41522 | 273° | 9km/h | 25577m | 5.0m/s | -50.7°C | 3.6% | 0hPa | 2.5V | 00:00:00 | 01:51:51 | 00:00:00 | |
| IW2NTF | 2026-09-02 00:25:35 | 44.70901 | 12.41523 | 54° | 11km/h | 25525m | 5m/s | -50.9°C | 3.6% | 0hPa | 2.5V | 08:30:00 | 01:51:42 | 00:00:00 | |
| DO3MHA-11 | 2026-09-02 00:25:28 | 44.70899 | 12.41516 | 78° | 5km/h | 25514m | 6.4m/s | -50.8°C | 3.6% | 0hPa | 2.6V | 00:00:00 | 01:51:40 | 08:30:00 | |
| IW2NTF | 2026-09-02 00:25:25 | 44.70894 | 12.41519 | 324° | 5km/h | 25468m | 4.4m/s | -50.9°C | 3.6% | 0hPa | 2.5V | 08:30:00 | 01:51:32 | 00:00:00 | |
| DO3MHA-11 | 2026-09-02 00:25:18 | 44.70891 | 12.41521 | 4° | 7km/h | 25457m | 5.5m/s | -50.8°C | 3.6% | 0hPa | 2.5V | 00:00:00 | 01:51:30 | 00:00:00 | |
| NBG1-10 | 2026-09-02 00:25:17 | 44.70888 | 12.41520 | 18° | 9km/h | 25452m | 4.5m/s | 0°C | 0% | 0hPa | 2.5V | 00:00:00 | 01:51:29 | 00:00:00 | |
| IW2NTF | 2026-09-02 00:25:15 | 44.70880 | 12.41510 | 2° | 9km/h | 25414m | 4.8m/s | -51°C | 3.6% | 0hPa | 2.5V | 08:30:00 | 01:51:22 | 00:00:00 | |
| DO3MHA-11 | 2026-09-02 00:25:08 | 44.70875 | 12.41509 | 11° | 11km/h | 25403m | 6.1m/s | -50.9°C | 3.6% | 0hPa | 2.5V | 00:00:00 | 01:51:20 | 00:00:00 | |
| IW2NTF | 2026-09-02 00:25:06 | 44.70855 | 12.41494 | 48° | 7km/h | 25358m | 5.1m/s | -51.1°C | 3.6% | 0hPa | 2.5V | 08:30:00 | 01:51:12 | 00:00:00 | |
| DO3MHA-11 | 2026-09-02 00:24:58 | 44.70851 | 12.41491 | 23° | 13km/h | 25347m | 6.1m/s | -51.1°C | 3.6% | 0hPa | 2.5V | 00:00:00 | 01:51:10 | 00:00:00 | |
| IW2NTF | 2026-09-02 00:24:55 | 44.70822 | 12.41495 | 338° | 20km/h | 25302m | 5.6m/s | -51.1°C | 3.6% | 0hPa | 2.6V | 08:30:00 | 01:51:02 | 00:00:00 | |
| DO3MHA-11 | 2026-09-02 00:24:48 | 44.70814 | 12.41500 | 334° | 18km/h | 25290m | 4.8m/s | -51.0°C | 3.6% | 0hPa | 2.5V | 00:00:00 | 01:51:00 | 00:00:00 | |
| IW2NTF | 2026-09-02 00:24:44 | 44.70774 | 12.41508 | 347° | 26km/h | 25247m | 6m/s | -51.2°C | 3.6% | 0hPa | 2.5V | 08:30:00 | 01:50:52 | 00:00:00 | |
| IW2NTF | 2026-09-02 00:24:35 | 44.70713 | 12.41554 | 330° | 20km/h | 25192m | 6.3m/s | -51.3°C | 3.6% | 0hPa | 2.6V | 08:30:00 | 01:50:42 | 00:00:00 | |
| IW2NTF | 2026-09-02 00:24:24 | 44.70664 | 12.41602 | 311° | 35km/h | 25136m | 5.3m/s | -51.4°C | 3.7% | 0hPa | 2.6V | 08:30:00 | 01:50:32 | 00:00:00 | |
| DO3MHA-11 | 2026-09-02 00:24:22 | 44.70675 | 12.41586 | 314° | 29km/h | 25148m | 5.7m/s | -51.3°C | 3.7% | 0hPa | 2.5V | 00:00:00 | 01:50:34 | 00:00:00 | |
| IW2NTF | 2026-09-02 00:24:14 | 44.70616 | 12.41671 | 307° | 24km/h | 25083m | 5.5m/s | -51.4°C | 3.7% | 0hPa | 2.5V | 08:30:00 | 01:50:22 | 00:00:00 | |
| DO3MHA-11 | 2026-09-02 00:24:12 | 44.70623 | 12.41659 | 315° | 29km/h | 25093m | 4.7m/s | -51.4°C | 3.7% | 0hPa | 2.5V | 00:00:00 | 01:50:24 | 00:00:00 | |
| DO3MHA-12 | 2026-09-02 00:24:09 | 44.70612 | 12.41678 | 308° | 31km/h | 25078m | 5.6m/s | -51.3°C | 3.7% | 0hPa | 2.6V | 00:00:00 | 01:50:21 | 00:00:00 | |
| IW2NTF | 2026-09-02 00:24:05 | 44.70576 | 12.41776 | 289° | 33km/h | 25028m | 5.7m/s | -51.4°C | 3.7% | 0hPa | 2.5V | 08:30:00 | 01:50:12 | 00:00:00 | |
| DO3MHA-11 | 2026-09-02 00:24:02 | 44.70584 | 12.41753 | 295° | 31km/h | 25039m | 4.8m/s | -51.3°C | 3.7% | 0hPa | 2.5V | 00:00:00 | 01:50:14 | 00:00:00 | |
| IW2NTF | 2026-09-02 00:23:53 | 44.70544 | 12.41878 | 291° | 40km/h | 24974m | 4.5m/s | -51.5°C | 3.8% | 0hPa | 2.5V | 08:30:00 | 01:50:02 | 00:00:00 | |
| DO3MHA-11 | 2026-09-02 00:23:52 | 44.70552 | 12.41854 | 299° | 35km/h | 24985m | 5.9m/s | -51.5°C | 3.7% | 0hPa | 2.5V | 00:00:00 | 01:50:04 | 00:00:00 | |
| IW2NTF | 2026-09-02 00:23:45 | 44.70524 | 12.41990 | 278° | 27km/h | 24919m | 4.2m/s | -51.3°C | 3.7% | 0hPa | 2.5V | 08:30:00 | 01:49:52 | 00:00:00 | |
| IW2NTF | 2026-09-02 00:23:33 | 44.70526 | 12.42104 | 267° | 26km/h | 24865m | 5.3m/s | -51°C | 3.7% | 0hPa | 2.6V | 08:30:00 | 01:49:42 | 00:00:00 | |
| DO3MHA-11 | 2026-09-02 00:23:32 | 44.70525 | 12.42084 | 267° | 24km/h | 24876m | 5.5m/s | -51.0°C | 3.7% | 0hPa | 2.6V | 00:00:00 | 01:49:44 | 00:00:00 | |
| IW2NTF | 2026-09-02 00:23:25 | 44.70537 | 12.42184 | 253° | 22km/h | 24810m | 6.5m/s | -50.6°C | 3.5% | 0hPa | 2.6V | 08:30:00 | 01:49:32 | 00:00:00 | |
| DO3MHA-11 | 2026-09-02 00:23:21 | 44.70535 | 12.42177 | 250° | 22km/h | 24816m | 4.5m/s | -50.6°C | 3.6% | 0hPa | 2.5V | 00:00:00 | 01:49:33 | 00:00:00 | |
| DO3MHA-12 | 2026-09-02 00:23:17 | 44.70541 | 12.42207 | 251° | 18km/h | 24793m | 6.0m/s | -50.5°C | 3.5% | 0hPa | 2.5V | 00:00:00 | 01:49:29 | 00:00:00 | |
| IW2NTF | 2026-09-02 00:23:12 | 44.70549 | 12.42262 | 244° | 24km/h | 24754m | 5.5m/s | -50.4°C | 3.5% | 0hPa | 2.5V | 08:30:00 | 01:49:22 | 00:00:00 | |
| DO3MHA-11 | 2026-09-02 00:23:11 | 44.70547 | 12.42254 | 255° | 20km/h | 24761m | 6.2m/s | -50.4°C | 3.5% | 0hPa | 2.5V | 00:00:00 | 01:49:23 | 00:00:00 | |
| IW2NTF | 2026-09-02 00:23:05 | 44.70573 | 12.42318 | 247° | 13km/h | 24698m | 6.6m/s | -50.8°C | 3.5% | 0hPa | 2.5V | 08:30:00 | 01:49:12 | 00:00:00 | |
| DO3MHA-12 | 2026-09-02 00:23:01 | 44.70571 | 12.42314 | 252° | 18km/h | 24704m | 5.3m/s | -50.7°C | 3.5% | 0hPa | 2.5V | 00:00:00 | 01:49:13 | 08:30:00 | |
| IW2NTF | 2026-09-02 00:22:52 | 44.70603 | 12.42360 | 182° | 16km/h | 24643m | 5.6m/s | -51.1°C | 3.6% | 0hPa | 2.5V | 08:30:00 | 01:49:02 | 00:00:00 | |
| DO3MHA-12 | 2026-09-02 00:22:51 | 44.70599 | 12.42359 | 195° | 15km/h | 24650m | 5.9m/s | -51.1°C | 3.6% | 0hPa | 2.6V | 00:00:00 | 01:49:03 | 00:00:00 | |
| IW2NTF | 2026-09-02 00:22:45 | 44.70632 | 12.42346 | 210° | 13km/h | 24589m | 6.1m/s | -50.8°C | 3.5% | 0hPa | 2.6V | 08:30:00 | 01:48:52 | 00:00:00 | |
| DO3MHA-12 | 2026-09-02 00:22:41 | 44.70629 | 12.42345 | 192° | 11km/h | 24595m | 4.7m/s | -50.8°C | 3.5% | 0hPa | 2.6V | 00:00:00 | 01:48:53 | 00:00:00 | |
| IW2NTF | 2026-09-02 00:22:33 | 44.70646 | 12.42333 | 100° | 18km/h | 24532m | 4.5m/s | -51°C | 3.5% | 0hPa | 2.6V | 08:30:00 | 01:48:42 | 00:00:00 | |
| DO3MHA-12 | 2026-09-02 00:22:31 | 44.70645 | 12.42340 | 94° | 9km/h | 24538m | 6.5m/s | -51.0°C | 3.5% | 0hPa | 2.5V | 00:00:00 | 01:48:43 | 00:00:00 | |
| IW2NTF | 2026-09-02 00:22:22 | 44.70649 | 12.42312 | 60° | 4km/h | 24478m | 5.8m/s | -51.5°C | 3.5% | 0hPa | 2.5V | 08:30:00 | 01:48:32 | 00:00:00 | |
| DO3MHA-12 | 2026-09-02 00:22:21 | 44.70649 | 12.42313 | 86° | 7km/h | 24485m | 6.5m/s | -51.4°C | 3.5% | 0hPa | 2.5V | 00:00:00 | 01:48:33 | 00:00:00 | |
| IW2NTF | 2026-09-02 00:22:12 | 44.70645 | 12.42289 | 333° | 4km/h | 24421m | 6.9m/s | -52.3°C | 3.7% | 0hPa | 2.5V | 08:30:00 | 01:48:22 | 00:00:00 | |
| DO3MHA-11 | 2026-09-02 00:22:11 | 44.70645 | 12.42289 | 42° | 5km/h | 24428m | 5.0m/s | -52.3°C | 3.7% | 0hPa | 2.5V | 00:00:00 | 01:48:23 | 08:30:00 | |
| IW2NTF | 2026-09-02 00:22:02 | 44.70646 | 12.42275 | 100° | 16km/h | 24365m | 5.6m/s | -52.7°C | 3.9% | 0hPa | 2.5V | 08:30:00 | 01:48:12 | 00:00:00 | |
| DO3MHA-12 | 2026-09-02 00:22:01 | 44.70645 | 12.42280 | 103° | 13km/h | 24372m | 6.7m/s | -52.6°C | 3.9% | 0hPa | 2.5V | 00:00:00 | 01:48:13 | 00:00:00 | |
| IW2NTF | 2026-09-02 00:21:51 | 44.70655 | 12.42240 | 110° | 9km/h | 24310m | 5m/s | -52.5°C | 3.8% | 0hPa | 2.5V | 08:30:00 | 01:48:02 | 00:00:00 | |
| DO3MHA-12 | 2026-09-02 00:21:51 | 44.70654 | 12.42243 | 130° | 13km/h | 24315m | 5.7m/s | -52.4°C | 3.8% | 0hPa | 2.6V | 00:00:00 | 01:48:03 | 00:00:00 | |
| IW2NTF | 2026-09-02 00:21:46 | 44.70646 | 12.42202 | 114° | 4km/h | 24254m | 6.2m/s | -52.6°C | 3.7% | 0hPa | 2.6V | 08:30:00 | 01:47:52 | 00:00:00 | |
| DO3MHA-12 | 2026-09-02 00:21:41 | 44.70646 | 12.42203 | 86° | 9km/h | 24260m | 4.4m/s | -52.6°C | 3.7% | 0hPa | 2.6V | 00:00:00 | 01:47:53 | 00:00:00 | |
| IW2NTF | 2026-09-02 00:21:35 | 44.70633 | 12.42173 | 40° | 16km/h | 24200m | 5.7m/s | -53°C | 3.7% | 0hPa | 2.6V | 08:30:00 | 01:47:42 | 00:00:00 | |
| DO3MHA-11 | 2026-09-02 00:21:31 | 44.70636 | 12.42177 | 34° | 11km/h | 24205m | 5.3m/s | -52.9°C | 3.7% | 0hPa | 2.5V | 00:00:00 | 01:47:43 | 00:00:00 | |
| IW2NTF | 2026-09-02 00:21:25 | 44.70625 | 12.42146 | 82° | 7km/h | 24145m | 6m/s | -53.9°C | 3.9% | 0hPa | 2.5V | 08:30:00 | 01:47:32 | 00:00:00 | |
| DO3MHA-12 | 2026-09-02 00:21:21 | 44.70624 | 12.42149 | 110° | 7km/h | 24151m | 5.3m/s | -53.8°C | 4.0% | 0hPa | 2.5V | 00:00:00 | 01:47:33 | 00:00:00 | |
| IW2NTF | 2026-09-02 00:21:15 | 44.70617 | 12.42141 | 190° | 5km/h | 24090m | 4.8m/s | -54.1°C | 4.1% | 0hPa | 2.5V | 08:30:00 | 01:47:22 | 00:00:00 | |
| DO3MHA-12 | 2026-09-02 00:21:11 | 44.70615 | 12.42140 | 242° | 7km/h | 24096m | 6.3m/s | -54.1°C | 4.1% | 0hPa | 2.5V | 00:00:00 | 01:47:23 | 00:00:00 | |
| IW2NTF | 2026-09-02 00:21:05 | 44.70635 | 12.42138 | 162° | 9km/h | 24037m | 5.4m/s | -54.2°C | 4.2% | 0hPa | 2.5V | 08:30:00 | 01:47:12 | 00:00:00 | |
| DO3MHA-12 | 2026-09-02 00:21:01 | 44.70633 | 12.42139 | 165° | 11km/h | 24043m | 6.3m/s | -54.2°C | 4.2% | 0hPa | 2.6V | 00:00:00 | 01:47:13 | 00:00:00 | |
| IW2NTF | 2026-09-02 00:20:56 | 44.70661 | 12.42111 | 148° | 18km/h | 23981m | 5.2m/s | -54°C | 4.1% | 0hPa | 2.6V | 08:30:00 | 01:47:02 | 00:00:00 | |
| DO3MHA-11 | 2026-09-02 00:20:51 | 44.70657 | 12.42114 | 144° | 13km/h | 23987m | 6.2m/s | -54.0°C | 4.1% | 0hPa | 2.6V | 00:00:00 | 01:47:03 | 00:00:00 | |
| IW2NTF | 2026-09-02 00:20:45 | 44.70686 | 12.42102 | 191° | 7km/h | 23926m | 6.5m/s | -53.9°C | 4.1% | 0hPa | 2.6V | 08:30:00 | 01:46:52 | 00:00:00 | |
| DO3MHA-12 | 2026-09-02 00:20:41 | 44.70684 | 12.42102 | 206° | 13km/h | 23931m | 4.5m/s | -53.9°C | 4.1% | 0hPa | 2.5V | 00:00:00 | 01:46:53 | 00:00:00 | |
| IW2NTF | 2026-09-02 00:20:34 | 44.70718 | 12.42103 | 161° | 7km/h | 23872m | 6.7m/s | -53.7°C | 4.1% | 0hPa | 2.5V | 08:30:00 | 01:46:42 | 00:00:00 | |
| DO3MHA-12 | 2026-09-02 00:20:31 | 44.70716 | 12.42104 | 162° | 9km/h | 23878m | 4.7m/s | -53.7°C | 4.0% | 0hPa | 2.5V | 00:00:00 | 01:46:43 | 00:00:00 | |
| IW2NTF | 2026-09-02 00:20:22 | 44.70743 | 12.42102 | 166° | 16km/h | 23816m | 5.5m/s | -53.5°C | 3.9% | 0hPa | 2.5V | 08:30:00 | 01:46:32 | 00:00:00 | |
| DO3MHA-12 | 2026-09-02 00:20:21 | 44.70739 | 12.42103 | 181° | 11km/h | 23822m | 6.0m/s | -53.5°C | 4.0% | 0hPa | 2.5V | 00:00:00 | 01:46:33 | 00:00:00 | |
| IW2NTF | 2026-09-02 00:20:16 | 44.70757 | 12.42076 | 140° | 7km/h | 23762m | 5.8m/s | -53.7°C | 4% | 0hPa | 2.5V | 08:30:00 | 01:46:22 | 00:00:00 | |
| DO3MHA-11 | 2026-09-02 00:20:11 | 44.70755 | 12.42078 | 127° | 9km/h | 23768m | 5.8m/s | -53.6°C | 4.0% | 0hPa | 2.5V | 00:00:00 | 01:46:23 | 00:00:00 | |
| IW2NTF | 2026-09-02 00:20:02 | 44.70774 | 12.42061 | 87° | 7km/h | 23708m | 5m/s | -53.8°C | 4% | 0hPa | 2.5V | 08:30:00 | 01:46:12 | 00:00:00 | |
| DO3MHA-12 | 2026-09-02 00:20:01 | 44.70774 | 12.42064 | 81° | 7km/h | 23713m | 6.0m/s | -53.8°C | 4.1% | 0hPa | 2.6V | 00:00:00 | 01:46:13 | 08:30:00 | |
| IW2NTF | 2026-09-02 00:19:51 | 44.70784 | 12.42046 | 131° | 4km/h | 23652m | 5.3m/s | -53.9°C | 4% | 0hPa | 2.6V | 08:30:00 | 01:46:02 | 00:00:00 | |
| DO3MHA-12 | 2026-09-02 00:19:51 | 44.70783 | 12.42046 | 150° | 5km/h | 23658m | 5.0m/s | -53.8°C | 4.0% | 0hPa | 2.6V | 00:00:00 | 01:46:03 | 00:00:00 | |
| IW2NTF | 2026-09-02 00:19:43 | 44.70794 | 12.42029 | 120° | 11km/h | 23596m | 6.8m/s | -53.9°C | 4% | 0hPa | 2.6V | 08:30:00 | 01:45:52 | 00:00:00 | |
| DO3MHA-12 | 2026-09-02 00:19:41 | 44.70792 | 12.42033 | 126° | 9km/h | 23603m | 5.3m/s | -53.8°C | 4.0% | 0hPa | 2.5V | 00:00:00 | 01:45:53 | 00:00:00 | |
| IW2NTF | 2026-09-02 00:19:32 | 44.70803 | 12.42002 | 128° | 4km/h | 23541m | 6.3m/s | -54°C | 4.1% | 0hPa | 2.5V | 08:30:00 | 01:45:42 | 00:00:00 | |
| DO3MHA-11 | 2026-09-02 00:19:31 | 44.70803 | 12.42003 | 115° | 9km/h | 23547m | 4.7m/s | -54.0°C | 4.1% | 0hPa | 2.5V | 00:00:00 | 01:45:43 | 00:00:00 | |
| IW2NTF | 2026-09-02 00:19:22 | 44.70822 | 12.41971 | 117° | 13km/h | 23485m | 5.1m/s | -53.9°C | 4.1% | 0hPa | 2.5V | 08:30:00 | 01:45:32 | 00:00:00 | |
| DO3MHA-12 | 2026-09-02 00:19:21 | 44.70821 | 12.41975 | 124° | 9km/h | 23490m | 5.6m/s | -53.9°C | 4.1% | 0hPa | 2.5V | 00:00:00 | 01:45:33 | 00:00:00 | |
| IW2NTF | 2026-09-02 00:19:12 | 44.70837 | 12.41954 | 175° | 13km/h | 23429m | 6m/s | -53.9°C | 4.1% | 0hPa | 2.5V | 08:30:00 | 01:45:22 | 00:00:00 | |
| DO3MHA-12 | 2026-09-02 00:19:11 | 44.70834 | 12.41955 | 167° | 16km/h | 23436m | 6.1m/s | -53.9°C | 4.1% | 0hPa | 2.6V | 00:00:00 | 01:45:23 | 00:00:00 | |
| IW2NTF | 2026-09-02 00:19:02 | 44.70876 | 12.41945 | 145° | 5km/h | 23374m | 5.5m/s | -53.8°C | 4.1% | 0hPa | 2.6V | 08:30:00 | 01:45:12 | 00:00:00 | |
| DO3MHA-11 | 2026-09-02 00:19:01 | 44.70875 | 12.41946 | 151° | 11km/h | 23379m | 4.4m/s | -53.7°C | 4.0% | 0hPa | 2.6V | 00:00:00 | 01:45:13 | 00:00:00 | |
| IW2NTF | 2026-09-02 00:18:52 | 44.70906 | 12.41930 | 147° | 13km/h | 23320m | 6m/s | -53.6°C | 4% | 0hPa | 2.6V | 08:30:00 | 01:45:02 | 00:00:00 | |
| DO3MHA-11 | 2026-09-02 00:18:51 | 44.70903 | 12.41932 | 162° | 13km/h | 23326m | 5.2m/s | -53.6°C | 4.0% | 0hPa | 2.5V | 00:00:00 | 01:45:03 | 00:00:00 | |
| IW2NTF | 2026-09-02 00:18:42 | 44.70929 | 12.41900 | 156° | 18km/h | 23265m | 6m/s | -53.5°C | 4.1% | 0hPa | 2.5V | 08:30:00 | 01:44:52 | 00:00:00 | |
| DO3MHA-12 | 2026-09-02 00:18:41 | 44.70925 | 12.41903 | 148° | 16km/h | 23271m | 5.1m/s | -53.5°C | 4.1% | 0hPa | 2.5V | 00:00:00 | 01:44:53 | 00:00:00 | |
| IW2NTF | 2026-09-02 00:18:35 | 44.70967 | 12.41875 | 151° | 24km/h | 23211m | 4.3m/s | -53.3°C | 4% | 0hPa | 2.5V | 08:30:00 | 01:44:42 | 00:00:00 | |
| DO3MHA-12 | 2026-09-02 00:18:31 | 44.70962 | 12.41879 | 152° | 18km/h | 23216m | 5.1m/s | -53.2°C | 4.0% | 0hPa | 2.5V | 00:00:00 | 01:44:43 | 08:30:00 | |
| IW2NTF | 2026-09-02 00:18:22 | 44.71005 | 12.41867 | 173° | 11km/h | 23156m | 6.2m/s | -53.2°C | 3.9% | 0hPa | 2.5V | 08:30:00 | 01:44:32 | 00:00:00 | |
| DO3MHA-12 | 2026-09-02 00:18:21 | 44.71003 | 12.41867 | 189° | 20km/h | 23162m | 4.5m/s | -53.1°C | 3.9% | 0hPa | 2.5V | 00:00:00 | 01:44:33 | 00:00:00 | |
| IW2NTF | 2026-09-02 00:18:12 | 44.71055 | 12.41837 | 151° | 16km/h | 23101m | 5.1m/s | -53.3°C | 4% | 0hPa | 2.5V | 08:30:00 | 01:44:22 | 00:00:00 | |
| DO3MHA-11 | 2026-09-02 00:18:11 | 44.71051 | 12.41840 | 152° | 16km/h | 23107m | 6.5m/s | -53.3°C | 4.0% | 0hPa | 2.6V | 00:00:00 | 01:44:23 | 00:00:00 | |
| IW2NTF | 2026-09-02 00:18:01 | 44.71088 | 12.41799 | 145° | 16km/h | 23045m | 4.9m/s | -53.2°C | 3.9% | 0hPa | 2.6V | 08:30:00 | 01:44:12 | 00:00:00 | |
| DO3MHA-12 | 2026-09-02 00:18:01 | 44.71085 | 12.41803 | 142° | 13km/h | 23051m | 6.2m/s | -53.2°C | 3.9% | 0hPa | 2.6V | 00:00:00 | 01:44:13 | 00:00:00 | |
| IW2NTF | 2026-09-02 00:17:55 | 44.71105 | 12.41760 | 121° | 16km/h | 22991m | 4.9m/s | -53.2°C | 3.9% | 0hPa | 2.6V | 08:30:00 | 01:44:02 | 00:00:00 | |
| DO3MHA-11 | 2026-09-02 00:17:51 | 44.71103 | 12.41765 | 117° | 15km/h | 22997m | 5.3m/s | -53.2°C | 3.9% | 0hPa | 2.5V | 00:00:00 | 01:44:03 | 00:00:00 | |
| IW2NTF | 2026-09-02 00:17:40 | 44.71118 | 12.41719 | 65° | 9km/h | 22937m | 5.8m/s | -53.4°C | 3.9% | 0hPa | 2.5V | 08:30:00 | 01:43:52 | 00:00:00 | |
| DO3MHA-11 | 2026-09-02 00:17:31 | 44.71121 | 12.41696 | 119° | 4km/h | 22890m | 5.7m/s | -53.3°C | 3.9% | 0hPa | 2.6V | 00:00:00 | 01:43:43 | 00:00:00 | |
| IW2NTF | 2026-09-02 00:17:30 | 44.71122 | 12.41693 | 45° | 4km/h | 22874m | 5.4m/s | -53.5°C | 3.9% | 0hPa | 2.6V | 08:30:00 | 01:43:40 | 00:00:00 | |
| DO3MHA-12 | 2026-09-02 00:17:21 | 44.71122 | 12.41695 | 142° | 7km/h | 22838m | 4.2m/s | 0°C | 0% | 0hPa | 2.5V | 00:00:00 | 01:43:33 | 00:00:00 | |
| IW2NTF | 2026-09-02 00:17:20 | 44.71129 | 12.41691 | 169° | 11km/h | 22823m | 4.7m/s | -53.8°C | 4% | 0hPa | 2.5V | 08:30:00 | 01:43:30 | 00:00:00 | |
| DO3MHA-12 | 2026-09-02 00:17:11 | 44.71137 | 12.41687 | 219° | 11km/h | 22786m | 5.2m/s | 0°C | 0% | 0hPa | 2.5V | 00:00:00 | 01:43:23 | 00:00:00 | |
| IW2NTF | 2026-09-02 00:17:10 | 44.71143 | 12.41689 | 190° | 11km/h | 22768m | 5.5m/s | -54°C | 4.1% | 0hPa | 2.5V | 08:30:00 | 01:43:20 | 00:00:00 | |
| DO3MHA-12 | 2026-09-02 00:17:01 | 44.71163 | 12.41691 | 182° | 15km/h | 22730m | 4.4m/s | 0°C | 0% | 0hPa | 2.5V | 00:00:00 | 01:43:13 | 00:00:00 | |
| IW2NTF | 2026-09-02 00:17:00 | 44.71174 | 12.41689 | 160° | 16km/h | 22714m | 5.6m/s | -54.1°C | 4.1% | 0hPa | 2.5V | 08:30:00 | 01:43:10 | 00:00:00 | |
| DO3MHA-11 | 2026-09-02 00:16:51 | 44.71200 | 12.41686 | 176° | 11km/h | 22677m | 4.8m/s | -54.0°C | 4.1% | 0hPa | 2.6V | 00:00:00 | 01:43:03 | 00:00:00 | |
| IW2NTF | 2026-09-02 00:16:50 | 44.71213 | 12.41686 | 182° | 15km/h | 22662m | 4m/s | -54.1°C | 4.1% | 0hPa | 2.6V | 08:30:00 | 01:43:00 | 00:00:00 | |
| IW2NTF | 2026-09-02 00:16:41 | 44.71234 | 12.41679 | 182° | 9km/h | 22607m | 5.1m/s | -54.1°C | 4.1% | 0hPa | 2.7V | 08:30:00 | 01:42:50 | 00:00:00 | |
| DO3MHA-11 | 2026-09-02 00:16:31 | 44.71248 | 12.41673 | 148° | 11km/h | 22570m | 5.9m/s | -54.0°C | 4.1% | 0hPa | 2.5V | 00:00:00 | 01:42:43 | 00:00:00 | |
| IW2NTF | 2026-09-02 00:16:30 | 44.71254 | 12.41664 | 130° | 13km/h | 22554m | 5.6m/s | -54°C | 4.1% | 0hPa | 2.5V | 08:30:00 | 01:42:40 | 00:00:00 | |
| DO3MHA-11 | 2026-09-02 00:16:21 | 44.71269 | 12.41652 | 175° | 16km/h | 22516m | 5.3m/s | -54.0°C | 4.0% | 0hPa | 2.7V | 00:00:00 | 01:42:33 | 00:00:00 | |
| IW2NTF | 2026-09-02 00:16:21 | 44.71278 | 12.41648 | 138° | 15km/h | 22500m | 6m/s | -54.1°C | 4.1% | 0hPa | 2.5V | 08:30:00 | 01:42:30 | 00:00:00 | |
| DO3MHA-11 | 2026-09-02 00:16:11 | 44.71299 | 12.41614 | 125° | 15km/h | 22463m | 5.1m/s | -54.4°C | 4.1% | 0hPa | 2.7V | 00:00:00 | 01:42:23 | 08:30:00 | |
| IW2NTF | 2026-09-02 00:16:10 | 44.71305 | 12.41592 | 94° | 15km/h | 22434m | 5.2m/s | -54.4°C | 4.2% | 0hPa | 2.5V | 08:30:00 | 01:42:18 | 00:00:00 | |
| IW2NTF | 2026-09-02 00:16:00 | 44.71310 | 12.41549 | 72° | 11km/h | 22377m | 6.5m/s | -54.4°C | 4.2% | 0hPa | 2.5V | 08:30:00 | 01:42:08 | 00:00:00 | |
| DO3MHA-11 | 2026-09-02 00:15:58 | 44.71311 | 12.41556 | 92° | 9km/h | 22389m | 5.2m/s | -54.4°C | 4.2% | 0hPa | 2.5V | 00:00:00 | 01:42:10 | 00:00:00 | |
| IW2NTF | 2026-09-02 00:15:51 | 44.71296 | 12.41508 | 68° | 11km/h | 22322m | 4.8m/s | -54.1°C | 4.1% | 0hPa | 2.5V | 08:30:00 | 01:41:58 | 00:00:00 | |
| DO3MHA-11 | 2026-09-02 00:15:48 | 44.71298 | 12.41518 | 68° | 13km/h | 22334m | 5.6m/s | -54.2°C | 4.1% | 0hPa | 2.5V | 00:00:00 | 01:42:00 | 00:00:00 | |
| IW2NTF | 2026-09-02 00:15:40 | 44.71295 | 12.41479 | 67° | 11km/h | 22266m | 5.8m/s | -54°C | 4.1% | 0hPa | 2.5V | 08:30:00 | 01:41:48 | 00:00:00 | |
| DO3MHA-11 | 2026-09-02 00:15:37 | 44.71296 | 12.41483 | 81° | 11km/h | 22272m | 6.4m/s | -54.0°C | 4.0% | 0hPa | 2.6V | 00:00:00 | 01:41:49 | 00:00:00 | |
| IW2NTF | 2026-09-02 00:15:30 | 44.71284 | 12.41447 | 132° | 5km/h | 22212m | 4.1m/s | -54.2°C | 4.2% | 0hPa | 2.6V | 08:30:00 | 01:41:38 | 00:00:00 | |
| DO3MHA-11 | 2026-09-02 00:15:27 | 44.71283 | 12.41448 | 126° | 7km/h | 22217m | 5.3m/s | -54.1°C | 4.2% | 0hPa | 2.7V | 00:00:00 | 01:41:39 | 00:00:00 | |
| IW2NTF | 2026-09-02 00:15:20 | 44.71272 | 12.41424 | 48° | 9km/h | 22157m | 5.8m/s | -53.9°C | 4.2% | 0hPa | 2.7V | 08:30:00 | 01:41:28 | 00:00:00 | |
| DO3MHA-11 | 2026-09-02 00:15:18 | 44.71274 | 12.41426 | 33° | 9km/h | 22163m | 5.7m/s | -53.9°C | 4.1% | 0hPa | 2.5V | 00:00:00 | 01:41:29 | 00:00:00 | |
| IW2NTF | 2026-09-02 00:15:10 | 44.71272 | 12.41392 | 77° | 16km/h | 22101m | 4.9m/s | -53.6°C | 4% | 0hPa | 2.5V | 08:30:00 | 01:41:18 | 00:00:00 | |
| DO3MHA-11 | 2026-09-02 00:15:07 | 44.71273 | 12.41397 | 86° | 16km/h | 22107m | 5.7m/s | -53.6°C | 4.0% | 0hPa | 2.5V | 00:00:00 | 01:41:19 | 00:00:00 | |
| IW2NTF | 2026-09-02 00:15:00 | 44.71267 | 12.41339 | 101° | 11km/h | 22044m | 5.2m/s | -53.4°C | 3.9% | 0hPa | 2.5V | 08:30:00 | 01:41:08 | 00:00:00 | |
| DO3MHA-11 | 2026-09-02 00:14:57 | 44.71266 | 12.41343 | 112° | 20km/h | 22050m | 6.1m/s | -53.4°C | 3.9% | 0hPa | 2.5V | 00:00:00 | 01:41:09 | 00:00:00 | |
| IW2NTF | 2026-09-02 00:14:50 | 44.71259 | 12.41265 | 83° | 18km/h | 21990m | 5.2m/s | -53.5°C | 4% | 0hPa | 2.5V | 08:30:00 | 01:40:58 | 00:00:00 | |
| DO3MHA-11 | 2026-09-02 00:14:47 | 44.71260 | 12.41272 | 81° | 15km/h | 21995m | 4.3m/s | -53.4°C | 4.0% | 0hPa | 2.7V | 00:00:00 | 01:40:59 | 00:00:00 | |
| IW2NTF | 2026-09-02 00:14:41 | 44.71267 | 12.41217 | 97° | 20km/h | 21936m | 6.5m/s | -53.7°C | 4% | 0hPa | 2.7V | 08:30:00 | 01:40:48 | 00:00:00 | |
| DO3MHA-11 | 2026-09-02 00:14:37 | 44.71267 | 12.41223 | 99° | 22km/h | 21942m | 4.8m/s | -53.6°C | 4.0% | 0hPa | 2.7V | 00:00:00 | 01:40:49 | 08:30:00 | |
| IW2NTF | 2026-09-02 00:14:30 | 44.71260 | 12.41138 | 78° | 20km/h | 21880m | 4m/s | -53.8°C | 4.1% | 0hPa | 2.7V | 08:30:00 | 01:40:38 | 00:00:00 | |
| DO3MHA-11 | 2026-09-02 00:14:27 | 44.71261 | 12.41145 | 78° | 20km/h | 21885m | 5.4m/s | -53.7°C | 4.0% | 0hPa | 2.5V | 00:00:00 | 01:40:39 | 00:00:00 | |
| IW2NTF | 2026-09-02 00:14:21 | 44.71239 | 12.41076 | 40° | 16km/h | 21825m | 6.6m/s | -53.7°C | 4% | 0hPa | 2.5V | 08:30:00 | 01:40:28 | 00:00:00 | |
| DO3MHA-11 | 2026-09-02 00:14:17 | 44.71242 | 12.41080 | 49° | 20km/h | 21831m | 4.8m/s | -53.6°C | 3.9% | 0hPa | 2.5V | 00:00:00 | 01:40:29 | 00:00:00 | |
| IW2NTF | 2026-09-02 00:14:10 | 44.71199 | 12.41025 | 28° | 24km/h | 21769m | 5m/s | -53.6°C | 4% | 0hPa | 2.5V | 08:30:00 | 01:40:18 | 00:00:00 | |
| DO3MHA-11 | 2026-09-02 00:14:07 | 44.71204 | 12.41029 | 32° | 24km/h | 21776m | 6.3m/s | -53.6°C | 4.0% | 0hPa | 2.5V | 00:00:00 | 01:40:19 | 00:00:00 | |
| IW2NTF | 2026-09-02 00:14:00 | 44.71141 | 12.40992 | 35° | 31km/h | 21714m | 6m/s | -53.7°C | 3.9% | 0hPa | 2.5V | 08:30:00 | 01:40:08 | 00:00:00 | |
| DO3MHA-11 | 2026-09-02 00:13:57 | 44.71147 | 12.40998 | 32° | 27km/h | 21720m | 5.7m/s | -53.6°C | 3.9% | 0hPa | 2.5V | 00:00:00 | 01:40:09 | 00:00:00 | |
| IW2NTF | 2026-09-02 00:13:50 | 44.71071 | 12.40972 | 359° | 24km/h | 21653m | 4.9m/s | -54.5°C | 4.1% | 0hPa | 2.5V | 08:30:00 | 01:39:57 | 00:00:00 | |
| DO3MHA-11 | 2026-09-02 00:13:47 | 44.71082 | 12.40971 | 354° | 27km/h | 21664m | 6.3m/s | -54.2°C | 4.0% | 0hPa | 2.5V | 00:00:00 | 01:39:59 | 00:00:00 | |
| IW2NTF | 2026-09-02 00:13:40 | 44.70994 | 12.40955 | 0° | 31km/h | 21600m | 6.2m/s | -54.5°C | 4.2% | 0hPa | 2.5V | 08:30:00 | 01:39:47 | 00:00:00 | |
| IW2NTF | 2026-09-02 00:13:30 | 44.70922 | 12.40975 | 347° | 33km/h | 21547m | 4.1m/s | -54.5°C | 4.2% | 0hPa | 2.7V | 08:30:00 | 01:39:37 | 00:00:00 | |
| DO3MHA-11 | 2026-09-02 00:13:29 | 44.70951 | 12.40963 | 343° | 27km/h | 21568m | 5.3m/s | -54.4°C | 4.2% | 0hPa | 2.5V | 00:00:00 | 01:39:41 | 00:00:00 | |
| IW2NTF | 2026-09-02 00:13:20 | 44.70861 | 12.40988 | 346° | 24km/h | 21494m | 5m/s | -54.4°C | 4.2% | 0hPa | 2.7V | 08:30:00 | 01:39:27 | 00:00:00 | |
| DO3MHA-11 | 2026-09-02 00:13:18 | 44.70876 | 12.40984 | 352° | 24km/h | 21510m | 5.9m/s | -54.4°C | 4.2% | 0hPa | 2.5V | 00:00:00 | 01:39:30 | 00:00:00 | |
| IW2NTF | 2026-09-02 00:13:11 | 44.70805 | 12.41021 | 331° | 22km/h | 21441m | 6.1m/s | -54.2°C | 4.1% | 0hPa | 2.5V | 08:30:00 | 01:39:17 | 00:00:00 | |
| DO3MHA-11 | 2026-09-02 00:13:08 | 44.70819 | 12.41010 | 335° | 22km/h | 21457m | 6.2m/s | -54.2°C | 4.2% | 0hPa | 2.5V | 00:00:00 | 01:39:20 | 00:00:00 | |
| IW2NTF | 2026-09-02 00:12:59 | 44.70759 | 12.41074 | 311° | 24km/h | 21389m | 3.9m/s | -54.1°C | 4.1% | 0hPa | 2.5V | 08:30:00 | 01:39:07 | 00:00:00 | |
| DO3MHA-11 | 2026-09-02 00:12:58 | 44.70773 | 12.41053 | 318° | 22km/h | 21405m | 4.4m/s | -54.1°C | 4.1% | 0hPa | 2.7V | 00:00:00 | 01:39:10 | 08:30:00 | |
| IW2NTF | 2026-09-02 00:12:48 | 44.70728 | 12.41119 | 296° | 20km/h | 21337m | 6.3m/s | -54°C | 4.1% | 0hPa | 2.5V | 08:30:00 | 01:38:57 | 00:00:00 | |
| DO3MHA-11 | 2026-09-02 00:12:48 | 44.70735 | 12.41104 | 313° | 18km/h | 21353m | 5.9m/s | -54.0°C | 4.1% | 0hPa | 2.5V | 00:00:00 | 01:39:00 | 00:00:00 | |
| IW2NTF | 2026-09-02 00:12:38 | 44.70702 | 12.41185 | 282° | 18km/h | 21276m | 4.2m/s | -53.8°C | 4% | 0hPa | 2.5V | 08:30:00 | 01:38:45 | 00:00:00 | |
| DO3MHA-11 | 2026-09-02 00:12:38 | 44.70711 | 12.41160 | 300° | 18km/h | 21301m | 5.2m/s | -53.8°C | 4.1% | 0hPa | 2.5V | 00:00:00 | 01:38:50 | 00:00:00 | |
| IW2NTF | 2026-09-02 00:12:28 | 44.70688 | 12.41246 | 284° | 16km/h | 21223m | 4m/s | -53.7°C | 4% | 0hPa | 2.5V | 08:30:00 | 01:38:35 | 00:00:00 | |
| DO3MHA-11 | 2026-09-02 00:12:26 | 44.70693 | 12.41229 | 297° | 18km/h | 21239m | 5.2m/s | -53.6°C | 4.0% | 0hPa | 2.5V | 00:00:00 | 01:38:38 | 00:00:00 | |
| IW2NTF | 2026-09-02 00:12:18 | 44.70686 | 12.41305 | 242° | 11km/h | 21171m | 6.1m/s | -53.9°C | 4% | 0hPa | 2.7V | 08:30:00 | 01:38:25 | 00:00:00 | |
| DO3MHA-11 | 2026-09-02 00:12:14 | 44.70685 | 12.41301 | 257° | 13km/h | 21177m | 4.1m/s | -53.8°C | 4.0% | 0hPa | 2.7V | 00:00:00 | 01:38:26 | 00:00:00 | |
| IW2NTF | 2026-09-02 00:12:06 | 44.70705 | 12.41345 | 218° | 16km/h | 21118m | 5.7m/s | -54.2°C | 4.1% | 0hPa | 2.7V | 08:30:00 | 01:38:15 | 00:00:00 | |
| DO3MHA-11 | 2026-09-02 00:12:04 | 44.70701 | 12.41341 | 231° | 16km/h | 21124m | 5.8m/s | -54.1°C | 4.0% | 0hPa | 2.5V | 00:00:00 | 01:38:16 | 00:00:00 | |
| IW2NTF | 2026-09-02 00:11:56 | 44.70740 | 12.41368 | 211° | 11km/h | 21069m | 4.6m/s | -54.1°C | 3.9% | 0hPa | 2.5V | 08:30:00 | 01:38:05 | 00:00:00 | |
| DO3MHA-11 | 2026-09-02 00:11:54 | 44.70737 | 12.41366 | 204° | 7km/h | 21074m | 5.1m/s | -54.0°C | 3.9% | 0hPa | 2.5V | 00:00:00 | 01:38:06 | 00:00:00 | |
| IW2NTF | 2026-09-02 00:11:46 | 44.70757 | 12.41372 | 200° | 5km/h | 21018m | 5.7m/s | -54.7°C | 4% | 0hPa | 2.5V | 08:30:00 | 01:37:55 | 00:00:00 | |
| DO3MHA-11 | 2026-09-02 00:11:44 | 44.70755 | 12.41372 | 172° | 5km/h | 21023m | 4.8m/s | -54.6°C | 4.0% | 0hPa | 2.5V | 00:00:00 | 01:37:56 | 00:00:00 | |
| IW2NTF | 2026-09-02 00:11:37 | 44.70749 | 12.41381 | 15° | 11km/h | 20966m | 5.7m/s | -55.5°C | 4.2% | 0hPa | 2.5V | 08:30:00 | 01:37:45 | 00:00:00 | |
| DO3MHA-11 | 2026-09-02 00:11:34 | 44.70751 | 12.41381 | 10° | 9km/h | 20971m | 4.6m/s | -55.4°C | 4.2% | 0hPa | 2.5V | 00:00:00 | 01:37:46 | 00:00:00 | |
| IW2NTF | 2026-09-02 00:11:26 | 44.70733 | 12.41366 | 106° | 4km/h | 20914m | 4.5m/s | -55.8°C | 4.3% | 0hPa | 2.5V | 08:30:00 | 01:37:35 | 00:00:00 | |
| DO3MHA-11 | 2026-09-02 00:11:24 | 44.70733 | 12.41367 | 86° | 5km/h | 20920m | 6.1m/s | -55.7°C | 4.3% | 0hPa | 2.7V | 00:00:00 | 01:37:36 | 08:30:00 | |
| IW2NTF | 2026-09-02 00:11:11 | 44.70740 | 12.41353 | 139° | 9km/h | 20853m | 4.7m/s | -56°C | 4.4% | 0hPa | 2.5V | 08:30:00 | 01:37:23 | 00:00:00 | |
| DO3MHA-11 | 2026-09-02 00:11:02 | 44.70749 | 12.41318 | 103° | 13km/h | 20805m | 6.2m/s | -56.0°C | 4.4% | 0hPa | 2.5V | 00:00:00 | 01:37:14 | 00:00:00 | |
| IW2NTF | 2026-09-02 00:11:00 | 44.70753 | 12.41308 | 135° | 13km/h | 20789m | 5.5m/s | -56.2°C | 4.4% | 0hPa | 2.5V | 08:30:00 | 01:37:11 | 00:00:00 | |
| IW2NTF | 2026-09-02 00:10:55 | 44.70757 | 12.41261 | 77° | 18km/h | 20739m | 4.2m/s | -56.2°C | 4.4% | 0hPa | 2.5V | 08:30:00 | 01:37:01 | 00:00:00 | |
| DO3MHA-11 | 2026-09-02 00:10:52 | 44.70759 | 12.41280 | 90° | 18km/h | 20754m | 4.5m/s | -56.1°C | 4.5% | 0hPa | 2.7V | 00:00:00 | 01:37:04 | 00:00:00 | |
| IW2NTF | 2026-09-02 00:10:45 | 44.70746 | 12.41198 | 48° | 15km/h | 20687m | 5.9m/s | -56.1°C | 4.4% | 0hPa | 2.5V | 08:30:00 | 01:36:51 | 00:00:00 | |
| DO3MHA-11 | 2026-09-02 00:10:42 | 44.70752 | 12.41215 | 69° | 16km/h | 20703m | 6.0m/s | -56.1°C | 4.4% | 0hPa | 2.7V | 00:00:00 | 01:36:54 | 00:00:00 | |
| IW2NTF | 2026-09-02 00:10:34 | 44.70733 | 12.41171 | 51° | 18km/h | 20638m | 4.8m/s | -56.2°C | 4.5% | 0hPa | 2.7V | 08:30:00 | 01:36:41 | 00:00:00 | |
| IW2NTF | 2026-09-02 00:10:24 | 44.70698 | 12.41155 | 7° | 11km/h | 20588m | 4.8m/s | -56.5°C | 4.5% | 0hPa | 2.7V | 08:30:00 | 01:36:31 | 00:00:00 | |
| IW2NTF | 2026-09-02 00:10:14 | 44.70685 | 12.41133 | 49° | 7km/h | 20534m | 5.5m/s | -56.5°C | 4.6% | 0hPa | 2.5V | 08:30:00 | 01:36:21 | 00:00:00 | |
| IW2NTF | 2026-09-02 00:10:04 | 44.70684 | 12.41104 | 109° | 13km/h | 20482m | 4.1m/s | -56.2°C | 4.5% | 0hPa | 2.5V | 08:30:00 | 01:36:11 | 00:00:00 | |
| IW2NTF | 2026-09-02 00:09:54 | 44.70697 | 12.41074 | 75° | 9km/h | 20429m | 4.4m/s | -56.2°C | 4.5% | 0hPa | 2.5V | 08:30:00 | 01:36:01 | 00:00:00 | |
| IW2NTF | 2026-09-02 00:09:44 | 44.70711 | 12.41038 | 194° | 13km/h | 20376m | 5.7m/s | -55.9°C | 4.4% | 0hPa | 2.7V | 08:30:00 | 01:35:51 | 00:00:00 | |
| IW2NTF | 2026-09-02 00:09:34 | 44.70730 | 12.41007 | 97° | 20km/h | 20323m | 4.1m/s | -55.9°C | 4.4% | 0hPa | 2.7V | 08:30:00 | 01:35:41 | 00:00:00 | |
| IW2NTF | 2026-09-02 00:09:21 | 44.70728 | 12.40992 | 84° | 11km/h | 20273m | 5.3m/s | -56°C | 4.4% | 0hPa | 2.5V | 08:30:00 | 01:35:31 | 00:00:00 | |
| IW2NTF | 2026-09-02 00:09:14 | 44.70721 | 12.40936 | 71° | 9km/h | 20222m | 5m/s | -55.9°C | 4.3% | 0hPa | 2.5V | 08:30:00 | 01:35:21 | 00:00:00 | |
| IW2NTF | 2026-09-02 00:09:04 | 44.70710 | 12.40886 | 66° | 15km/h | 20172m | 5.5m/s | -56.1°C | 4.4% | 0hPa | 2.5V | 08:30:00 | 01:35:11 | 00:00:00 | |
| IW2NTF | 2026-09-02 00:08:54 | 44.70692 | 12.40841 | 57° | 15km/h | 20120m | 4.4m/s | -56.4°C | 4.6% | 0hPa | 2.5V | 08:30:00 | 01:35:01 | 00:00:00 | |
| DO3MHA-11 | 2026-09-02 00:08:47 | 44.70687 | 12.40833 | 36° | 16km/h | 20110m | 4.8m/s | -56.4°C | 4.6% | 0hPa | 2.7V | 00:00:00 | 01:34:59 | 00:00:00 | |
| IW2NTF | 2026-09-02 00:08:44 | 44.70659 | 12.40804 | 67° | 16km/h | 20069m | 5.7m/s | -56.2°C | 4.5% | 0hPa | 2.7V | 08:30:00 | 01:34:51 | 00:00:00 | |
| DO3MHA-11 | 2026-09-02 00:08:37 | 44.70656 | 12.40793 | 74° | 13km/h | 20058m | 6.5m/s | -56.0°C | 4.5% | 0hPa | 2.5V | 00:00:00 | 01:34:49 | 00:00:00 | |
| IW2NTF | 2026-09-02 00:08:34 | 44.70648 | 12.40757 | 63° | 9km/h | 20014m | 6.3m/s | -55.7°C | 4.3% | 0hPa | 2.7V | 08:30:00 | 01:34:41 | 00:00:00 | |
| DO3MHA-11 | 2026-09-02 00:08:27 | 44.70646 | 12.40752 | 60° | 13km/h | 20003m | 4.7m/s | -55.7°C | 4.4% | 0hPa | 2.6V | 00:00:00 | 01:34:39 | 00:00:00 | |
| IW2NTF | 2026-09-02 00:08:24 | 44.70638 | 12.40716 | 92° | 11km/h | 19960m | 5.3m/s | -55.4°C | 4.3% | 0hPa | 2.6V | 08:30:00 | 01:34:31 | 00:00:00 | |
| DO3MHA-11 | 2026-09-02 00:08:17 | 44.70639 | 12.40710 | 134° | 9km/h | 19949m | 4.1m/s | -55.3°C | 4.3% | 0hPa | 2.5V | 00:00:00 | 01:34:29 | 00:00:00 | |
| IW2NTF | 2026-09-02 00:08:15 | 44.70650 | 12.40687 | 124° | 13km/h | 19906m | 5.6m/s | -55.6°C | 4.3% | 0hPa | 2.5V | 08:30:00 | 01:34:21 | 00:00:00 | |
| DO3MHA-11 | 2026-09-02 00:08:07 | 44.70652 | 12.40680 | 102° | 15km/h | 19896m | 4.6m/s | -55.5°C | 4.2% | 0hPa | 2.7V | 00:00:00 | 01:34:19 | 08:30:00 | |
| IW2NTF | 2026-09-02 00:08:05 | 44.70663 | 12.40667 | 148° | 18km/h | 19853m | 5.6m/s | -55.5°C | 4.3% | 0hPa | 2.5V | 08:30:00 | 01:34:11 | 00:00:00 | |
| IW2NTF | 2026-09-02 00:07:55 | 44.70700 | 12.40640 | 163° | 13km/h | 19800m | 6.1m/s | -56°C | 4.3% | 0hPa | 2.7V | 08:30:00 | 01:34:01 | 00:00:00 | |
| DO3MHA-11 | 2026-09-02 00:07:54 | 44.70682 | 12.40648 | 156° | 16km/h | 19827m | 5.7m/s | -55.8°C | 4.3% | 0hPa | 2.7V | 00:00:00 | 01:34:06 | 00:00:00 | |
| IW2NTF | 2026-09-02 00:07:45 | 44.70747 | 12.40583 | 129° | 26km/h | 19747m | 5m/s | -56.1°C | 4.3% | 0hPa | 2.7V | 08:30:00 | 01:33:51 | 00:00:00 | |
| DO3MHA-11 | 2026-09-02 00:07:44 | 44.70721 | 12.40619 | 136° | 26km/h | 19774m | 5.6m/s | -56.0°C | 4.3% | 0hPa | 2.6V | 00:00:00 | 01:33:56 | 00:00:00 | |
| IW2NTF | 2026-09-02 00:07:34 | 44.70776 | 12.40519 | 121° | 31km/h | 19696m | 6m/s | -56.4°C | 4.4% | 0hPa | 2.6V | 08:30:00 | 01:33:41 | 00:00:00 | |
| DO3MHA-11 | 2026-09-02 00:07:34 | 44.70761 | 12.40555 | 113° | 27km/h | 19721m | 4.3m/s | -56.1°C | 4.4% | 0hPa | 2.7V | 00:00:00 | 01:33:46 | 00:00:00 | |
| IW2NTF | 2026-09-02 00:07:25 | 44.70809 | 12.40436 | 96° | 16km/h | 19646m | 4.9m/s | -56.7°C | 4.6% | 0hPa | 2.6V | 08:30:00 | 01:33:31 | 00:00:00 | |
| DO3MHA-11 | 2026-09-02 00:07:24 | 44.70798 | 12.40471 | 123° | 22km/h | 19672m | 5.9m/s | -56.6°C | 4.4% | 0hPa | 2.5V | 00:00:00 | 01:33:36 | 00:00:00 | |
| IW2NTF | 2026-09-02 00:07:14 | 44.70819 | 12.40350 | 97° | 24km/h | 19596m | 5.8m/s | -56.5°C | 4.4% | 0hPa | 2.5V | 08:30:00 | 01:33:21 | 00:00:00 | |
| DO3MHA-11 | 2026-09-02 00:07:14 | 44.70813 | 12.40397 | 108° | 24km/h | 19622m | 4.7m/s | -56.5°C | 4.5% | 0hPa | 2.6V | 00:00:00 | 01:33:26 | 00:00:00 | |
| IW2NTF | 2026-09-02 00:07:04 | 44.70808 | 12.40288 | 91° | 24km/h | 19545m | 6.1m/s | -57.2°C | 4.6% | 0hPa | 2.6V | 08:30:00 | 01:33:11 | 00:00:00 | |
| DO3MHA-11 | 2026-09-02 00:07:04 | 44.70814 | 12.40320 | 62° | 24km/h | 19569m | 5.4m/s | -57.0°C | 4.5% | 0hPa | 2.6V | 00:00:00 | 01:33:16 | 00:00:00 | |
| IW2NTF | 2026-09-02 00:06:55 | 44.70813 | 12.40190 | 80° | 26km/h | 19494m | 4.3m/s | -57.2°C | 4.7% | 0hPa | 2.7V | 08:30:00 | 01:33:01 | 00:00:00 | |
| DO3MHA-11 | 2026-09-02 00:06:54 | 44.70814 | 12.40236 | 93° | 27km/h | 19521m | 3.7m/s | -57.1°C | 4.7% | 0hPa | 2.7V | 00:00:00 | 01:33:06 | 00:00:00 | |
| IW2NTF | 2026-09-02 00:06:44 | 44.70817 | 12.40091 | 82° | 20km/h | 19443m | 5.8m/s | -57.2°C | 4.7% | 0hPa | 2.7V | 08:30:00 | 01:32:51 | 00:00:00 | |
| DO3MHA-11 | 2026-09-02 00:06:44 | 44.70813 | 12.40139 | 96° | 24km/h | 19468m | 4.0m/s | -57.4°C | 4.7% | 0hPa | 2.6V | 00:00:00 | 01:32:56 | 00:00:00 | |
| DO3MHA-11 | 2026-09-02 00:06:34 | 44.70810 | 12.40062 | 67° | 20km/h | 19417m | 4.8m/s | -57.0°C | 4.6% | 0hPa | 2.6V | 00:00:00 | 01:32:46 | 08:30:00 | |
| IW2NTF | 2026-09-02 00:06:33 | 44.70805 | 12.40025 | 83° | 24km/h | 19391m | 4.7m/s | -57.1°C | 4.6% | 0hPa | 2.6V | 08:30:00 | 01:32:41 | 00:00:00 | |
| DO3MHA-11 | 2026-09-02 00:06:24 | 44.70804 | 12.39996 | 74° | 15km/h | 19365m | 5.1m/s | -57.0°C | 4.6% | 0hPa | 2.7V | 00:00:00 | 01:32:36 | 00:00:00 | |
| IW2NTF | 2026-09-02 00:06:23 | 44.70796 | 12.39961 | 80° | 18km/h | 19330m | 5.7m/s | -57.1°C | 4.7% | 0hPa | 2.7V | 08:30:00 | 01:32:29 | 00:00:00 | |
| DO3MHA-11 | 2026-09-02 00:06:14 | 44.70796 | 12.39946 | 94° | 16km/h | 19315m | 4.7m/s | -57.1°C | 4.7% | 0hPa | 2.6V | 00:00:00 | 01:32:26 | 00:00:00 | |
| IW2NTF | 2026-09-02 00:06:12 | 44.70799 | 12.39906 | 93° | 20km/h | 19279m | 4.4m/s | -57°C | 4.6% | 0hPa | 2.6V | 08:30:00 | 01:32:19 | 00:00:00 | |
| DO3MHA-11 | 2026-09-02 00:06:04 | 44.70802 | 12.39884 | 108° | 22km/h | 19264m | 4.8m/s | -56.8°C | 4.6% | 0hPa | 2.6V | 00:00:00 | 01:32:16 | 00:00:00 | |
| IW2NTF | 2026-09-02 00:06:02 | 44.70810 | 12.39834 | 93° | 20km/h | 19229m | 5.1m/s | -57°C | 4.6% | 0hPa | 2.7V | 08:30:00 | 01:32:09 | 00:00:00 | |
| IW2NTF | 2026-09-02 00:05:55 | 44.70822 | 12.39769 | 107° | 18km/h | 19180m | 6m/s | -57.3°C | 4.7% | 0hPa | 2.6V | 08:30:00 | 01:31:59 | 00:00:00 | |
| IW2NTF | 2026-09-02 00:05:43 | 44.70818 | 12.39729 | 79° | 13km/h | 19130m | 5.9m/s | -57.4°C | 4.6% | 0hPa | 2.6V | 08:30:00 | 01:31:49 | 00:00:00 | |
| IW2NTF | 2026-09-02 00:05:34 | 44.70811 | 12.39685 | 92° | 11km/h | 19080m | 5.7m/s | -57.8°C | 4.8% | 0hPa | 2.6V | 08:30:00 | 01:31:39 | 00:00:00 | |
| IW2NTF | 2026-09-02 00:05:23 | 44.70827 | 12.39627 | 111° | 18km/h | 19031m | 3.9m/s | -57.8°C | 4.7% | 0hPa | 2.6V | 08:30:00 | 01:31:29 | 00:00:00 | |
| IW2NTF | 2026-09-02 00:05:13 | 44.70837 | 12.39564 | 101° | 27km/h | 18981m | 4.7m/s | -58.2°C | 4.9% | 0hPa | 2.6V | 08:30:00 | 01:31:19 | 00:00:00 | |
| IW2NTF | 2026-09-02 00:05:02 | 44.70842 | 12.39477 | 101° | 16km/h | 18930m | 4.6m/s | -58.2°C | 4.8% | 0hPa | 2.7V | 08:30:00 | 01:31:09 | 00:00:00 | |
| DO3MHA-11 | 2026-09-02 00:04:58 | 44.70841 | 12.39477 | 102° | 26km/h | 18931m | 4.6m/s | -58.2°C | 4.8% | 0hPa | 2.7V | 00:00:00 | 01:31:09 | 00:00:00 | |
| IW2NTF | 2026-09-02 00:04:50 | 44.70836 | 12.39377 | 86° | 33km/h | 18880m | 5.1m/s | -58.3°C | 4.9% | 0hPa | 2.7V | 08:30:00 | 01:30:59 | 00:00:00 | |
| IW2NTF | 2026-09-02 00:04:44 | 44.70823 | 12.39269 | 74° | 33km/h | 18831m | 6.1m/s | -58.4°C | 4.9% | 0hPa | 2.6V | 08:30:00 | 01:30:49 | 00:00:00 | |
| IW2NTF | 2026-09-02 00:04:33 | 44.70797 | 12.39169 | 68° | 27km/h | 18781m | 5.9m/s | -58.3°C | 4.9% | 0hPa | 2.6V | 08:30:00 | 01:30:39 | 00:00:00 | |
| IW2NTF | 2026-09-02 00:04:23 | 44.70757 | 12.39072 | 48° | 27km/h | 18731m | 4.2m/s | -58.3°C | 5% | 0hPa | 2.7V | 08:30:00 | 01:30:29 | 00:00:00 | |
| DO3MHA-11 | 2026-09-02 00:04:23 | 44.70783 | 12.39128 | 59° | 29km/h | 18761m | 4.5m/s | -58.2°C | 4.9% | 0hPa | 2.7V | 00:00:00 | 01:30:35 | 00:00:00 | |
| IW2NTF | 2026-09-02 00:04:14 | 44.70712 | 12.38982 | 48° | 35km/h | 18680m | 4.8m/s | -57.9°C | 5% | 0hPa | 2.7V | 08:30:00 | 01:30:19 | 00:00:00 | |
| DO3MHA-11 | 2026-09-02 00:04:11 | 44.70732 | 12.39024 | 58° | 29km/h | 18700m | 5.8m/s | -58.0°C | 5.0% | 0hPa | 2.6V | 00:00:00 | 01:30:23 | 00:00:00 | |
| IW2NTF | 2026-09-02 00:04:03 | 44.70661 | 12.38906 | 50° | 22km/h | 18627m | 4.7m/s | -57.6°C | 4.8% | 0hPa | 2.6V | 08:30:00 | 01:30:09 | 00:00:00 | |
| IW2NTF | 2026-09-02 00:03:52 | 44.70604 | 12.38821 | 42° | 27km/h | 18575m | 5.5m/s | -57.1°C | 4.9% | 0hPa | 2.6V | 08:30:00 | 01:29:59 | 00:00:00 | |
| IW2NTF | 2026-09-02 00:03:43 | 44.70557 | 12.38773 | 33° | 29km/h | 18524m | 4.8m/s | -56.7°C | 4.7% | 0hPa | 2.7V | 08:30:00 | 01:29:49 | 00:00:00 | |
| IW2NTF | 2026-09-02 00:03:27 | 44.70506 | 12.38719 | 38° | 18km/h | 18462m | 4.4m/s | -56.1°C | 4.5% | 0hPa | 2.6V | 08:30:00 | 01:29:37 | 00:00:00 | |
| DO3MHA-11 | 2026-09-02 00:03:26 | 44.70488 | 12.38702 | 38° | 20km/h | 18442m | 5.9m/s | -55.9°C | 4.5% | 0hPa | 2.7V | 00:00:00 | 01:29:33 | 00:00:00 | |
| IW2NTF | 2026-09-02 00:03:20 | 44.70457 | 12.38663 | 29° | 16km/h | 18402m | 5.7m/s | -55.6°C | 4.4% | 0hPa | 2.7V | 08:30:00 | 01:29:25 | 00:00:00 | |
| DO3MHA-11 | 2026-09-02 00:03:15 | 44.70414 | 12.38610 | 46° | 16km/h | 18343m | 3.7m/s | -55.1°C | 4.4% | 0hPa | 2.7V | 00:00:00 | 01:29:13 | 00:00:00 | |
| IW2NTF | 2026-09-02 00:03:07 | 44.70422 | 12.38621 | 52° | 20km/h | 18353m | 4.4m/s | -55.2°C | 4.4% | 0hPa | 2.7V | 08:30:00 | 01:29:15 | 00:00:00 | |
| DO3MHA-11 | 2026-09-02 00:03:05 | 44.70389 | 12.38562 | 47° | 15km/h | 18292m | 5.5m/s | -54.8°C | 4.2% | 0hPa | 2.6V | 00:00:00 | 01:29:03 | 00:00:00 | |
| IW2NTF | 2026-09-02 00:02:59 | 44.70395 | 12.38571 | 46° | 16km/h | 18302m | 6.4m/s | -54.9°C | 4.2% | 0hPa | 2.6V | 08:30:00 | 01:29:05 | 00:00:00 | |
| DO3MHA-11 | 2026-09-02 00:02:50 | 44.70370 | 12.38517 | 88° | 9km/h | 18238m | 4.7m/s | -54.6°C | 4.2% | 0hPa | 2.7V | 00:00:00 | 01:28:53 | 00:00:00 | |
| IW2NTF | 2026-09-02 00:02:44 | 44.70370 | 12.38522 | 83° | 13km/h | 18243m | 6.3m/s | -54.7°C | 4.2% | 0hPa | 2.6V | 08:30:00 | 01:28:54 | 00:00:00 | |
| DO3MHA-11 | 2026-09-02 00:02:40 | 44.70371 | 12.38484 | 101° | 16km/h | 18187m | 4.2m/s | -54.5°C | 4.1% | 0hPa | 2.6V | 00:00:00 | 01:28:43 | 00:00:00 | |
| IW2NTF | 2026-09-02 00:02:38 | 44.70372 | 12.38479 | 96° | 15km/h | 18181m | 5.8m/s | -54.6°C | 4.1% | 0hPa | 2.6V | 08:30:00 | 01:28:42 | 00:00:00 | |
| DO3MHA-11 | 2026-09-02 00:02:31 | 44.70377 | 12.38429 | 112° | 24km/h | 18134m | 5.3m/s | -54.9°C | 4.1% | 0hPa | 2.7V | 00:00:00 | 01:28:33 | 00:00:00 | |
| IW2NTF | 2026-09-02 00:02:20 | 44.70383 | 12.38409 | 117° | 20km/h | 18118m | 4.4m/s | -55.3°C | 4.2% | 0hPa | 2.7V | 08:30:00 | 01:28:30 | 00:00:00 | |
| DO3MHA-11 | 2026-09-02 00:02:18 | 44.70401 | 12.38347 | 111° | 31km/h | 18080m | 5.6m/s | -55.7°C | 4.3% | 0hPa | 2.6V | 00:00:00 | 01:28:23 | 00:00:00 | |
| IW2NTF | 2026-09-02 00:02:14 | 44.70417 | 12.38300 | 120° | 31km/h | 18054m | 6m/s | -56°C | 4.4% | 0hPa | 2.7V | 08:30:00 | 01:28:18 | 00:00:00 | |
| DO3MHA-11 | 2026-09-02 00:02:09 | 44.70442 | 12.38253 | 130° | 37km/h | 18028m | 5.2m/s | -56.0°C | 4.4% | 0hPa | 2.6V | 00:00:00 | 01:28:13 | 00:00:00 | |
| IW2NTF | 2026-09-02 00:02:01 | 44.70460 | 12.38223 | 127° | 37km/h | 18012m | 4.4m/s | -56.2°C | 4.5% | 0hPa | 2.6V | 08:30:00 | 01:28:10 | 00:00:00 | |
| DO3MHA-11 | 2026-09-02 00:01:58 | 44.70494 | 12.38149 | 122° | 38km/h | 17978m | 5.0m/s | -56.4°C | 4.6% | 0hPa | 2.6V | 00:00:00 | 01:28:03 | 00:00:00 | |
| IW2NTF | 2026-09-02 00:01:54 | 44.70519 | 12.38096 | 125° | 40km/h | 17952m | 4.3m/s | -56.5°C | 4.6% | 0hPa | 2.6V | 08:30:00 | 01:27:58 | 00:00:00 | |
| DO3MHA-11 | 2026-09-02 00:01:51 | 44.70547 | 12.38036 | 125° | 42km/h | 17927m | 4.2m/s | -56.4°C | 4.6% | 0hPa | 2.6V | 00:00:00 | 01:27:53 | 08:30:00 | |
| DO3MHA-11 | 2026-09-02 00:01:39 | 44.70592 | 12.37903 | 115° | 44km/h | 17879m | 5.2m/s | -56.2°C | 4.4% | 0hPa | 2.6V | 00:00:00 | 01:27:43 | 00:00:00 | |
| IW2NTF | 2026-09-02 00:01:37 | 44.70580 | 12.37946 | 110° | 44km/h | 17893m | 5.6m/s | -56.2°C | 4.5% | 0hPa | 2.6V | 08:30:00 | 01:27:46 | 00:00:00 | |
| IW2NTF | 2026-09-02 00:01:27 | 44.70628 | 12.37809 | 117° | 46km/h | 17845m | 4.8m/s | -56.2°C | 4.4% | 0hPa | 2.6V | 08:30:00 | 01:27:36 | 00:00:00 | |
| DO3MHA-11 | 2026-09-02 00:01:25 | 44.70642 | 12.37764 | 115° | 49km/h | 17831m | 5.8m/s | -56.1°C | 4.4% | 0hPa | 2.7V | 00:00:00 | 01:27:33 | 00:00:00 | |
| IW2NTF | 2026-09-02 00:01:17 | 44.70674 | 12.37649 | 113° | 51km/h | 17796m | 4.7m/s | -56.9°C | 4.6% | 0hPa | 2.7V | 08:30:00 | 01:27:26 | 00:00:00 | |
| DO3MHA-11 | 2026-09-02 00:01:16 | 44.70688 | 12.37599 | 112° | 57km/h | 17782m | 3.9m/s | -57.0°C | 4.7% | 0hPa | 2.6V | 00:00:00 | 01:27:23 | 00:00:00 | |
| IW2NTF | 2026-09-02 00:01:07 | 44.70726 | 12.37468 | 107° | 58km/h | 17748m | 3.4m/s | -57.1°C | 4.7% | 0hPa | 2.6V | 08:30:00 | 01:27:16 | 00:00:00 | |
| DO3MHA-11 | 2026-09-02 00:01:01 | 44.70737 | 12.37410 | 103° | 60km/h | 17733m | 4.0m/s | -57.0°C | 4.7% | 0hPa | 2.6V | 00:00:00 | 01:27:13 | 00:00:00 | |
| IW2NTF | 2026-09-02 00:00:56 | 44.70757 | 12.37265 | 100° | 60km/h | 17698m | 4.7m/s | -57°C | 4.6% | 0hPa | 2.6V | 08:30:00 | 01:27:06 | 00:00:00 | |
| DO3MHA-11 | 2026-09-02 00:00:51 | 44.70764 | 12.37203 | 98° | 57km/h | 17684m | 4.1m/s | -56.9°C | 4.6% | 0hPa | 2.7V | 00:00:00 | 01:27:03 | 00:00:00 | |
| IW2NTF | 2026-09-02 00:00:46 | 44.70781 | 12.37065 | 98° | 58km/h | 17650m | 5.2m/s | -57.1°C | 4.7% | 0hPa | 2.7V | 08:30:00 | 01:26:56 | 00:00:00 | |
| DO3MHA-11 | 2026-09-02 00:00:45 | 44.70784 | 12.37000 | 90° | 66km/h | 17634m | 4.7m/s | -57.1°C | 4.7% | 0hPa | 2.6V | 00:00:00 | 01:26:53 | 00:00:00 | |
| DO3MHA-11 | 2026-09-02 00:00:36 | 44.70793 | 12.36767 | 91° | 68km/h | 17586m | 5.4m/s | -57.8°C | 4.9% | 0hPa | 2.6V | 00:00:00 | 01:26:43 | 00:00:00 | |
| IW2NTF | 2026-09-02 00:00:35 | 44.70788 | 12.36834 | 97° | 62km/h | 17599m | 4.8m/s | -57.9°C | 4.8% | 0hPa | 2.6V | 08:30:00 | 01:26:46 | 00:00:00 | |
| IW2NTF | 2026-09-02 00:00:28 | 44.70774 | 12.36550 | 84° | 66km/h | 17543m | 4.6m/s | -57.6°C | 4.8% | 0hPa | 2.6V | 08:30:00 | 01:26:34 | 00:00:00 | |
| DO3MHA-11 | 2026-09-02 00:00:27 | 44.70772 | 12.36527 | 84° | 64km/h | 17539m | 3.7m/s | -57.6°C | 4.9% | 0hPa | 2.6V | 00:00:00 | 01:26:33 | 00:00:00 | |
| DO3MHA-11 | 2026-09-02 00:00:17 | 44.70746 | 12.36305 | 84° | 64km/h | 17491m | 5.0m/s | -58.0°C | 5.0% | 0hPa | 2.6V | 00:00:00 | 01:26:23 | 08:30:00 | |
| IW2NTF | 2026-09-02 00:00:17 | 44.70748 | 12.36329 | 84° | 68km/h | 17495m | 3.6m/s | -58°C | 5% | 0hPa | 2.6V | 08:30:00 | 01:26:24 | 00:00:00 | |
| IW2NTF | 2026-09-02 00:00:09 | 44.70728 | 12.36103 | 84° | 57km/h | 17448m | 4.5m/s | -57.9°C | 5% | 0hPa | 2.7V | 08:30:00 | 01:26:14 | 00:00:00 | |
| DO3MHA-11 | 2026-09-02 00:00:01 | 44.70726 | 12.36082 | 84° | 55km/h | 17444m | 4.5m/s | -57.9°C | 5.0% | 0hPa | 2.6V | 00:00:00 | 01:26:13 | 00:00:00 | |
| IW2NTF | 2026-09-01 23:59:54 | 44.70710 | 12.35907 | 80° | 55km/h | 17399m | 5.3m/s | -57.9°C | 5% | 0hPa | 2.6V | 08:30:00 | 01:26:04 | 00:00:00 | |
| DO3MHA-11 | 2026-09-01 23:59:51 | 44.70707 | 12.35888 | 81° | 55km/h | 17395m | 3.6m/s | -57.8°C | 5.0% | 0hPa | 2.7V | 00:00:00 | 01:26:03 | 00:00:00 | |
| IW2NTF | 2026-09-01 23:59:44 | 44.70679 | 12.35719 | 73° | 55km/h | 17350m | 4.4m/s | -57.6°C | 5% | 0hPa | 2.7V | 08:30:00 | 01:25:54 | 00:00:00 | |
| DO3MHA-11 | 2026-09-01 23:59:41 | 44.70675 | 12.35701 | 71° | 55km/h | 17346m | 4.6m/s | -57.5°C | 4.9% | 0hPa | 2.7V | 00:00:00 | 01:25:53 | 00:00:00 | |
| IW2NTF | 2026-09-01 23:59:33 | 44.70634 | 12.35533 | 73° | 55km/h | 17302m | 5.6m/s | -57.3°C | 4.9% | 0hPa | 2.6V | 08:30:00 | 01:25:44 | 00:00:00 | |
| DO3MHA-11 | 2026-09-01 23:59:31 | 44.70630 | 12.35514 | 72° | 51km/h | 17296m | 4.8m/s | -57.3°C | 4.9% | 0hPa | 2.7V | 00:00:00 | 01:25:43 | 00:00:00 | |
| IW2NTF | 2026-09-01 23:59:24 | 44.70588 | 12.35365 | 66° | 51km/h | 17251m | 5.2m/s | -57°C | 4.8% | 0hPa | 2.7V | 08:30:00 | 01:25:34 | 00:00:00 | |
| DO3MHA-11 | 2026-09-01 23:59:21 | 44.70583 | 12.35348 | 67° | 51km/h | 17247m | 4.1m/s | -57.0°C | 4.8% | 0hPa | 2.6V | 00:00:00 | 01:25:33 | 00:00:00 | |
| IW2NTF | 2026-09-01 23:59:14 | 44.70540 | 12.35198 | 60° | 46km/h | 17203m | 4.6m/s | -56.8°C | 4.8% | 0hPa | 2.6V | 08:30:00 | 01:25:24 | 00:00:00 | |
| DO3MHA-11 | 2026-09-01 23:59:11 | 44.70534 | 12.35184 | 60° | 49km/h | 17199m | 4.5m/s | -56.7°C | 4.9% | 0hPa | 2.6V | 00:00:00 | 01:25:23 | 00:00:00 | |
| IW2NTF | 2026-09-01 23:59:04 | 44.70493 | 12.35038 | 70° | 47km/h | 17154m | 5.5m/s | -56.5°C | 4.8% | 0hPa | 2.7V | 08:30:00 | 01:25:14 | 00:00:00 | |
| DO3MHA-11 | 2026-09-01 23:59:01 | 44.70488 | 12.35023 | 69° | 42km/h | 17149m | 4.4m/s | -56.4°C | 4.8% | 0hPa | 2.7V | 00:00:00 | 01:25:13 | 00:00:00 | |
| IW2NTF | 2026-09-01 23:58:57 | 44.70452 | 12.34899 | 72° | 49km/h | 17106m | 5.1m/s | -56.1°C | 4.6% | 0hPa | 2.7V | 08:30:00 | 01:25:04 | 00:00:00 | |
| DO3MHA-11 | 2026-09-01 23:58:51 | 44.70448 | 12.34882 | 72° | 42km/h | 17101m | 5.3m/s | -56.1°C | 4.6% | 0hPa | 2.6V | 00:00:00 | 01:25:03 | 00:00:00 | |
| IW2NTF | 2026-09-01 23:58:47 | 44.70423 | 12.34756 | 76° | 38km/h | 17057m | 4.7m/s | -55.9°C | 4.6% | 0hPa | 2.6V | 08:30:00 | 01:24:54 | 00:00:00 | |
| DO3MHA-11 | 2026-09-01 23:58:41 | 44.70421 | 12.34743 | 76° | 44km/h | 17053m | 4.3m/s | -55.8°C | 4.5% | 0hPa | 2.7V | 00:00:00 | 01:24:53 | 08:30:00 | |
| IW2NTF | 2026-09-01 23:58:37 | 44.70387 | 12.34612 | 70° | 42km/h | 17010m | 5.2m/s | -56.1°C | 4.7% | 0hPa | 2.7V | 08:30:00 | 01:24:44 | 00:00:00 | |
| DO3MHA-11 | 2026-09-01 23:58:31 | 44.70383 | 12.34598 | 74° | 37km/h | 17005m | 4.6m/s | -56.0°C | 4.6% | 0hPa | 2.6V | 00:00:00 | 01:24:43 | 00:00:00 | |
| IW2NTF | 2026-09-01 23:58:27 | 44.70358 | 12.34485 | 72° | 40km/h | 16959m | 5.5m/s | -56°C | 4.6% | 0hPa | 2.6V | 08:30:00 | 01:24:34 | 00:00:00 | |
| DO3MHA-11 | 2026-09-01 23:58:21 | 44.70355 | 12.34471 | 75° | 42km/h | 16955m | 3.9m/s | -56.0°C | 4.6% | 0hPa | 2.6V | 00:00:00 | 01:24:33 | 00:00:00 | |
| IW2NTF | 2026-09-01 23:58:18 | 44.70348 | 12.34345 | 84° | 42km/h | 16906m | 4.1m/s | -56.2°C | 4.6% | 0hPa | 2.6V | 08:30:00 | 01:24:24 | 00:00:00 | |
| IW2NTF | 2026-09-01 23:58:07 | 44.70336 | 12.34198 | 89° | 47km/h | 16852m | 5.3m/s | -56.5°C | 4.6% | 0hPa | 2.6V | 08:30:00 | 01:24:14 | 00:00:00 | |
| DO3MHA-11 | 2026-09-01 23:58:03 | 44.70336 | 12.34215 | 89° | 49km/h | 16857m | 5.3m/s | -56.4°C | 4.6% | 0hPa | 2.6V | 00:00:00 | 01:24:15 | 00:00:00 | |
| IW2NTF | 2026-09-01 23:57:57 | 44.70330 | 12.34025 | 83° | 44km/h | 16800m | 4.3m/s | -57.5°C | 4.9% | 0hPa | 2.6V | 08:30:00 | 01:24:04 | 00:00:00 | |
| DO3MHA-11 | 2026-09-01 23:57:53 | 44.70332 | 12.34041 | 83° | 42km/h | 16805m | 5.1m/s | -57.3°C | 4.8% | 0hPa | 2.7V | 00:00:00 | 01:24:05 | 00:00:00 | |
| IW2NTF | 2026-09-01 23:57:47 | 44.70335 | 12.33875 | 93° | 49km/h | 16749m | 4.5m/s | -58.1°C | 5.2% | 0hPa | 2.7V | 08:30:00 | 01:23:54 | 00:00:00 | |
| DO3MHA-11 | 2026-09-01 23:57:43 | 44.70334 | 12.33892 | 95° | 51km/h | 16754m | 5.6m/s | -58.0°C | 5.3% | 0hPa | 2.6V | 00:00:00 | 01:23:55 | 00:00:00 | |
| IW2NTF | 2026-09-01 23:57:35 | 44.70348 | 12.33697 | 96° | 47km/h | 16696m | 6m/s | -58.2°C | 5.3% | 0hPa | 2.6V | 08:30:00 | 01:23:44 | 00:00:00 | |
| DO3MHA-11 | 2026-09-01 23:57:33 | 44.70347 | 12.33714 | 95° | 51km/h | 16701m | 4.7m/s | -58.2°C | 5.4% | 0hPa | 2.6V | 00:00:00 | 01:23:45 | 00:00:00 | |
| IW2NTF | 2026-09-01 23:57:22 | 44.70359 | 12.33513 | 93° | 51km/h | 16643m | 5.2m/s | -58.4°C | 5.5% | 0hPa | 2.6V | 08:30:00 | 01:23:34 | 00:00:00 | |
| IW2NTF | 2026-09-01 23:57:16 | 44.70372 | 12.33352 | 105° | 47km/h | 16591m | 4.4m/s | -58.2°C | 5.4% | 0hPa | 2.6V | 08:30:00 | 01:23:24 | 00:00:00 | |
| DO3MHA-11 | 2026-09-01 23:57:13 | 44.70369 | 12.33368 | 106° | 47km/h | 16596m | 5.3m/s | -58.2°C | 5.5% | 0hPa | 2.6V | 00:00:00 | 01:23:25 | 00:00:00 | |
| IW2NTF | 2026-09-01 23:57:06 | 44.70384 | 12.33183 | 94° | 46km/h | 16539m | 4.8m/s | -58.1°C | 5.3% | 0hPa | 2.6V | 08:30:00 | 01:23:14 | 00:00:00 | |
| DO3MHA-11 | 2026-09-01 23:57:03 | 44.70383 | 12.33199 | 93° | 53km/h | 16544m | 3.8m/s | -58.1°C | 5.4% | 0hPa | 2.6V | 00:00:00 | 01:23:15 | 08:30:00 | |
| IW2NTF | 2026-09-01 23:56:56 | 44.70393 | 12.32991 | 90° | 57km/h | 16489m | 6m/s | -58°C | 5.2% | 0hPa | 2.6V | 08:30:00 | 01:23:04 | 00:00:00 | |
| DO3MHA-11 | 2026-09-01 23:56:53 | 44.70393 | 12.33011 | 91° | 57km/h | 16494m | 4.1m/s | -57.9°C | 5.2% | 0hPa | 2.7V | 00:00:00 | 01:23:05 | 00:00:00 | |
| IW2NTF | 2026-09-01 23:56:46 | 44.70401 | 12.32787 | 89° | 66km/h | 16439m | 5.9m/s | -58.3°C | 5.3% | 0hPa | 2.7V | 08:30:00 | 01:22:54 | 00:00:00 | |
| DO3MHA-11 | 2026-09-01 23:56:43 | 44.70401 | 12.32809 | 90° | 62km/h | 16444m | 4.3m/s | -58.2°C | 5.3% | 0hPa | 2.7V | 00:00:00 | 01:22:55 | 00:00:00 | |
| IW2NTF | 2026-09-01 23:56:36 | 44.70401 | 12.32567 | 93° | 60km/h | 16390m | 5.5m/s | -58.5°C | 5.4% | 0hPa | 2.7V | 08:30:00 | 01:22:44 | 00:00:00 | |
| DO3MHA-11 | 2026-09-01 23:56:33 | 44.70401 | 12.32588 | 92° | 62km/h | 16395m | 4.6m/s | -58.5°C | 5.3% | 0hPa | 2.6V | 00:00:00 | 01:22:45 | 00:00:00 | |
| IW2NTF | 2026-09-01 23:56:26 | 44.70403 | 12.32345 | 89° | 64km/h | 16341m | 4.2m/s | -58.6°C | 5.4% | 0hPa | 2.6V | 08:30:00 | 01:22:34 | 00:00:00 | |
| IW2NTF | 2026-09-01 23:56:16 | 44.70396 | 12.32113 | 84° | 68km/h | 16292m | 4.1m/s | -58.7°C | 5.4% | 0hPa | 2.6V | 08:30:00 | 01:22:24 | 00:00:00 | |
| IW2NTF | 2026-09-01 23:56:05 | 44.70364 | 12.31886 | 79° | 64km/h | 16242m | 5.3m/s | -58.6°C | 5.4% | 0hPa | 2.7V | 08:30:00 | 01:22:14 | 00:00:00 | |
| DO3MHA-11 | 2026-09-01 23:55:58 | 44.70353 | 12.31796 | 82° | 60km/h | 16224m | 3.2m/s | -58.7°C | 5.5% | 0hPa | 2.7V | 00:00:00 | 01:22:10 | 00:00:00 | |
| IW2NTF | 2026-09-01 23:55:53 | 44.70333 | 12.31664 | 79° | 58km/h | 16196m | 4.5m/s | -59°C | 5.6% | 0hPa | 2.7V | 08:30:00 | 01:22:04 | 00:00:00 | |
| IW2NTF | 2026-09-01 23:55:47 | 44.70302 | 12.31462 | 76° | 60km/h | 16148m | 6.1m/s | -58.9°C | 5.6% | 0hPa | 2.7V | 08:30:00 | 01:21:54 | 00:00:00 | |
| DO3MHA-11 | 2026-09-01 23:55:47 | 44.70318 | 12.31567 | 79° | 58km/h | 16172m | 4.7m/s | -59.1°C | 5.6% | 0hPa | 2.7V | 00:00:00 | 01:21:59 | 00:00:00 | |
| DO3MHA-11 | 2026-09-01 23:55:37 | 44.70281 | 12.31365 | 71° | 58km/h | 16125m | 5.3m/s | -58.6°C | 5.5% | 0hPa | 2.7V | 00:00:00 | 01:21:49 | 00:00:00 | |
| IW2NTF | 2026-09-01 23:55:36 | 44.70259 | 12.31265 | 75° | 60km/h | 16101m | 5.8m/s | -58.5°C | 5.4% | 0hPa | 2.6V | 08:30:00 | 01:21:44 | 00:00:00 | |
| IW2NTF | 2026-09-01 23:55:27 | 44.70220 | 12.31071 | 75° | 57km/h | 16053m | 5.1m/s | -58.1°C | 5.2% | 0hPa | 2.6V | 08:30:00 | 01:21:34 | 00:00:00 | |
| DO3MHA-11 | 2026-09-01 23:55:25 | 44.70231 | 12.31129 | 72° | 57km/h | 16068m | 3.6m/s | -58.2°C | 5.3% | 0hPa | 2.6V | 00:00:00 | 01:21:37 | 00:00:00 | |
| IW2NTF | 2026-09-01 23:55:14 | 44.70183 | 12.30884 | 75° | 53km/h | 16005m | 5.7m/s | -58.4°C | 5.3% | 0hPa | 2.6V | 08:30:00 | 01:21:24 | 00:00:00 | |
| IW2NTF | 2026-09-01 23:55:07 | 44.70173 | 12.30699 | 77° | 53km/h | 15959m | 5.2m/s | -58.4°C | 5.4% | 0hPa | 2.6V | 08:30:00 | 01:21:14 | 00:00:00 | |
| IW2NTF | 2026-09-01 23:54:55 | 44.70139 | 12.30509 | 82° | 57km/h | 15910m | 4.5m/s | -58.3°C | 5.4% | 0hPa | 2.6V | 08:30:00 | 01:21:04 | 00:00:00 | |
| IW2NTF | 2026-09-01 23:54:47 | 44.70104 | 12.30307 | 74° | 60km/h | 15863m | 5.4m/s | -58.2°C | 5.4% | 0hPa | 2.6V | 08:30:00 | 01:20:54 | 00:00:00 | |
| DO3MHA-11 | 2026-09-01 23:54:46 | 44.70122 | 12.30387 | 73° | 60km/h | 15883m | 5.6m/s | -58.2°C | 5.3% | 0hPa | 2.6V | 00:00:00 | 01:20:58 | 00:00:00 | |
| DO3MHA-11 | 2026-09-01 23:54:36 | 44.70081 | 12.30180 | 76° | 64km/h | 15836m | 3.9m/s | -58.0°C | 5.4% | 0hPa | 2.6V | 00:00:00 | 01:20:48 | 00:00:00 | |
| IW2NTF | 2026-09-01 23:54:35 | 44.70063 | 12.30095 | 71° | 64km/h | 15818m | 5.1m/s | -58°C | 5.4% | 0hPa | 2.6V | 08:30:00 | 01:20:44 | 00:00:00 | |
| IW2NTF | 2026-09-01 23:54:27 | 44.70003 | 12.29883 | 71° | 62km/h | 15774m | 5.1m/s | -57.7°C | 5.3% | 0hPa | 2.6V | 08:30:00 | 01:20:34 | 00:00:00 | |
| DO3MHA-11 | 2026-09-01 23:54:26 | 44.70027 | 12.29964 | 67° | 64km/h | 15791m | 4.1m/s | -57.8°C | 5.3% | 0hPa | 2.6V | 00:00:00 | 01:20:38 | 00:00:00 | |
| DO3MHA-11 | 2026-09-01 23:54:16 | 44.69982 | 12.29749 | 79° | 64km/h | 15745m | 4.5m/s | -57.4°C | 5.3% | 0hPa | 2.6V | 00:00:00 | 01:20:28 | 00:00:00 | |
| IW2NTF | 2026-09-01 23:54:14 | 44.69968 | 12.29657 | 76° | 66km/h | 15725m | 5.6m/s | -57.2°C | 5.3% | 0hPa | 2.6V | 08:30:00 | 01:20:24 | 00:00:00 | |
| IW2NTF | 2026-09-01 23:54:07 | 44.69925 | 12.29443 | 79° | 62km/h | 15677m | 4.7m/s | -57.4°C | 5.3% | 0hPa | 2.6V | 08:30:00 | 01:20:14 | 00:00:00 | |
| DO3MHA-11 | 2026-09-01 23:54:06 | 44.69940 | 12.29532 | 74° | 62km/h | 15697m | 4.1m/s | 0°C | 0% | 0hPa | 2.6V | 00:00:00 | 01:20:18 | 00:00:00 | |
| DO3MHA-11 | 2026-09-01 23:53:56 | 44.69910 | 12.29317 | 82° | 62km/h | 15647m | 5.7m/s | 0°C | 0% | 0hPa | 2.6V | 00:00:00 | 01:20:08 | 00:00:00 | |
| IW2NTF | 2026-09-01 23:53:54 | 44.69903 | 12.29235 | 83° | 60km/h | 15628m | 4.8m/s | -57°C | 5.2% | 0hPa | 2.6V | 08:30:00 | 01:20:04 | 00:00:00 | |
| IW2NTF | 2026-09-01 23:53:47 | 44.69882 | 12.29011 | 80° | 62km/h | 15581m | 5.4m/s | -56.7°C | 5.1% | 0hPa | 2.6V | 08:30:00 | 01:19:54 | 00:00:00 | |
| DO3MHA-11 | 2026-09-01 23:53:46 | 44.69891 | 12.29099 | 83° | 62km/h | 15601m | 5.2m/s | 0°C | 0% | 0hPa | 2.6V | 00:00:00 | 01:19:58 | 00:00:00 | |
| DO3MHA-11 | 2026-09-01 23:53:36 | 44.69864 | 12.28880 | 81° | 66km/h | 15553m | 4.0m/s | 0°C | 0% | 0hPa | 2.6V | 00:00:00 | 01:19:48 | 00:00:00 | |
| IW2NTF | 2026-09-01 23:53:32 | 44.69854 | 12.28789 | 81° | 68km/h | 15534m | 3.9m/s | -56.7°C | 5.2% | 0hPa | 2.6V | 08:30:00 | 01:19:44 | 00:00:00 | |
| DO3MHA-11 | 2026-09-01 23:53:26 | 44.69836 | 12.28649 | 79° | 64km/h | 15509m | 4.1m/s | 0°C | 0% | 0hPa | 2.6V | 00:00:00 | 01:19:38 | 00:00:00 | |
| IW2NTF | 2026-09-01 23:53:24 | 44.69823 | 12.28560 | 80° | 66km/h | 15490m | 4.3m/s | -56.8°C | 5.3% | 0hPa | 2.6V | 08:30:00 | 01:19:34 | 00:00:00 | |
| IW2NTF | 2026-09-01 23:53:17 | 44.69804 | 12.28315 | 83° | 68km/h | 15445m | 2.9m/s | -56.5°C | 5.1% | 0hPa | 2.6V | 08:30:00 | 01:19:24 | 00:00:00 | |
| IW2NTF | 2026-09-01 23:53:03 | 44.69796 | 12.28074 | 83° | 66km/h | 15399m | 5.3m/s | -56.9°C | 5.2% | 0hPa | 2.6V | 08:30:00 | 01:19:14 | 00:00:00 | |
| IW2NTF | 2026-09-01 23:52:55 | 44.69785 | 12.27844 | 93° | 71km/h | 15351m | 5.3m/s | -57.3°C | 5.4% | 0hPa | 2.6V | 08:30:00 | 01:19:04 | 00:00:00 | |
| IW2NTF | 2026-09-01 23:52:44 | 44.69780 | 12.27586 | 87° | 71km/h | 15304m | 3.6m/s | -57.9°C | 5.8% | 0hPa | 2.6V | 08:30:00 | 01:18:54 | 00:00:00 | |
| IW2NTF | 2026-09-01 23:52:34 | 44.69779 | 12.27306 | 89° | 80km/h | 15257m | 5m/s | -57.8°C | 5.8% | 0hPa | 2.6V | 08:30:00 | 01:18:44 | 00:00:00 | |
| IW2NTF | 2026-09-01 23:52:24 | 44.69773 | 12.27025 | 87° | 75km/h | 15213m | 4.7m/s | -57.5°C | 5.7% | 0hPa | 2.6V | 08:30:00 | 01:18:34 | 00:00:00 | |
| IW2NTF | 2026-09-01 23:52:14 | 44.69765 | 12.26770 | 85° | 75km/h | 15165m | 4.7m/s | -57.3°C | 5.5% | 0hPa | 2.6V | 08:30:00 | 01:18:24 | 00:00:00 | |
| IW2NTF | 2026-09-01 23:52:03 | 44.69756 | 12.26505 | 86° | 69km/h | 15119m | 5.7m/s | -57.5°C | 5.7% | 0hPa | 2.6V | 08:30:00 | 01:18:14 | 00:00:00 | |
| IW2NTF | 2026-09-01 23:51:53 | 44.69751 | 12.26240 | 86° | 77km/h | 15073m | 3.8m/s | -58°C | 5.7% | 0hPa | 2.8V | 08:30:00 | 01:18:04 | 00:00:00 | |
| IW2NTF | 2026-09-01 23:51:43 | 44.69730 | 12.25971 | 80° | 75km/h | 15026m | 5.5m/s | -58.1°C | 5.9% | 0hPa | 2.8V | 08:30:00 | 01:17:54 | 00:00:00 | |
| IW2NTF | 2026-09-01 23:51:33 | 44.69706 | 12.25702 | 81° | 75km/h | 14980m | 4.6m/s | -58.2°C | 5.9% | 0hPa | 2.6V | 08:30:00 | 01:17:44 | 00:00:00 | |
| IW2NTF | 2026-09-01 23:51:23 | 44.69669 | 12.25445 | 75° | 73km/h | 14936m | 3.6m/s | -58.1°C | 5.8% | 0hPa | 2.6V | 08:30:00 | 01:17:34 | 00:00:00 | |
| IW2NTF | 2026-09-01 23:51:13 | 44.69627 | 12.25185 | 79° | 69km/h | 14889m | 4m/s | -58.1°C | 5.8% | 0hPa | 2.7V | 08:30:00 | 01:17:24 | 00:00:00 | |
| IW2NTF | 2026-09-01 23:51:03 | 44.69579 | 12.24934 | 74° | 71km/h | 14845m | 4m/s | -58°C | 5.9% | 0hPa | 2.8V | 08:30:00 | 01:17:14 | 00:00:00 | |
| IW2NTF | 2026-09-01 23:50:53 | 44.69530 | 12.24686 | 71° | 80km/h | 14797m | 5.2m/s | -58°C | 5.8% | 0hPa | 2.6V | 08:30:00 | 01:17:04 | 00:00:00 | |
| IW2NTF | 2026-09-01 23:50:43 | 44.69477 | 12.24441 | 73° | 68km/h | 14751m | 5.2m/s | -57.8°C | 6% | 0hPa | 2.6V | 08:30:00 | 01:16:54 | 00:00:00 | |
| IW2NTF | 2026-09-01 23:50:34 | 44.69420 | 12.24206 | 70° | 69km/h | 14706m | 3.7m/s | -57.5°C | 5.9% | 0hPa | 2.8V | 08:30:00 | 01:16:44 | 00:00:00 | |
| IW2NTF | 2026-09-01 23:50:23 | 44.69365 | 12.23975 | 73° | 69km/h | 14659m | 3.4m/s | -57.1°C | 5.8% | 0hPa | 2.6V | 08:30:00 | 01:16:34 | 00:00:00 | |
| IW2NTF | 2026-09-01 23:50:13 | 44.69325 | 12.23746 | 81° | 68km/h | 14609m | 4.6m/s | -56.9°C | 5.8% | 0hPa | 2.8V | 08:30:00 | 01:16:24 | 00:00:00 | |
| IW2NTF | 2026-09-01 23:50:03 | 44.69300 | 12.23499 | 85° | 71km/h | 14561m | 4.6m/s | -56.7°C | 5.8% | 0hPa | 2.7V | 08:30:00 | 01:16:14 | 00:00:00 | |
| IW2NTF | 2026-09-01 23:49:53 | 44.69286 | 12.23250 | 86° | 69km/h | 14512m | 5.9m/s | -56.5°C | 5.7% | 0hPa | 2.6V | 08:30:00 | 01:16:04 | 00:00:00 | |
| IW2NTF | 2026-09-01 23:49:44 | 44.69283 | 12.23004 | 89° | 71km/h | 14466m | 5.3m/s | -56.8°C | 5.9% | 0hPa | 2.8V | 08:30:00 | 01:15:54 | 00:00:00 | |
| IW2NTF | 2026-09-01 23:49:33 | 44.69281 | 12.22728 | 91° | 78km/h | 14418m | 4.5m/s | -56.9°C | 6% | 0hPa | 2.7V | 08:30:00 | 01:15:44 | 00:00:00 | |
| IW2NTF | 2026-09-01 23:49:23 | 44.69293 | 12.22459 | 91° | 77km/h | 14373m | 4.2m/s | -57.1°C | 6.1% | 0hPa | 2.8V | 08:30:00 | 01:15:34 | 00:00:00 | |
| IW2NTF | 2026-09-01 23:49:13 | 44.69285 | 12.22181 | 86° | 77km/h | 14327m | 4.2m/s | -57°C | 6.2% | 0hPa | 2.6V | 08:30:00 | 01:15:24 | 00:00:00 | |
| IW2NTF | 2026-09-01 23:49:03 | 44.69270 | 12.21899 | 80° | 78km/h | 14281m | 4.4m/s | -57.1°C | 6.3% | 0hPa | 2.7V | 08:30:00 | 01:15:14 | 00:00:00 | |
| IW2NTF | 2026-09-01 23:48:53 | 44.69245 | 12.21618 | 85° | 86km/h | 14235m | 4.8m/s | -57.2°C | 6.5% | 0hPa | 2.8V | 08:30:00 | 01:15:04 | 00:00:00 | |
| IW2NTF | 2026-09-01 23:48:43 | 44.69213 | 12.21330 | 82° | 80km/h | 14189m | 3.9m/s | -57°C | 6.6% | 0hPa | 2.7V | 08:30:00 | 01:14:54 | 00:00:00 | |
| IW2NTF | 2026-09-01 23:48:37 | 44.69175 | 12.20979 | 79° | 88km/h | 14135m | 4.1m/s | -57.1°C | 6.7% | 0hPa | 2.6V | 08:30:00 | 01:14:42 | 00:00:00 | |
| IW2NTF | 2026-09-01 23:48:21 | 44.69147 | 12.20677 | 83° | 88km/h | 14090m | 5m/s | -56.9°C | 6.7% | 0hPa | 2.7V | 08:30:00 | 01:14:32 | 00:00:00 | |
| IW2NTF | 2026-09-01 23:48:15 | 44.69120 | 12.20367 | 83° | 89km/h | 14045m | 4.2m/s | -56.8°C | 6.7% | 0hPa | 2.8V | 08:30:00 | 01:14:22 | 00:00:00 | |
| IW2NTF | 2026-09-01 23:48:01 | 44.69086 | 12.20036 | 81° | 82km/h | 13994m | 4.3m/s | -56.9°C | 6.7% | 0hPa | 2.7V | 08:30:00 | 01:14:11 | 00:00:00 | |
| IW2NTF | 2026-09-01 23:47:55 | 44.69048 | 12.19725 | 80° | 88km/h | 13951m | 4.8m/s | -57.1°C | 6.9% | 0hPa | 2.7V | 08:30:00 | 01:14:01 | 00:00:00 | |
| IW2NTF | 2026-09-01 23:47:41 | 44.69014 | 12.19413 | 78° | 91km/h | 13910m | 4m/s | -57°C | 6.9% | 0hPa | 2.7V | 08:30:00 | 01:13:51 | 00:00:00 | |
| IW2NTF | 2026-09-01 23:47:34 | 44.68968 | 12.19103 | 77° | 82km/h | 13868m | 4.1m/s | -56.7°C | 6.6% | 0hPa | 2.7V | 08:30:00 | 01:13:41 | 00:00:00 | |
| IW2NTF | 2026-09-01 23:47:17 | 44.68915 | 12.18742 | 79° | 88km/h | 13817m | 4.6m/s | -56.4°C | 6.5% | 0hPa | 2.7V | 08:30:00 | 01:13:29 | 00:00:00 | |
| IW2NTF | 2026-09-01 23:47:12 | 44.68859 | 12.18393 | 77° | 80km/h | 13765m | 4.5m/s | -57°C | 7% | 0hPa | 2.7V | 08:30:00 | 01:13:17 | 00:00:00 | |
| IW2NTF | 2026-09-01 23:46:55 | 44.68814 | 12.18112 | 76° | 77km/h | 13723m | 4.6m/s | -56.7°C | 7% | 0hPa | 2.8V | 08:30:00 | 01:13:07 | 00:00:00 | |
| IW2NTF | 2026-09-01 23:46:49 | 44.68782 | 12.17841 | 80° | 77km/h | 13680m | 3.8m/s | -56.5°C | 7.3% | 0hPa | 2.7V | 08:30:00 | 01:12:57 | 00:00:00 | |
| IW2NTF | 2026-09-01 23:46:38 | 44.68747 | 12.17567 | 78° | 78km/h | 13638m | 4.1m/s | -56.8°C | 7.5% | 0hPa | 2.7V | 08:30:00 | 01:12:47 | 00:00:00 | |
| IW2NTF | 2026-09-01 23:46:28 | 44.68707 | 12.17295 | 81° | 84km/h | 13595m | 4.3m/s | -56.8°C | 8% | 0hPa | 2.8V | 08:30:00 | 01:12:37 | 00:00:00 | |
| IW2NTF | 2026-09-01 23:46:18 | 44.68676 | 12.17004 | 83° | 80km/h | 13554m | 3.5m/s | -56.9°C | 8.3% | 0hPa | 2.7V | 08:30:00 | 01:12:27 | 00:00:00 | |
| IW2NTF | 2026-09-01 23:46:08 | 44.68647 | 12.16708 | 83° | 88km/h | 13512m | 3.7m/s | -57.3°C | 8.8% | 0hPa | 2.7V | 08:30:00 | 01:12:17 | 00:00:00 | |
| IW2NTF | 2026-09-01 23:45:57 | 44.68629 | 12.16384 | 85° | 93km/h | 13469m | 3.9m/s | -57.7°C | 9.3% | 0hPa | 2.8V | 08:30:00 | 01:12:07 | 00:00:00 | |
| IW2NTF | 2026-09-01 23:45:47 | 44.68615 | 12.16039 | 85° | 100km/h | 13428m | 3.6m/s | -58.1°C | 9.9% | 0hPa | 2.7V | 08:30:00 | 01:11:57 | 00:00:00 | |
| IW2NTF | 2026-09-01 23:45:37 | 44.68591 | 12.15678 | 83° | 108km/h | 13388m | 3.6m/s | -58.3°C | 10.3% | 0hPa | 2.7V | 08:30:00 | 01:11:47 | 00:00:00 | |
| IW2NTF | 2026-09-01 23:45:27 | 44.68555 | 12.15305 | 80° | 104km/h | 13347m | 3.5m/s | -58.3°C | 10.5% | 0hPa | 2.8V | 08:30:00 | 01:11:37 | 00:00:00 | |
| IW2NTF | 2026-09-01 23:45:17 | 44.68521 | 12.14952 | 83° | 99km/h | 13305m | 4.7m/s | -58.1°C | 10.7% | 0hPa | 2.8V | 08:30:00 | 01:11:27 | 00:00:00 | |
| IW2NTF | 2026-09-01 23:45:11 | 44.68493 | 12.14611 | 85° | 93km/h | 13262m | 5m/s | -57.8°C | 10.7% | 0hPa | 2.7V | 08:30:00 | 01:11:17 | 00:00:00 | |
| IW2NTF | 2026-09-01 23:45:01 | 44.68477 | 12.14277 | 84° | 93km/h | 13220m | 4.6m/s | -57.4°C | 10.9% | 0hPa | 2.7V | 08:30:00 | 01:11:07 | 00:00:00 | |
| IW2NTF | 2026-09-01 23:44:51 | 44.68460 | 12.13956 | 86° | 88km/h | 13176m | 3.5m/s | -57.6°C | 11.4% | 0hPa | 2.7V | 08:30:00 | 01:10:57 | 00:00:00 | |
| IW2NTF | 2026-09-01 23:44:40 | 44.68452 | 12.13644 | 91° | 80km/h | 13132m | 4.6m/s | -57.7°C | 12.3% | 0hPa | 2.8V | 08:30:00 | 01:10:47 | 00:00:00 | |
| IW2NTF | 2026-09-01 23:44:30 | 44.68457 | 12.13334 | 89° | 88km/h | 13087m | 4.2m/s | -57.6°C | 13% | 0hPa | 2.7V | 08:30:00 | 01:10:37 | 00:00:00 | |
| IW2NTF | 2026-09-01 23:44:19 | 44.68450 | 12.12978 | 85° | 88km/h | 13033m | 4.5m/s | -57.5°C | 13.4% | 0hPa | 2.7V | 08:30:00 | 01:10:25 | 00:00:00 | |
| IW2NTF | 2026-09-01 23:44:08 | 44.68427 | 12.12662 | 84° | 89km/h | 12990m | 4.9m/s | -57.5°C | 14% | 0hPa | 2.7V | 08:30:00 | 01:10:15 | 00:00:00 | |
| IW2NTF | 2026-09-01 23:43:58 | 44.68398 | 12.12336 | 81° | 97km/h | 12948m | 3.7m/s | -57.2°C | 14.9% | 0hPa | 2.7V | 08:30:00 | 01:10:05 | 00:00:00 | |
| IW2NTF | 2026-09-01 23:43:49 | 44.68354 | 12.11999 | 76° | 97km/h | 12901m | 5.9m/s | -57.1°C | 15.4% | 0hPa | 2.8V | 08:30:00 | 01:09:55 | 00:00:00 | |
| IW2NTF | 2026-09-01 23:43:39 | 44.68299 | 12.11653 | 78° | 99km/h | 12853m | 4m/s | -56.8°C | 16.7% | 0hPa | 2.7V | 08:30:00 | 01:09:45 | 00:00:00 | |
| IW2NTF | 2026-09-01 23:43:28 | 44.68254 | 12.11308 | 78° | 102km/h | 12807m | 4.3m/s | -56.8°C | 18% | 0hPa | 2.8V | 08:30:00 | 01:09:35 | 00:00:00 | |
| IW2NTF | 2026-09-01 23:43:19 | 44.68209 | 12.10955 | 79° | 99km/h | 12759m | 4.4m/s | -56.6°C | 18.8% | 0hPa | 2.7V | 08:30:00 | 01:09:25 | 00:00:00 | |
| IW2NTF | 2026-09-01 23:43:07 | 44.68141 | 12.10550 | 77° | 97km/h | 12705m | 4.9m/s | -56.8°C | 22.8% | 0hPa | 2.8V | 08:30:00 | 01:09:13 | 00:00:00 | |
| IW2NTF | 2026-09-01 23:42:50 | 44.68076 | 12.10156 | 77° | 100km/h | 12650m | 5m/s | -57.3°C | 25% | 0hPa | 2.8V | 08:30:00 | 01:09:01 | 00:00:00 | |
| IW2NTF | 2026-09-01 23:42:41 | 44.68032 | 12.09812 | 80° | 91km/h | 12604m | 3.2m/s | -57.4°C | 29.5% | 0hPa | 2.7V | 08:30:00 | 01:08:51 | 00:00:00 | |
| IW2NTF | 2026-09-01 23:42:30 | 44.67990 | 12.09466 | 78° | 102km/h | 12559m | 5.2m/s | -57.8°C | 32.2% | 0hPa | 2.8V | 08:30:00 | 01:08:41 | 00:00:00 | |
| IW2NTF | 2026-09-01 23:42:21 | 44.67946 | 12.09137 | 80° | 97km/h | 12514m | 3.6m/s | -58°C | 35.9% | 0hPa | 2.8V | 08:30:00 | 01:08:31 | 00:00:00 | |
| IW2NTF | 2026-09-01 23:42:11 | 44.67897 | 12.08796 | 78° | 97km/h | 12470m | 4.3m/s | -58.7°C | 39.9% | 0hPa | 2.7V | 08:30:00 | 01:08:21 | 00:00:00 | |
| IW2NTF | 2026-09-01 23:42:00 | 44.67851 | 12.08462 | 77° | 97km/h | 12426m | 4.3m/s | -58.8°C | 41.1% | 0hPa | 2.8V | 08:30:00 | 01:08:11 | 00:00:00 | |
| IW2NTF | 2026-09-01 23:41:51 | 44.67811 | 12.08139 | 79° | 91km/h | 12383m | 4.7m/s | -58.8°C | 42.1% | 0hPa | 2.7V | 08:30:00 | 01:08:01 | 00:00:00 | |
| IW2NTF | 2026-09-01 23:41:45 | 44.67760 | 12.07821 | 77° | 91km/h | 12340m | 3.4m/s | -58.5°C | 41.2% | 0hPa | 2.8V | 08:30:00 | 01:07:51 | 00:00:00 | |
| IW2NTF | 2026-09-01 23:41:28 | 44.67696 | 12.07407 | 80° | 91km/h | 12282m | 5.1m/s | -58.2°C | 40.1% | 0hPa | 2.8V | 08:30:00 | 01:07:38 | 00:00:00 | |
| IW2NTF | 2026-09-01 23:41:18 | 44.67657 | 12.07098 | 79° | 84km/h | 12238m | 5.2m/s | -58°C | 40.4% | 0hPa | 2.7V | 08:30:00 | 01:07:28 | 00:00:00 | |
| IW2NTF | 2026-09-01 23:41:08 | 44.67616 | 12.06796 | 78° | 88km/h | 12195m | 4.4m/s | -57.8°C | 41.2% | 0hPa | 2.8V | 08:30:00 | 01:07:18 | 00:00:00 | |
| IW2NTF | 2026-09-01 23:40:58 | 44.67570 | 12.06501 | 78° | 82km/h | 12152m | 4.9m/s | -57.6°C | 41% | 0hPa | 2.7V | 08:30:00 | 01:07:08 | 00:00:00 | |
| IW2NTF | 2026-09-01 23:40:47 | 44.67535 | 12.06207 | 80° | 84km/h | 12108m | 3.9m/s | -57.5°C | 40.8% | 0hPa | 2.7V | 08:30:00 | 01:06:58 | 00:00:00 | |
| IW2NTF | 2026-09-01 23:40:38 | 44.67501 | 12.05912 | 84° | 84km/h | 12065m | 4.2m/s | -57.4°C | 42.5% | 0hPa | 2.7V | 08:30:00 | 01:06:48 | 00:00:00 | |
| IW2NTF | 2026-09-01 23:40:27 | 44.67474 | 12.05615 | 86° | 84km/h | 12022m | 5m/s | -57.2°C | 40.4% | 0hPa | 2.7V | 08:30:00 | 01:06:38 | 00:00:00 | |
| IW2NTF | 2026-09-01 23:40:18 | 44.67454 | 12.05343 | 80° | 75km/h | 11979m | 3.7m/s | -56.9°C | 39.8% | 0hPa | 2.8V | 08:30:00 | 01:06:28 | 00:00:00 | |
| IW2NTF | 2026-09-01 23:40:11 | 44.67432 | 12.05074 | 85° | 75km/h | 11936m | 4.9m/s | -56.6°C | 38.9% | 0hPa | 2.7V | 08:30:00 | 01:06:18 | 00:00:00 | |
| IW2NTF | 2026-09-01 23:39:57 | 44.67416 | 12.04819 | 86° | 73km/h | 11891m | 5.3m/s | -56.4°C | 38% | 0hPa | 2.8V | 08:30:00 | 01:06:08 | 00:00:00 | |
| IW2NTF | 2026-09-01 23:39:47 | 44.67405 | 12.04577 | 87° | 66km/h | 11847m | 4.4m/s | -56°C | 36.7% | 0hPa | 2.8V | 08:30:00 | 01:05:58 | 00:00:00 | |
| IW2NTF | 2026-09-01 23:39:41 | 44.67395 | 12.04340 | 87° | 71km/h | 11804m | 5m/s | -55.7°C | 35.3% | 0hPa | 2.7V | 08:30:00 | 01:05:48 | 00:00:00 | |
| IW2NTF | 2026-09-01 23:39:30 | 44.67382 | 12.04036 | 84° | 71km/h | 11753m | 4.7m/s | -55.5°C | 34.8% | 0hPa | 2.7V | 08:30:00 | 01:05:36 | 00:00:00 | |
| IW2NTF | 2026-09-01 23:39:16 | 44.67360 | 12.03776 | 84° | 71km/h | 11710m | 4.5m/s | -55.1°C | 33.7% | 0hPa | 2.8V | 08:30:00 | 01:05:26 | 00:00:00 | |
| IW2NTF | 2026-09-01 23:39:07 | 44.67337 | 12.03528 | 80° | 75km/h | 11666m | 4.8m/s | -54.8°C | 32.1% | 0hPa | 2.8V | 08:30:00 | 01:05:16 | 00:00:00 | |
| IW2NTF | 2026-09-01 23:38:56 | 44.67308 | 12.03276 | 80° | 71km/h | 11624m | 4.7m/s | -54.5°C | 29.7% | 0hPa | 2.8V | 08:30:00 | 01:05:06 | 00:00:00 | |
| IW2NTF | 2026-09-01 23:38:46 | 44.67274 | 12.03026 | 79° | 73km/h | 11581m | 5.3m/s | -54.1°C | 28.4% | 0hPa | 2.7V | 08:30:00 | 01:04:56 | 00:00:00 | |
| IW2NTF | 2026-09-01 23:38:37 | 44.67242 | 12.02761 | 78° | 73km/h | 11537m | 4.1m/s | -53.8°C | 27.8% | 0hPa | 2.7V | 08:30:00 | 01:04:46 | 00:00:00 | |
| IW2NTF | 2026-09-01 23:38:27 | 44.67208 | 12.02491 | 81° | 80km/h | 11490m | 5.2m/s | -53.6°C | 28.1% | 0hPa | 2.8V | 08:30:00 | 01:04:36 | 00:00:00 | |
| IW2NTF | 2026-09-01 23:38:16 | 44.67171 | 12.02227 | 75° | 80km/h | 11446m | 3.8m/s | -53.2°C | 28.5% | 0hPa | 2.8V | 08:30:00 | 01:04:26 | 00:00:00 | |
| IW2NTF | 2026-09-01 23:38:06 | 44.67116 | 12.01956 | 74° | 69km/h | 11401m | 5.2m/s | -52.9°C | 28.4% | 0hPa | 2.8V | 08:30:00 | 01:04:16 | 00:00:00 | |
| IW2NTF | 2026-09-01 23:37:56 | 44.67073 | 12.01694 | 77° | 77km/h | 11357m | 3.7m/s | -52.6°C | 28.2% | 0hPa | 2.8V | 08:30:00 | 01:04:06 | 00:00:00 | |
| IW2NTF | 2026-09-01 23:37:46 | 44.67031 | 12.01432 | 78° | 75km/h | 11313m | 5.1m/s | -52.3°C | 27.2% | 0hPa | 2.7V | 08:30:00 | 01:03:56 | 00:00:00 | |
| IW2NTF | 2026-09-01 23:37:36 | 44.66995 | 12.01179 | 77° | 73km/h | 11270m | 3.5m/s | -52°C | 26.4% | 0hPa | 2.8V | 08:30:00 | 01:03:46 | 00:00:00 | |
| IW2NTF | 2026-09-01 23:37:26 | 44.66956 | 12.00931 | 76° | 69km/h | 11225m | 4.5m/s | -51.7°C | 25.8% | 0hPa | 2.7V | 08:30:00 | 01:03:36 | 00:00:00 | |
| IW2NTF | 2026-09-01 23:37:16 | 44.66921 | 12.00680 | 82° | 77km/h | 11180m | 4.6m/s | -51.4°C | 25.6% | 0hPa | 2.8V | 08:30:00 | 01:03:26 | 00:00:00 | |
| IW2NTF | 2026-09-01 23:37:09 | 44.66891 | 12.00427 | 78° | 69km/h | 11135m | 4.5m/s | -51.1°C | 24.9% | 0hPa | 2.7V | 08:30:00 | 01:03:16 | 00:00:00 | |
| IW2NTF | 2026-09-01 23:36:56 | 44.66861 | 12.00182 | 79° | 71km/h | 11091m | 4.9m/s | -50.7°C | 24% | 0hPa | 2.8V | 08:30:00 | 01:03:06 | 00:00:00 | |
| IW2NTF | 2026-09-01 23:36:46 | 44.66826 | 11.99931 | 81° | 69km/h | 11049m | 3.2m/s | -50.3°C | 23.3% | 0hPa | 2.7V | 08:30:00 | 01:02:56 | 00:00:00 | |
| IW2NTF | 2026-09-01 23:36:36 | 44.66795 | 11.99686 | 81° | 69km/h | 11004m | 4.3m/s | -49.9°C | 22.8% | 0hPa | 2.7V | 08:30:00 | 01:02:46 | 00:00:00 | |
| IW2NTF | 2026-09-01 23:36:26 | 44.66765 | 11.99440 | 81° | 68km/h | 10958m | 4m/s | -49.5°C | 21.9% | 0hPa | 2.8V | 08:30:00 | 01:02:36 | 00:00:00 | |
| IW2NTF | 2026-09-01 23:36:16 | 44.66736 | 11.99191 | 77° | 75km/h | 10913m | 3.4m/s | -49.1°C | 21.6% | 0hPa | 2.8V | 08:30:00 | 01:02:26 | 00:00:00 | |
| IW2NTF | 2026-09-01 23:36:05 | 44.66712 | 11.98950 | 81° | 71km/h | 10869m | 4.1m/s | -48.7°C | 20.3% | 0hPa | 2.8V | 08:30:00 | 01:02:16 | 00:00:00 | |
| IW2NTF | 2026-09-01 23:35:56 | 44.66678 | 11.98695 | 81° | 69km/h | 10823m | 4.8m/s | -48.3°C | 19.4% | 0hPa | 2.8V | 08:30:00 | 01:02:06 | 00:00:00 | |
| IW2NTF | 2026-09-01 23:35:46 | 44.66635 | 11.98393 | 80° | 77km/h | 10770m | 5.3m/s | -47.9°C | 18.7% | 0hPa | 2.8V | 08:30:00 | 01:01:54 | 00:00:00 | |
| IW2NTF | 2026-09-01 23:35:37 | 44.66599 | 11.98155 | 76° | 68km/h | 10726m | 4.3m/s | -47.5°C | 17.5% | 0hPa | 2.8V | 08:30:00 | 01:01:44 | 00:00:00 | |
| IW2NTF | 2026-09-01 23:35:30 | 44.66559 | 11.97899 | 77° | 69km/h | 10683m | 4.7m/s | -47.2°C | 17.2% | 0hPa | 2.8V | 08:30:00 | 01:01:34 | 00:00:00 | |
| IW2NTF | 2026-09-01 23:35:16 | 44.66518 | 11.97643 | 75° | 71km/h | 10640m | 3.9m/s | -46.9°C | 17.3% | 0hPa | 2.9V | 08:30:00 | 01:01:24 | 00:00:00 | |
| IW2NTF | 2026-09-01 23:35:05 | 44.66478 | 11.97398 | 77° | 73km/h | 10596m | 4.5m/s | -46.6°C | 17% | 0hPa | 2.9V | 08:30:00 | 01:01:14 | 00:00:00 | |
| IW2NTF | 2026-09-01 23:34:56 | 44.66439 | 11.97150 | 79° | 68km/h | 10553m | 4.8m/s | -46.2°C | 16.7% | 0hPa | 2.8V | 08:30:00 | 01:01:04 | 00:00:00 | |
| IW2NTF | 2026-09-01 23:34:46 | 44.66406 | 11.96886 | 81° | 78km/h | 10508m | 3.2m/s | -45.9°C | 17.5% | 0hPa | 2.9V | 08:30:00 | 01:00:54 | 00:00:00 | |
| IW2NTF | 2026-09-01 23:34:36 | 44.66374 | 11.96625 | 81° | 78km/h | 10464m | 4.3m/s | -45.6°C | 17.9% | 0hPa | 2.9V | 08:30:00 | 01:00:44 | 00:00:00 | |
| IW2NTF | 2026-09-01 23:34:26 | 44.66344 | 11.96345 | 80° | 77km/h | 10421m | 3.6m/s | -45.2°C | 17.6% | 0hPa | 2.8V | 08:30:00 | 01:00:34 | 00:00:00 | |
| IW2NTF | 2026-09-01 23:34:15 | 44.66312 | 11.96068 | 80° | 77km/h | 10377m | 3.5m/s | -44.8°C | 18.2% | 0hPa | 2.8V | 08:30:00 | 01:00:24 | 00:00:00 | |
| IW2NTF | 2026-09-01 23:34:08 | 44.66281 | 11.95790 | 84° | 84km/h | 10334m | 4.2m/s | -44.6°C | 21.1% | 0hPa | 2.8V | 08:30:00 | 01:00:14 | 00:00:00 | |
| IW2NTF | 2026-09-01 23:33:55 | 44.66254 | 11.95495 | 81° | 84km/h | 10292m | 4.2m/s | -44.3°C | 23.9% | 0hPa | 2.9V | 08:30:00 | 01:00:04 | 00:00:00 | |
| IW2NTF | 2026-09-01 23:33:44 | 44.66219 | 11.95201 | 77° | 84km/h | 10248m | 5.1m/s | -44°C | 24.9% | 0hPa | 2.9V | 08:30:00 | 00:59:54 | 00:00:00 | |
| IW2NTF | 2026-09-01 23:33:38 | 44.66188 | 11.94915 | 79° | 84km/h | 10207m | 3.3m/s | -43.6°C | 25.7% | 0hPa | 2.9V | 08:30:00 | 00:59:44 | 00:00:00 | |
| IW2NTF | 2026-09-01 23:33:22 | 44.66157 | 11.94624 | 83° | 86km/h | 10164m | 3.9m/s | -43.2°C | 24.8% | 0hPa | 2.8V | 08:30:00 | 00:59:34 | 00:00:00 | |
| IW2NTF | 2026-09-01 23:33:12 | 44.66115 | 11.94278 | 80° | 80km/h | 10111m | 3.9m/s | -42.7°C | 23.5% | 0hPa | 2.9V | 08:30:00 | 00:59:22 | 00:00:00 | |
| IW2NTF | 2026-09-01 23:33:02 | 44.66081 | 11.93983 | 81° | 88km/h | 10072m | 3.2m/s | -42.4°C | 24.2% | 0hPa | 2.8V | 08:30:00 | 00:59:12 | 00:00:00 | |
| IW2NTF | 2026-09-01 23:32:52 | 44.66040 | 11.93709 | 84° | 84km/h | 10032m | 5.7m/s | -42°C | 24.4% | 0hPa | 2.9V | 08:30:00 | 00:59:02 | 00:00:00 | |
| IW2NTF | 2026-09-01 23:32:42 | 44.66023 | 11.93394 | 82° | 77km/h | 9970m | 8.1m/s | -41.6°C | 24.3% | 0hPa | 2.9V | 08:30:00 | 00:58:52 | 00:00:00 | |
| IW2NTF | 2026-09-01 23:32:33 | 44.66008 | 11.93091 | 79° | 88km/h | 9915m | 6.3m/s | -41.3°C | 24.7% | 0hPa | 2.8V | 08:30:00 | 00:58:42 | 00:00:00 | |
| IW2NTF | 2026-09-01 23:32:22 | 44.65997 | 11.92787 | 93° | 88km/h | 9866m | 4.4m/s | -41°C | 26.9% | 0hPa | 2.9V | 08:30:00 | 00:58:32 | 00:00:00 | |
| IW2NTF | 2026-09-01 23:32:12 | 44.65973 | 11.92496 | 86° | 95km/h | 9807m | 7.8m/s | -40.5°C | 24.7% | 0hPa | 2.9V | 08:30:00 | 00:58:22 | 00:00:00 | |
| IW2NTF | 2026-09-01 23:32:02 | 44.65961 | 11.92175 | 86° | 93km/h | 9754m | 5.2m/s | -40.1°C | 24.3% | 0hPa | 2.8V | 08:30:00 | 00:58:12 | 00:00:00 | |
| IW2NTF | 2026-09-01 23:31:55 | 44.65940 | 11.91841 | 85° | 95km/h | 9710m | 3.8m/s | -39.8°C | 23.8% | 0hPa | 2.9V | 08:30:00 | 00:58:02 | 00:00:00 | |
| IW2NTF | 2026-09-01 23:31:40 | 44.65929 | 11.91449 | 87° | 91km/h | 9659m | 3.8m/s | -39.4°C | 24% | 0hPa | 2.9V | 08:30:00 | 00:57:50 | 00:00:00 | |
| IW2NTF | 2026-09-01 23:31:30 | 44.65920 | 11.91122 | 85° | 95km/h | 9615m | 4.3m/s | -39.1°C | 24.5% | 0hPa | 2.9V | 08:30:00 | 00:57:40 | 00:00:00 | |
| IW2NTF | 2026-09-01 23:31:21 | 44.65905 | 11.90804 | 89° | 84km/h | 9571m | 4.5m/s | -38.7°C | 24.3% | 0hPa | 2.8V | 08:30:00 | 00:57:30 | 00:00:00 | |
| IW2NTF | 2026-09-01 23:31:10 | 44.65892 | 11.90487 | 88° | 89km/h | 9528m | 3.3m/s | -38.3°C | 26.2% | 0hPa | 2.9V | 08:30:00 | 00:57:20 | 00:00:00 | |
| IW2NTF | 2026-09-01 23:31:01 | 44.65880 | 11.90178 | 86° | 91km/h | 9485m | 4.6m/s | -38.1°C | 30.4% | 0hPa | 2.9V | 08:30:00 | 00:57:10 | 00:00:00 | |
| IW2NTF | 2026-09-01 23:30:51 | 44.65876 | 11.89859 | 90° | 91km/h | 9442m | 4.4m/s | -37.7°C | 33.6% | 0hPa | 2.9V | 08:30:00 | 00:57:00 | 00:00:00 | |
| IW2NTF | 2026-09-01 23:30:41 | 44.65873 | 11.89524 | 86° | 91km/h | 9400m | 4.3m/s | -37.4°C | 34.9% | 0hPa | 2.9V | 08:30:00 | 00:56:50 | 00:00:00 | |
| IW2NTF | 2026-09-01 23:30:30 | 44.65870 | 11.89194 | 90° | 93km/h | 9356m | 5.1m/s | -36.9°C | 33.6% | 0hPa | 2.9V | 08:30:00 | 00:56:40 | 00:00:00 | |
| IW2NTF | 2026-09-01 23:30:20 | 44.65863 | 11.88861 | 87° | 97km/h | 9311m | 4.5m/s | -36.5°C | 32.7% | 0hPa | 2.9V | 08:30:00 | 00:56:30 | 00:00:00 | |
| IW2NTF | 2026-09-01 23:30:10 | 44.65858 | 11.88535 | 86° | 95km/h | 9269m | 3.5m/s | -36.1°C | 31.6% | 0hPa | 2.8V | 08:30:00 | 00:56:20 | 00:00:00 | |
| IW2NTF | 2026-09-01 23:30:00 | 44.65849 | 11.88203 | 87° | 93km/h | 9224m | 5.9m/s | -35.8°C | 30.9% | 0hPa | 2.9V | 08:30:00 | 00:56:10 | 00:00:00 | |
| IW2NTF | 2026-09-01 23:29:50 | 44.65842 | 11.87876 | 89° | 88km/h | 9180m | 5.3m/s | -35.5°C | 33.8% | 0hPa | 2.8V | 08:30:00 | 00:56:00 | 00:00:00 | |
| IW2NTF | 2026-09-01 23:29:40 | 44.65836 | 11.87551 | 89° | 93km/h | 9137m | 4.6m/s | -35.2°C | 39.6% | 0hPa | 2.9V | 08:30:00 | 00:55:50 | 00:00:00 | |
| IW2NTF | 2026-09-01 23:29:30 | 44.65834 | 11.87228 | 90° | 91km/h | 9096m | 4.9m/s | -34.9°C | 43.6% | 0hPa | 2.9V | 08:30:00 | 00:55:40 | 00:00:00 | |
| IW2NTF | 2026-09-01 23:29:20 | 44.65833 | 11.86905 | 88° | 93km/h | 9054m | 4m/s | -34.5°C | 44.2% | 0hPa | 2.9V | 08:30:00 | 00:55:30 | 00:00:00 | |
| IW2NTF | 2026-09-01 23:29:10 | 44.65831 | 11.86581 | 87° | 89km/h | 9010m | 4.6m/s | -34.1°C | 42.5% | 0hPa | 2.9V | 08:30:00 | 00:55:20 | 00:00:00 | |
| IW2NTF | 2026-09-01 23:29:01 | 44.65826 | 11.86259 | 90° | 88km/h | 8966m | 3.6m/s | -33.7°C | 41.4% | 0hPa | 2.8V | 08:30:00 | 00:55:10 | 00:00:00 | |
| IW2NTF | 2026-09-01 23:28:49 | 44.65820 | 11.85938 | 86° | 93km/h | 8919m | 4.6m/s | -33.4°C | 40.8% | 0hPa | 2.9V | 08:30:00 | 00:55:00 | 00:00:00 | |
| IW2NTF | 2026-09-01 23:28:43 | 44.65815 | 11.85614 | 94° | 93km/h | 8873m | 4.2m/s | -33.1°C | 39.3% | 0hPa | 2.9V | 08:30:00 | 00:54:50 | 00:00:00 | |
| IW2NTF | 2026-09-01 23:28:33 | 44.65813 | 11.85289 | 89° | 86km/h | 8829m | 3.8m/s | -32.7°C | 33.5% | 0hPa | 2.9V | 08:30:00 | 00:54:40 | 00:00:00 | |
| IW2NTF | 2026-09-01 23:28:23 | 44.65812 | 11.84974 | 90° | 95km/h | 8784m | 4.3m/s | -32.4°C | 25.7% | 0hPa | 2.9V | 08:30:00 | 00:54:30 | 00:00:00 | |
| IW2NTF | 2026-09-01 23:28:13 | 44.65813 | 11.84666 | 90° | 88km/h | 8740m | 4.5m/s | -32.2°C | 32.6% | 0hPa | 2.8V | 08:30:00 | 00:54:20 | 00:00:00 | |
| IW2NTF | 2026-09-01 23:28:03 | 44.65814 | 11.84348 | 85° | 86km/h | 8690m | 4.7m/s | -32°C | 51.3% | 0hPa | 2.9V | 08:30:00 | 00:54:10 | 00:00:00 | |
| IW2NTF | 2026-09-01 23:27:52 | 44.65802 | 11.84019 | 87° | 86km/h | 8639m | 3.8m/s | -31.7°C | 51.3% | 0hPa | 2.9V | 08:30:00 | 00:53:59 | 00:00:00 | |
| IW2NTF | 2026-09-01 23:27:42 | 44.65793 | 11.83708 | 89° | 82km/h | 8595m | 4.9m/s | -31.3°C | 37.4% | 0hPa | 2.8V | 08:30:00 | 00:53:49 | 00:00:00 | |
| IW2NTF | 2026-09-01 23:27:30 | 44.65788 | 11.83335 | 84° | 88km/h | 8538m | 4.4m/s | -30.9°C | 26.9% | 0hPa | 2.9V | 08:30:00 | 00:53:37 | 00:00:00 | |
| IW2NTF | 2026-09-01 23:27:05 | 44.65778 | 11.82709 | 90° | 78km/h | 8439m | 3.9m/s | -30.5°C | 30.8% | 0hPa | 2.9V | 08:30:00 | 00:53:16 | 00:00:00 | |
| IW2NTF | 2026-09-01 23:26:55 | 44.65775 | 11.82418 | 84° | 84km/h | 8395m | 4.3m/s | -30.1°C | 31.4% | 0hPa | 2.9V | 08:30:00 | 00:53:06 | 00:00:00 | |
| IW2NTF | 2026-09-01 23:26:45 | 44.65762 | 11.82124 | 87° | 84km/h | 8350m | 4.1m/s | -29.9°C | 34.2% | 0hPa | 2.9V | 08:30:00 | 00:52:56 | 00:00:00 | |
| IW2NTF | 2026-09-01 23:26:35 | 44.65743 | 11.81830 | 82° | 82km/h | 8305m | 3.5m/s | -29.7°C | 39.5% | 0hPa | 2.9V | 08:30:00 | 00:52:46 | 00:00:00 | |
| IW2NTF | 2026-09-01 23:26:25 | 44.65718 | 11.81540 | 83° | 80km/h | 8263m | 4.5m/s | -29.4°C | 39.9% | 0hPa | 2.8V | 08:30:00 | 00:52:36 | 00:00:00 | |
| IW2NTF | 2026-09-01 23:26:15 | 44.65697 | 11.81246 | 85° | 80km/h | 8220m | 5.5m/s | -29°C | 38.7% | 0hPa | 2.9V | 08:30:00 | 00:52:26 | 00:00:00 | |
| IW2NTF | 2026-09-01 23:26:05 | 44.65672 | 11.80957 | 81° | 84km/h | 8178m | 3.9m/s | -28.7°C | 38.8% | 0hPa | 2.9V | 08:30:00 | 00:52:16 | 00:00:00 | |
| IW2NTF | 2026-09-01 23:25:59 | 44.65650 | 11.80668 | 86° | 84km/h | 8134m | 3.5m/s | -28.4°C | 41.7% | 0hPa | 2.8V | 08:30:00 | 00:52:06 | 00:00:00 | |
| IW2NTF | 2026-09-01 23:25:49 | 44.65634 | 11.80389 | 82° | 77km/h | 8093m | 3.4m/s | -28.1°C | 43.2% | 0hPa | 2.9V | 08:30:00 | 00:51:56 | 00:00:00 | |
| IW2NTF | 2026-09-01 23:25:39 | 44.65622 | 11.80113 | 86° | 82km/h | 8050m | 3m/s | -27.8°C | 52% | 0hPa | 2.9V | 08:30:00 | 00:51:46 | 00:00:00 | |
| IW2NTF | 2026-09-01 23:25:30 | 44.65601 | 11.79834 | 85° | 78km/h | 8004m | 6.6m/s | -27.4°C | 51.1% | 0hPa | 2.9V | 08:30:00 | 00:51:36 | 00:00:00 | |
| IW2NTF | 2026-09-01 23:25:19 | 44.65582 | 11.79571 | 82° | 75km/h | 7956m | 3.2m/s | -26.9°C | 50.1% | 0hPa | 2.9V | 08:30:00 | 00:51:26 | 00:00:00 | |
| IW2NTF | 2026-09-01 23:25:09 | 44.65577 | 11.79295 | 83° | 78km/h | 7907m | 4.9m/s | -26.5°C | 47.5% | 0hPa | 2.9V | 08:30:00 | 00:51:16 | 00:00:00 | |
| IW2NTF | 2026-09-01 23:24:59 | 44.65570 | 11.79025 | 92° | 75km/h | 7861m | 4.5m/s | -26.1°C | 43.5% | 0hPa | 2.9V | 08:30:00 | 00:51:06 | 00:00:00 | |
| IW2NTF | 2026-09-01 23:24:49 | 44.65565 | 11.78760 | 89° | 73km/h | 7820m | 3.9m/s | -25.6°C | 40.1% | 0hPa | 2.9V | 08:30:00 | 00:50:56 | 00:00:00 | |
| IW2NTF | 2026-09-01 23:24:39 | 44.65558 | 11.78490 | 88° | 75km/h | 7771m | 4.4m/s | -25.2°C | 37.3% | 0hPa | 2.9V | 08:30:00 | 00:50:46 | 00:00:00 | |
| IW2NTF | 2026-09-01 23:24:29 | 44.65555 | 11.78243 | 87° | 71km/h | 7720m | 5.4m/s | -24.7°C | 31.8% | 0hPa | 2.9V | 08:30:00 | 00:50:36 | 00:00:00 | |
| IW2NTF | 2026-09-01 23:24:19 | 44.65552 | 11.77987 | 85° | 68km/h | 7673m | 5.4m/s | -24.4°C | 29.2% | 0hPa | 2.9V | 08:30:00 | 00:50:26 | 00:00:00 | |
| IW2NTF | 2026-09-01 23:24:10 | 44.65533 | 11.77722 | 80° | 73km/h | 7623m | 6.3m/s | -24°C | 28.7% | 0hPa | 2.9V | 08:30:00 | 00:50:16 | 00:00:00 | |
| IW2NTF | 2026-09-01 23:23:59 | 44.65518 | 11.77458 | 81° | 78km/h | 7578m | 2.9m/s | -23.7°C | 27.4% | 0hPa | 2.9V | 08:30:00 | 00:50:06 | 00:00:00 | |
| IW2NTF | 2026-09-01 23:23:49 | 44.65492 | 11.77199 | 81° | 71km/h | 7533m | 4.2m/s | -23.4°C | 27.2% | 0hPa | 2.9V | 08:30:00 | 00:49:56 | 00:00:00 | |
| IW2NTF | 2026-09-01 23:23:39 | 44.65474 | 11.76953 | 85° | 71km/h | 7491m | 3.8m/s | -23.2°C | 27.7% | 0hPa | 2.9V | 08:30:00 | 00:49:46 | 00:00:00 | |
| IW2NTF | 2026-09-01 23:23:29 | 44.65455 | 11.76716 | 88° | 66km/h | 7446m | 4.3m/s | -23°C | 27% | 0hPa | 2.9V | 08:30:00 | 00:49:36 | 00:00:00 | |
| IW2NTF | 2026-09-01 23:23:19 | 44.65443 | 11.76468 | 89° | 68km/h | 7401m | 3.6m/s | -22.7°C | 28.7% | 0hPa | 2.9V | 08:30:00 | 00:49:26 | 00:00:00 | |
| IW2NTF | 2026-09-01 23:23:09 | 44.65425 | 11.76224 | 82° | 71km/h | 7352m | 4.1m/s | -22.4°C | 28.6% | 0hPa | 2.9V | 08:30:00 | 00:49:16 | 00:00:00 | |
| IW2NTF | 2026-09-01 23:22:59 | 44.65409 | 11.75982 | 81° | 68km/h | 7308m | 5m/s | -22.1°C | 25.7% | 0hPa | 2.9V | 08:30:00 | 00:49:06 | 00:00:00 | |
| IW2NTF | 2026-09-01 23:22:49 | 44.65396 | 11.75741 | 86° | 69km/h | 7263m | 3.7m/s | -21.7°C | 25.7% | 0hPa | 2.9V | 08:30:00 | 00:48:56 | 00:00:00 | |
| IW2NTF | 2026-09-01 23:22:39 | 44.65376 | 11.75494 | 84° | 73km/h | 7216m | 5.3m/s | -21.4°C | 25.1% | 0hPa | 2.9V | 08:30:00 | 00:48:46 | 00:00:00 | |
| IW2NTF | 2026-09-01 23:22:29 | 44.65352 | 11.75261 | 85° | 68km/h | 7168m | 5.6m/s | -21.1°C | 24.1% | 0hPa | 2.9V | 08:30:00 | 00:48:36 | 00:00:00 | |
| IW2NTF | 2026-09-01 23:22:19 | 44.65333 | 11.75018 | 83° | 68km/h | 7114m | 4m/s | -20.8°C | 26.1% | 0hPa | 2.9V | 08:30:00 | 00:48:26 | 00:00:00 | |
| IW2NTF | 2026-09-01 23:22:10 | 44.65324 | 11.74774 | 83° | 73km/h | 7064m | 3.2m/s | -20.5°C | 28.2% | 0hPa | 2.9V | 08:30:00 | 00:48:16 | 00:00:00 | |
| IW2NTF | 2026-09-01 23:21:59 | 44.65319 | 11.74517 | 88° | 69km/h | 7019m | 4.2m/s | -20.4°C | 32.3% | 0hPa | 2.8V | 08:30:00 | 00:48:06 | 00:00:00 | |
| IW2NTF | 2026-09-01 23:21:50 | 44.65313 | 11.74261 | 91° | 69km/h | 6971m | 4.4m/s | -20.1°C | 39.7% | 0hPa | 2.9V | 08:30:00 | 00:47:56 | 00:00:00 | |
| IW2NTF | 2026-09-01 23:21:40 | 44.65308 | 11.74023 | 90° | 68km/h | 6924m | 6.1m/s | -19.9°C | 58.1% | 0hPa | 2.9V | 08:30:00 | 00:47:46 | 00:00:00 | |
| IW2NTF | 2026-09-01 23:21:29 | 44.65288 | 11.73781 | 82° | 69km/h | 6878m | 5m/s | -19.6°C | 60.1% | 0hPa | 2.9V | 08:30:00 | 00:47:36 | 00:00:00 | |
| IW2NTF | 2026-09-01 23:21:19 | 44.65274 | 11.73552 | 83° | 60km/h | 6833m | 3.4m/s | -19.3°C | 53.1% | 0hPa | 2.9V | 08:30:00 | 00:47:26 | 00:00:00 | |
| IW2NTF | 2026-09-01 23:21:09 | 44.65270 | 11.73325 | 84° | 62km/h | 6784m | 5.1m/s | -19°C | 56.8% | 0hPa | 2.9V | 08:30:00 | 00:47:16 | 00:00:00 | |
| IW2NTF | 2026-09-01 23:20:59 | 44.65271 | 11.73110 | 86° | 66km/h | 6736m | 5.7m/s | -18.7°C | 42.8% | 0hPa | 2.9V | 08:30:00 | 00:47:06 | 00:00:00 | |
| IW2NTF | 2026-09-01 23:20:49 | 44.65262 | 11.72886 | 87° | 64km/h | 6684m | 6.3m/s | -18.2°C | 37.2% | 0hPa | 2.9V | 08:30:00 | 00:46:56 | 00:00:00 | |
| IW2NTF | 2026-09-01 23:20:39 | 44.65253 | 11.72664 | 84° | 57km/h | 6627m | 6.2m/s | -17.7°C | 26.6% | 0hPa | 2.9V | 08:30:00 | 00:46:46 | 00:00:00 | |
| IW2NTF | 2026-09-01 23:20:29 | 44.65237 | 11.72451 | 84° | 60km/h | 6578m | 4.1m/s | -17.4°C | 27.9% | 0hPa | 2.9V | 08:30:00 | 00:46:36 | 00:00:00 | |
| IW2NTF | 2026-09-01 23:20:19 | 44.65234 | 11.72241 | 90° | 57km/h | 6528m | 4.2m/s | -17°C | 30.6% | 0hPa | 2.9V | 08:30:00 | 00:46:26 | 00:00:00 | |
| IW2NTF | 2026-09-01 23:20:09 | 44.65225 | 11.72027 | 90° | 58km/h | 6484m | 7.1m/s | -16.7°C | 32.1% | 0hPa | 2.9V | 08:30:00 | 00:46:16 | 00:00:00 | |
| IW2NTF | 2026-09-01 23:19:59 | 44.65215 | 11.71831 | 88° | 58km/h | 6428m | 5.3m/s | -16.4°C | 0% | 0hPa | 2.9V | 08:30:00 | 00:46:06 | 00:00:00 | |
| IW2NTF | 2026-09-01 23:19:49 | 44.65212 | 11.71625 | 91° | 53km/h | 6379m | 5.2m/s | 0°C | 0% | 0hPa | 2.9V | 08:30:00 | 00:45:56 | 00:00:00 | |
| IW2NTF | 2026-09-01 23:19:39 | 44.65207 | 11.71425 | 88° | 58km/h | 6320m | 4m/s | 0°C | 0% | 0hPa | 2.9V | 00:00:00 | 00:45:46 | 00:00:00 | |
| IW2NTF | 2026-09-01 23:19:29 | 44.65194 | 11.71220 | 83° | 53km/h | 6255m | 6m/s | 0°C | 0% | 0hPa | 2.9V | 00:00:00 | 00:45:36 | 00:00:00 | |
| IW2NTF | 2026-09-01 23:18:21 | 44.65136 | 11.69913 | 88° | 53km/h | 5919m | 4.4m/s | 0°C | 0% | 0hPa | 3V | 00:00:00 | 00:44:29 | 00:00:00 | |
| IW2NTF | 2026-09-01 23:18:11 | 44.65130 | 11.69730 | 79° | 47km/h | 5870m | 3.9m/s | 0°C | 0% | 0hPa | 3V | 00:00:00 | 00:44:19 | 00:00:00 | |
| IW2NTF | 2026-09-01 23:17:58 | 44.65130 | 11.69555 | 90° | 47km/h | 5815m | 6.3m/s | 0°C | 0% | 0hPa | 2.9V | 00:00:00 | 00:44:09 | 00:00:00 | |
| IW2NTF | 2026-09-01 23:17:48 | 44.65121 | 11.69349 | 81° | 51km/h | 5750m | 6.5m/s | 0°C | 0% | 0hPa | 3V | 00:00:00 | 00:43:57 | 00:00:00 | |
| IW2NTF | 2026-09-01 23:17:38 | 44.65119 | 11.69172 | 94° | 47km/h | 5702m | 4.2m/s | 0°C | 0% | 0hPa | 3V | 00:00:00 | 00:43:47 | 00:00:00 | |
| IW2NTF | 2026-09-01 23:17:29 | 44.65121 | 11.68995 | 92° | 51km/h | 5651m | 5.2m/s | 0°C | 0% | 0hPa | 3V | 00:00:00 | 00:43:37 | 00:00:00 | |
| IW2NTF | 2026-09-01 23:16:05 | 44.65152 | 11.67594 | 86° | 42km/h | 5200m | 5m/s | 0°C | 0% | 0hPa | 2.9V | 00:00:00 | 00:42:12 | 00:00:00 | |
| IW2NTF | 2026-09-01 23:15:41 | 44.65118 | 11.67248 | 78° | 40km/h | 5069m | 3.4m/s | 0°C | 0% | 0hPa | 3V | 00:00:00 | 00:41:48 | 00:00:00 | |
| IW2NTF | 2026-09-01 23:15:19 | 44.65115 | 11.66959 | 93° | 38km/h | 4971m | 7.3m/s | 0°C | 0% | 0hPa | 3V | 00:00:00 | 00:41:28 | 00:00:00 | |
| IW2NTF | 2026-09-01 23:15:12 | 44.65119 | 11.66863 | 95° | 49km/h | 4936m | 6.2m/s | 0°C | 0% | 0hPa | 3V | 00:00:00 | 00:41:22 | 00:00:00 | |
| IW2NTF | 2026-09-01 23:15:06 | 44.65126 | 11.66773 | 86° | 44km/h | 4894m | 7m/s | 0°C | 0% | 0hPa | 3V | 00:00:00 | 00:41:16 | 00:00:00 | |
| IW2NTF | 2026-09-01 23:15:00 | 44.65123 | 11.66665 | 94° | 46km/h | 4869m | 4.5m/s | 0°C | 0% | 0hPa | 3V | 00:00:00 | 00:41:10 | 00:00:00 | |
| IW2NTF | 2026-09-01 23:14:54 | 44.65127 | 11.66536 | 85° | 58km/h | 4821m | 5.8m/s | 0°C | 0% | 0hPa | 3V | 00:00:00 | 00:41:02 | 00:00:00 | |
| IW2NTF | 2026-09-01 23:14:30 | 44.65131 | 11.66213 | 105° | 35km/h | 4702m | 5.8m/s | 0°C | 0% | 0hPa | 3V | 00:00:00 | 00:40:40 | 00:00:00 | |
| IW2NTF | 2026-09-01 23:14:24 | 44.65134 | 11.66146 | 82° | 44km/h | 4672m | 5.3m/s | 0°C | 0% | 0hPa | 3V | 00:00:00 | 00:40:35 | 00:00:00 | |
| IW2NTF | 2026-09-01 23:12:52 | 44.65180 | 11.64805 | 86° | 47km/h | 4162m | 3.8m/s | 0°C | 0% | 0hPa | 3V | 00:00:00 | 00:39:00 | 00:00:00 |